<?xml version="1.0" encoding="UTF-8" standalone="no" ?>
<gpx xmlns="http://www.topografix.com/GPX/1/1" xmlns:xsi="http://www.w3.org/2001/XMLSchema-instance" xsi:schemaLocation="http://www.topografix.com/GPX/1/1 http://www.topografix.com/GPX/1/1/gpx.xsd" version="1.1" creator="VisuGPX - https://www.visugpx.com">
  <metadata>
    <name>RANDO ST ARCONS D'ALLIER PARREDON 22KM</name>
    <desc><![CDATA[RANDO ST ARCONS PARREDON 22KM.DEPART ARRIVEE ST ARCONS.NAVAT.BAVAT.VAILHAC.GRINIAC.PARREDON]]></desc>
  </metadata>
  <trk>
    <name><![CDATA[17-AVR-22 16:00:35]]></name>
    <extensions>
      <line xmlns="http://www.topografix.com/GPX/gpx_style/0/2">
        <color>0000FF</color>
        <width>4</width>
      </line>
    </extensions>
    <trkseg>
      <trkpt lat="45.06864" lon="3.54869">
        <ele>533.67</ele>
        <time>2022-04-17T07:51:12Z</time>
      </trkpt>
      <trkpt lat="45.0687" lon="3.54868">
        <ele>532.23</ele>
        <time>2022-04-17T07:51:26Z</time>
      </trkpt>
      <trkpt lat="45.06874" lon="3.5486">
        <ele>531.75</ele>
        <time>2022-04-17T07:51:31Z</time>
      </trkpt>
      <trkpt lat="45.06892" lon="3.54843">
        <ele>526.94</ele>
        <time>2022-04-17T07:51:49Z</time>
      </trkpt>
      <trkpt lat="45.06897" lon="3.54835">
        <ele>524.54</ele>
        <time>2022-04-17T07:51:56Z</time>
      </trkpt>
      <trkpt lat="45.06904" lon="3.54822">
        <ele>519.73</ele>
        <time>2022-04-17T07:52:11Z</time>
      </trkpt>
      <trkpt lat="45.06906" lon="3.5482">
        <ele>520.21</ele>
        <time>2022-04-17T07:52:14Z</time>
      </trkpt>
      <trkpt lat="45.06919" lon="3.54806">
        <ele>538.96</ele>
        <time>2022-04-17T07:52:28Z</time>
      </trkpt>
      <trkpt lat="45.0693" lon="3.54799">
        <ele>541.84</ele>
        <time>2022-04-17T07:52:40Z</time>
      </trkpt>
      <trkpt lat="45.06942" lon="3.5478">
        <ele>543.28</ele>
        <time>2022-04-17T07:52:54Z</time>
      </trkpt>
      <trkpt lat="45.06943" lon="3.54774">
        <ele>543.76</ele>
        <time>2022-04-17T07:53:00Z</time>
      </trkpt>
      <trkpt lat="45.06936" lon="3.54751">
        <ele>546.65</ele>
        <time>2022-04-17T07:53:17Z</time>
      </trkpt>
      <trkpt lat="45.06943" lon="3.54734">
        <ele>543.28</ele>
        <time>2022-04-17T07:53:29Z</time>
      </trkpt>
      <trkpt lat="45.06957" lon="3.54707">
        <ele>541.84</ele>
        <time>2022-04-17T07:53:46Z</time>
      </trkpt>
      <trkpt lat="45.06968" lon="3.54692">
        <ele>539.92</ele>
        <time>2022-04-17T07:54:00Z</time>
      </trkpt>
      <trkpt lat="45.06977" lon="3.54677">
        <ele>538.48</ele>
        <time>2022-04-17T07:54:16Z</time>
      </trkpt>
      <trkpt lat="45.06988" lon="3.54661">
        <ele>538.48</ele>
        <time>2022-04-17T07:54:30Z</time>
      </trkpt>
      <trkpt lat="45.07" lon="3.54643">
        <ele>537.03</ele>
        <time>2022-04-17T07:54:45Z</time>
      </trkpt>
      <trkpt lat="45.07002" lon="3.54641">
        <ele>537.03</ele>
        <time>2022-04-17T07:54:47Z</time>
      </trkpt>
      <trkpt lat="45.07015" lon="3.54623">
        <ele>537.03</ele>
        <time>2022-04-17T07:55:03Z</time>
      </trkpt>
      <trkpt lat="45.07026" lon="3.54606">
        <ele>535.59</ele>
        <time>2022-04-17T07:55:18Z</time>
      </trkpt>
      <trkpt lat="45.07036" lon="3.54593">
        <ele>535.11</ele>
        <time>2022-04-17T07:55:31Z</time>
      </trkpt>
      <trkpt lat="45.0705" lon="3.5458">
        <ele>533.67</ele>
        <time>2022-04-17T07:55:44Z</time>
      </trkpt>
      <trkpt lat="45.07068" lon="3.54562">
        <ele>531.27</ele>
        <time>2022-04-17T07:55:57Z</time>
      </trkpt>
      <trkpt lat="45.07083" lon="3.54546">
        <ele>529.82</ele>
        <time>2022-04-17T07:56:11Z</time>
      </trkpt>
      <trkpt lat="45.07096" lon="3.54528">
        <ele>526.94</ele>
        <time>2022-04-17T07:56:25Z</time>
      </trkpt>
      <trkpt lat="45.071" lon="3.54521">
        <ele>526.94</ele>
        <time>2022-04-17T07:56:30Z</time>
      </trkpt>
      <trkpt lat="45.07106" lon="3.54516">
        <ele>528.38</ele>
        <time>2022-04-17T07:56:36Z</time>
      </trkpt>
      <trkpt lat="45.07109" lon="3.54512">
        <ele>528.86</ele>
        <time>2022-04-17T07:56:40Z</time>
      </trkpt>
      <trkpt lat="45.0712" lon="3.54499">
        <ele>530.79</ele>
        <time>2022-04-17T07:56:52Z</time>
      </trkpt>
      <trkpt lat="45.07135" lon="3.54488">
        <ele>528.38</ele>
        <time>2022-04-17T07:57:06Z</time>
      </trkpt>
      <trkpt lat="45.07151" lon="3.54476">
        <ele>525.02</ele>
        <time>2022-04-17T07:57:21Z</time>
      </trkpt>
      <trkpt lat="45.07172" lon="3.54456">
        <ele>524.54</ele>
        <time>2022-04-17T07:57:37Z</time>
      </trkpt>
      <trkpt lat="45.0719" lon="3.54436">
        <ele>523.58</ele>
        <time>2022-04-17T07:57:51Z</time>
      </trkpt>
      <trkpt lat="45.07204" lon="3.54435">
        <ele>525.02</ele>
        <time>2022-04-17T07:58:06Z</time>
      </trkpt>
      <trkpt lat="45.07221" lon="3.54428">
        <ele>528.38</ele>
        <time>2022-04-17T07:58:22Z</time>
      </trkpt>
      <trkpt lat="45.07225" lon="3.54425">
        <ele>530.3</ele>
        <time>2022-04-17T07:58:37Z</time>
      </trkpt>
      <trkpt lat="45.07232" lon="3.54418">
        <ele>532.71</ele>
        <time>2022-04-17T07:58:48Z</time>
      </trkpt>
      <trkpt lat="45.07235" lon="3.54416">
        <ele>533.19</ele>
        <time>2022-04-17T07:58:50Z</time>
      </trkpt>
      <trkpt lat="45.07241" lon="3.54408">
        <ele>535.59</ele>
        <time>2022-04-17T07:58:59Z</time>
      </trkpt>
      <trkpt lat="45.07247" lon="3.54386">
        <ele>543.28</ele>
        <time>2022-04-17T07:59:14Z</time>
      </trkpt>
      <trkpt lat="45.0725" lon="3.54378">
        <ele>546.65</ele>
        <time>2022-04-17T07:59:20Z</time>
      </trkpt>
      <trkpt lat="45.07249" lon="3.54372">
        <ele>549.53</ele>
        <time>2022-04-17T07:59:24Z</time>
      </trkpt>
      <trkpt lat="45.07252" lon="3.54359">
        <ele>556.26</ele>
        <time>2022-04-17T07:59:34Z</time>
      </trkpt>
      <trkpt lat="45.07255" lon="3.54337">
        <ele>563.47</ele>
        <time>2022-04-17T07:59:49Z</time>
      </trkpt>
      <trkpt lat="45.0726" lon="3.54319">
        <ele>570.68</ele>
        <time>2022-04-17T08:00:02Z</time>
      </trkpt>
      <trkpt lat="45.07261" lon="3.54315">
        <ele>572.6</ele>
        <time>2022-04-17T08:00:05Z</time>
      </trkpt>
      <trkpt lat="45.07267" lon="3.54302">
        <ele>571.64</ele>
        <time>2022-04-17T08:00:15Z</time>
      </trkpt>
      <trkpt lat="45.07273" lon="3.54287">
        <ele>571.64</ele>
        <time>2022-04-17T08:00:27Z</time>
      </trkpt>
      <trkpt lat="45.07283" lon="3.5427">
        <ele>571.64</ele>
        <time>2022-04-17T08:00:39Z</time>
      </trkpt>
      <trkpt lat="45.07298" lon="3.54258">
        <ele>568.28</ele>
        <time>2022-04-17T08:00:54Z</time>
      </trkpt>
      <trkpt lat="45.07318" lon="3.54246">
        <ele>561.55</ele>
        <time>2022-04-17T08:01:08Z</time>
      </trkpt>
      <trkpt lat="45.07322" lon="3.54241">
        <ele>560.59</ele>
        <time>2022-04-17T08:01:14Z</time>
      </trkpt>
      <trkpt lat="45.07326" lon="3.54228">
        <ele>562.03</ele>
        <time>2022-04-17T08:01:30Z</time>
      </trkpt>
      <trkpt lat="45.07332" lon="3.5421">
        <ele>562.51</ele>
        <time>2022-04-17T08:01:43Z</time>
      </trkpt>
      <trkpt lat="45.07338" lon="3.54197">
        <ele>563.95</ele>
        <time>2022-04-17T08:01:58Z</time>
      </trkpt>
      <trkpt lat="45.07338" lon="3.54196">
        <ele>563.47</ele>
        <time>2022-04-17T08:01:59Z</time>
      </trkpt>
      <trkpt lat="45.07344" lon="3.54183">
        <ele>564.43</ele>
        <time>2022-04-17T08:02:15Z</time>
      </trkpt>
      <trkpt lat="45.07343" lon="3.54182">
        <ele>565.39</ele>
        <time>2022-04-17T08:02:19Z</time>
      </trkpt>
      <trkpt lat="45.07336" lon="3.54172">
        <ele>571.16</ele>
        <time>2022-04-17T08:02:34Z</time>
      </trkpt>
      <trkpt lat="45.07335" lon="3.54167">
        <ele>572.12</ele>
        <time>2022-04-17T08:02:50Z</time>
      </trkpt>
      <trkpt lat="45.07341" lon="3.54152">
        <ele>569.72</ele>
        <time>2022-04-17T08:03:04Z</time>
      </trkpt>
      <trkpt lat="45.07343" lon="3.54137">
        <ele>567.8</ele>
        <time>2022-04-17T08:03:15Z</time>
      </trkpt>
      <trkpt lat="45.07341" lon="3.54106">
        <ele>566.83</ele>
        <time>2022-04-17T08:03:32Z</time>
      </trkpt>
      <trkpt lat="45.07343" lon="3.54086">
        <ele>566.83</ele>
        <time>2022-04-17T08:03:46Z</time>
      </trkpt>
      <trkpt lat="45.07346" lon="3.54067">
        <ele>566.83</ele>
        <time>2022-04-17T08:04:00Z</time>
      </trkpt>
      <trkpt lat="45.07368" lon="3.54058">
        <ele>551.45</ele>
        <time>2022-04-17T08:04:16Z</time>
      </trkpt>
      <trkpt lat="45.0737" lon="3.54058">
        <ele>546.65</ele>
        <time>2022-04-17T08:04:32Z</time>
      </trkpt>
      <trkpt lat="45.07372" lon="3.54059">
        <ele>544.24</ele>
        <time>2022-04-17T08:04:47Z</time>
      </trkpt>
      <trkpt lat="45.07374" lon="3.54059">
        <ele>540.4</ele>
        <time>2022-04-17T08:04:58Z</time>
      </trkpt>
      <trkpt lat="45.07384" lon="3.54046">
        <ele>538.96</ele>
        <time>2022-04-17T08:05:11Z</time>
      </trkpt>
      <trkpt lat="45.07389" lon="3.54039">
        <ele>539.92</ele>
        <time>2022-04-17T08:05:25Z</time>
      </trkpt>
      <trkpt lat="45.07393" lon="3.54027">
        <ele>541.84</ele>
        <time>2022-04-17T08:05:38Z</time>
      </trkpt>
      <trkpt lat="45.07394" lon="3.54024">
        <ele>543.76</ele>
        <time>2022-04-17T08:05:52Z</time>
      </trkpt>
      <trkpt lat="45.0739" lon="3.54018">
        <ele>547.13</ele>
        <time>2022-04-17T08:06:07Z</time>
      </trkpt>
      <trkpt lat="45.07386" lon="3.54009">
        <ele>547.61</ele>
        <time>2022-04-17T08:06:21Z</time>
      </trkpt>
      <trkpt lat="45.07386" lon="3.54007">
        <ele>547.61</ele>
        <time>2022-04-17T08:06:26Z</time>
      </trkpt>
      <trkpt lat="45.07388" lon="3.53984">
        <ele>549.53</ele>
        <time>2022-04-17T08:06:40Z</time>
      </trkpt>
      <trkpt lat="45.07392" lon="3.5396">
        <ele>551.93</ele>
        <time>2022-04-17T08:06:54Z</time>
      </trkpt>
      <trkpt lat="45.07399" lon="3.53947">
        <ele>551.45</ele>
        <time>2022-04-17T08:07:07Z</time>
      </trkpt>
      <trkpt lat="45.07401" lon="3.5394">
        <ele>551.93</ele>
        <time>2022-04-17T08:07:11Z</time>
      </trkpt>
      <trkpt lat="45.07403" lon="3.53924">
        <ele>553.86</ele>
        <time>2022-04-17T08:07:19Z</time>
      </trkpt>
      <trkpt lat="45.07411" lon="3.53899">
        <ele>560.11</ele>
        <time>2022-04-17T08:07:34Z</time>
      </trkpt>
      <trkpt lat="45.07418" lon="3.53875">
        <ele>565.87</ele>
        <time>2022-04-17T08:07:49Z</time>
      </trkpt>
      <trkpt lat="45.07424" lon="3.53855">
        <ele>569.24</ele>
        <time>2022-04-17T08:08:01Z</time>
      </trkpt>
      <trkpt lat="45.07435" lon="3.53836">
        <ele>570.2</ele>
        <time>2022-04-17T08:08:15Z</time>
      </trkpt>
      <trkpt lat="45.07437" lon="3.53831">
        <ele>570.2</ele>
        <time>2022-04-17T08:08:18Z</time>
      </trkpt>
      <trkpt lat="45.07449" lon="3.53805">
        <ele>571.16</ele>
        <time>2022-04-17T08:08:33Z</time>
      </trkpt>
      <trkpt lat="45.07452" lon="3.53796">
        <ele>570.68</ele>
        <time>2022-04-17T08:08:38Z</time>
      </trkpt>
      <trkpt lat="45.07455" lon="3.5379">
        <ele>570.68</ele>
        <time>2022-04-17T08:08:42Z</time>
      </trkpt>
      <trkpt lat="45.07463" lon="3.53772">
        <ele>569.72</ele>
        <time>2022-04-17T08:08:55Z</time>
      </trkpt>
      <trkpt lat="45.07471" lon="3.53754">
        <ele>570.2</ele>
        <time>2022-04-17T08:09:08Z</time>
      </trkpt>
      <trkpt lat="45.07473" lon="3.53751">
        <ele>570.2</ele>
        <time>2022-04-17T08:09:10Z</time>
      </trkpt>
      <trkpt lat="45.07487" lon="3.53733">
        <ele>570.2</ele>
        <time>2022-04-17T08:09:22Z</time>
      </trkpt>
      <trkpt lat="45.07496" lon="3.53722">
        <ele>569.72</ele>
        <time>2022-04-17T08:09:30Z</time>
      </trkpt>
      <trkpt lat="45.07512" lon="3.53698">
        <ele>567.32</ele>
        <time>2022-04-17T08:09:47Z</time>
      </trkpt>
      <trkpt lat="45.0752" lon="3.5369">
        <ele>565.87</ele>
        <time>2022-04-17T08:09:56Z</time>
      </trkpt>
      <trkpt lat="45.07524" lon="3.53687">
        <ele>565.39</ele>
        <time>2022-04-17T08:09:59Z</time>
      </trkpt>
      <trkpt lat="45.07539" lon="3.53674">
        <ele>563.47</ele>
        <time>2022-04-17T08:10:12Z</time>
      </trkpt>
      <trkpt lat="45.07544" lon="3.53672">
        <ele>563.47</ele>
        <time>2022-04-17T08:10:15Z</time>
      </trkpt>
      <trkpt lat="45.07553" lon="3.53661">
        <ele>562.99</ele>
        <time>2022-04-17T08:10:23Z</time>
      </trkpt>
      <trkpt lat="45.07559" lon="3.53656">
        <ele>562.51</ele>
        <time>2022-04-17T08:10:27Z</time>
      </trkpt>
      <trkpt lat="45.07576" lon="3.53645">
        <ele>562.99</ele>
        <time>2022-04-17T08:10:41Z</time>
      </trkpt>
      <trkpt lat="45.07601" lon="3.53635">
        <ele>556.74</ele>
        <time>2022-04-17T08:10:55Z</time>
      </trkpt>
      <trkpt lat="45.07638" lon="3.53626">
        <ele>540.88</ele>
        <time>2022-04-17T08:11:08Z</time>
      </trkpt>
      <trkpt lat="45.07666" lon="3.53616">
        <ele>531.27</ele>
        <time>2022-04-17T08:11:25Z</time>
      </trkpt>
      <trkpt lat="45.07676" lon="3.53598">
        <ele>523.58</ele>
        <time>2022-04-17T08:11:41Z</time>
      </trkpt>
      <trkpt lat="45.07684" lon="3.5359">
        <ele>520.69</ele>
        <time>2022-04-17T08:11:55Z</time>
      </trkpt>
      <trkpt lat="45.07687" lon="3.53587">
        <ele>520.21</ele>
        <time>2022-04-17T08:11:59Z</time>
      </trkpt>
      <trkpt lat="45.07699" lon="3.5359">
        <ele>519.25</ele>
        <time>2022-04-17T08:12:10Z</time>
      </trkpt>
      <trkpt lat="45.0772" lon="3.53592">
        <ele>519.73</ele>
        <time>2022-04-17T08:12:25Z</time>
      </trkpt>
      <trkpt lat="45.07737" lon="3.53597">
        <ele>520.69</ele>
        <time>2022-04-17T08:12:39Z</time>
      </trkpt>
      <trkpt lat="45.07753" lon="3.53598">
        <ele>526.46</ele>
        <time>2022-04-17T08:12:55Z</time>
      </trkpt>
      <trkpt lat="45.0776" lon="3.53598">
        <ele>527.42</ele>
        <time>2022-04-17T08:13:00Z</time>
      </trkpt>
      <trkpt lat="45.07781" lon="3.53601">
        <ele>526.46</ele>
        <time>2022-04-17T08:13:16Z</time>
      </trkpt>
      <trkpt lat="45.07785" lon="3.53602">
        <ele>525.02</ele>
        <time>2022-04-17T08:13:20Z</time>
      </trkpt>
      <trkpt lat="45.0781" lon="3.53604">
        <ele>522.13</ele>
        <time>2022-04-17T08:13:38Z</time>
      </trkpt>
      <trkpt lat="45.07827" lon="3.53606">
        <ele>521.65</ele>
        <time>2022-04-17T08:13:53Z</time>
      </trkpt>
      <trkpt lat="45.07846" lon="3.53601">
        <ele>524.54</ele>
        <time>2022-04-17T08:14:09Z</time>
      </trkpt>
      <trkpt lat="45.07861" lon="3.53596">
        <ele>525.5</ele>
        <time>2022-04-17T08:14:22Z</time>
      </trkpt>
      <trkpt lat="45.07875" lon="3.53596">
        <ele>527.42</ele>
        <time>2022-04-17T08:14:37Z</time>
      </trkpt>
      <trkpt lat="45.07891" lon="3.53598">
        <ele>528.86</ele>
        <time>2022-04-17T08:14:51Z</time>
      </trkpt>
      <trkpt lat="45.07923" lon="3.53602">
        <ele>525.02</ele>
        <time>2022-04-17T08:15:07Z</time>
      </trkpt>
      <trkpt lat="45.07946" lon="3.53607">
        <ele>523.09</ele>
        <time>2022-04-17T08:15:22Z</time>
      </trkpt>
      <trkpt lat="45.07967" lon="3.5361">
        <ele>522.61</ele>
        <time>2022-04-17T08:15:37Z</time>
      </trkpt>
      <trkpt lat="45.07987" lon="3.53611">
        <ele>521.65</ele>
        <time>2022-04-17T08:15:53Z</time>
      </trkpt>
      <trkpt lat="45.08003" lon="3.53614">
        <ele>523.09</ele>
        <time>2022-04-17T08:16:06Z</time>
      </trkpt>
      <trkpt lat="45.08023" lon="3.53618">
        <ele>525.02</ele>
        <time>2022-04-17T08:16:19Z</time>
      </trkpt>
      <trkpt lat="45.0804" lon="3.53627">
        <ele>525.98</ele>
        <time>2022-04-17T08:16:33Z</time>
      </trkpt>
      <trkpt lat="45.08055" lon="3.53636">
        <ele>527.42</ele>
        <time>2022-04-17T08:16:46Z</time>
      </trkpt>
      <trkpt lat="45.08056" lon="3.53636">
        <ele>527.42</ele>
        <time>2022-04-17T08:16:47Z</time>
      </trkpt>
      <trkpt lat="45.08064" lon="3.5366">
        <ele>527.42</ele>
        <time>2022-04-17T08:17:04Z</time>
      </trkpt>
      <trkpt lat="45.08076" lon="3.53686">
        <ele>525.02</ele>
        <time>2022-04-17T08:17:21Z</time>
      </trkpt>
      <trkpt lat="45.08079" lon="3.53691">
        <ele>524.06</ele>
        <time>2022-04-17T08:17:25Z</time>
      </trkpt>
      <trkpt lat="45.08093" lon="3.53716">
        <ele>525.5</ele>
        <time>2022-04-17T08:17:43Z</time>
      </trkpt>
      <trkpt lat="45.08106" lon="3.53728">
        <ele>525.02</ele>
        <time>2022-04-17T08:17:57Z</time>
      </trkpt>
      <trkpt lat="45.08108" lon="3.53728">
        <ele>525.02</ele>
        <time>2022-04-17T08:17:59Z</time>
      </trkpt>
      <trkpt lat="45.08124" lon="3.53733">
        <ele>526.46</ele>
        <time>2022-04-17T08:18:12Z</time>
      </trkpt>
      <trkpt lat="45.08142" lon="3.53733">
        <ele>528.86</ele>
        <time>2022-04-17T08:18:27Z</time>
      </trkpt>
      <trkpt lat="45.08154" lon="3.53734">
        <ele>530.79</ele>
        <time>2022-04-17T08:18:37Z</time>
      </trkpt>
      <trkpt lat="45.0816" lon="3.53738">
        <ele>531.27</ele>
        <time>2022-04-17T08:18:42Z</time>
      </trkpt>
      <trkpt lat="45.08172" lon="3.53752">
        <ele>533.19</ele>
        <time>2022-04-17T08:18:57Z</time>
      </trkpt>
      <trkpt lat="45.08186" lon="3.53763">
        <ele>536.55</ele>
        <time>2022-04-17T08:19:11Z</time>
      </trkpt>
      <trkpt lat="45.08198" lon="3.53776">
        <ele>538.48</ele>
        <time>2022-04-17T08:19:24Z</time>
      </trkpt>
      <trkpt lat="45.08209" lon="3.53786">
        <ele>542.8</ele>
        <time>2022-04-17T08:19:37Z</time>
      </trkpt>
      <trkpt lat="45.08222" lon="3.53797">
        <ele>546.65</ele>
        <time>2022-04-17T08:19:52Z</time>
      </trkpt>
      <trkpt lat="45.08234" lon="3.53808">
        <ele>550.49</ele>
        <time>2022-04-17T08:20:05Z</time>
      </trkpt>
      <trkpt lat="45.08241" lon="3.53815">
        <ele>552.41</ele>
        <time>2022-04-17T08:20:20Z</time>
      </trkpt>
      <trkpt lat="45.08256" lon="3.53826">
        <ele>556.74</ele>
        <time>2022-04-17T08:20:35Z</time>
      </trkpt>
      <trkpt lat="45.08269" lon="3.53839">
        <ele>559.14</ele>
        <time>2022-04-17T08:20:49Z</time>
      </trkpt>
      <trkpt lat="45.08277" lon="3.53854">
        <ele>562.03</ele>
        <time>2022-04-17T08:21:02Z</time>
      </trkpt>
      <trkpt lat="45.08281" lon="3.53868">
        <ele>566.35</ele>
        <time>2022-04-17T08:21:15Z</time>
      </trkpt>
      <trkpt lat="45.08285" lon="3.53873">
        <ele>568.28</ele>
        <time>2022-04-17T08:21:20Z</time>
      </trkpt>
      <trkpt lat="45.083" lon="3.53879">
        <ele>569.72</ele>
        <time>2022-04-17T08:21:35Z</time>
      </trkpt>
      <trkpt lat="45.08311" lon="3.53879">
        <ele>569.72</ele>
        <time>2022-04-17T08:21:47Z</time>
      </trkpt>
      <trkpt lat="45.08314" lon="3.5388">
        <ele>569.72</ele>
        <time>2022-04-17T08:21:50Z</time>
      </trkpt>
      <trkpt lat="45.0832" lon="3.53878">
        <ele>570.2</ele>
        <time>2022-04-17T08:21:55Z</time>
      </trkpt>
      <trkpt lat="45.08326" lon="3.53875">
        <ele>570.2</ele>
        <time>2022-04-17T08:22:00Z</time>
      </trkpt>
      <trkpt lat="45.08345" lon="3.53873">
        <ele>571.16</ele>
        <time>2022-04-17T08:22:16Z</time>
      </trkpt>
      <trkpt lat="45.08348" lon="3.53873">
        <ele>571.64</ele>
        <time>2022-04-17T08:22:18Z</time>
      </trkpt>
      <trkpt lat="45.0835" lon="3.53874">
        <ele>571.16</ele>
        <time>2022-04-17T08:22:20Z</time>
      </trkpt>
      <trkpt lat="45.08365" lon="3.53876">
        <ele>572.12</ele>
        <time>2022-04-17T08:22:35Z</time>
      </trkpt>
      <trkpt lat="45.08386" lon="3.53888">
        <ele>574.04</ele>
        <time>2022-04-17T08:22:53Z</time>
      </trkpt>
      <trkpt lat="45.08396" lon="3.53896">
        <ele>575.49</ele>
        <time>2022-04-17T08:23:04Z</time>
      </trkpt>
      <trkpt lat="45.08414" lon="3.53906">
        <ele>577.89</ele>
        <time>2022-04-17T08:23:19Z</time>
      </trkpt>
      <trkpt lat="45.08428" lon="3.53917">
        <ele>578.85</ele>
        <time>2022-04-17T08:23:33Z</time>
      </trkpt>
      <trkpt lat="45.08444" lon="3.53925">
        <ele>579.33</ele>
        <time>2022-04-17T08:23:48Z</time>
      </trkpt>
      <trkpt lat="45.08458" lon="3.53931">
        <ele>580.77</ele>
        <time>2022-04-17T08:24:02Z</time>
      </trkpt>
      <trkpt lat="45.08474" lon="3.53939">
        <ele>581.73</ele>
        <time>2022-04-17T08:24:15Z</time>
      </trkpt>
      <trkpt lat="45.08496" lon="3.53949">
        <ele>582.22</ele>
        <time>2022-04-17T08:24:34Z</time>
      </trkpt>
      <trkpt lat="45.08508" lon="3.53957">
        <ele>582.7</ele>
        <time>2022-04-17T08:24:45Z</time>
      </trkpt>
      <trkpt lat="45.08525" lon="3.53965">
        <ele>582.7</ele>
        <time>2022-04-17T08:25:00Z</time>
      </trkpt>
      <trkpt lat="45.08539" lon="3.53975">
        <ele>582.7</ele>
        <time>2022-04-17T08:25:13Z</time>
      </trkpt>
      <trkpt lat="45.08554" lon="3.53987">
        <ele>583.66</ele>
        <time>2022-04-17T08:25:28Z</time>
      </trkpt>
      <trkpt lat="45.0856" lon="3.53991">
        <ele>585.1</ele>
        <time>2022-04-17T08:25:33Z</time>
      </trkpt>
      <trkpt lat="45.08577" lon="3.54005">
        <ele>586.06</ele>
        <time>2022-04-17T08:25:49Z</time>
      </trkpt>
      <trkpt lat="45.08579" lon="3.54005">
        <ele>586.06</ele>
        <time>2022-04-17T08:25:50Z</time>
      </trkpt>
      <trkpt lat="45.08596" lon="3.54017">
        <ele>585.58</ele>
        <time>2022-04-17T08:26:05Z</time>
      </trkpt>
      <trkpt lat="45.08601" lon="3.54019">
        <ele>585.58</ele>
        <time>2022-04-17T08:26:10Z</time>
      </trkpt>
      <trkpt lat="45.08605" lon="3.5402">
        <ele>586.06</ele>
        <time>2022-04-17T08:26:13Z</time>
      </trkpt>
      <trkpt lat="45.08612" lon="3.54024">
        <ele>586.06</ele>
        <time>2022-04-17T08:26:18Z</time>
      </trkpt>
      <trkpt lat="45.08633" lon="3.54033">
        <ele>585.58</ele>
        <time>2022-04-17T08:26:35Z</time>
      </trkpt>
      <trkpt lat="45.08644" lon="3.5404">
        <ele>585.58</ele>
        <time>2022-04-17T08:26:47Z</time>
      </trkpt>
      <trkpt lat="45.08659" lon="3.54048">
        <ele>586.06</ele>
        <time>2022-04-17T08:27:00Z</time>
      </trkpt>
      <trkpt lat="45.08672" lon="3.5406">
        <ele>584.62</ele>
        <time>2022-04-17T08:27:13Z</time>
      </trkpt>
      <trkpt lat="45.08685" lon="3.5408">
        <ele>583.66</ele>
        <time>2022-04-17T08:27:29Z</time>
      </trkpt>
      <trkpt lat="45.08692" lon="3.54095">
        <ele>585.58</ele>
        <time>2022-04-17T08:27:40Z</time>
      </trkpt>
      <trkpt lat="45.0871" lon="3.54111">
        <ele>588.46</ele>
        <time>2022-04-17T08:27:56Z</time>
      </trkpt>
      <trkpt lat="45.08722" lon="3.54121">
        <ele>589.43</ele>
        <time>2022-04-17T08:28:10Z</time>
      </trkpt>
      <trkpt lat="45.0873" lon="3.54128">
        <ele>589.91</ele>
        <time>2022-04-17T08:28:24Z</time>
      </trkpt>
      <trkpt lat="45.08747" lon="3.54139">
        <ele>591.35</ele>
        <time>2022-04-17T08:28:40Z</time>
      </trkpt>
      <trkpt lat="45.08762" lon="3.54141">
        <ele>591.83</ele>
        <time>2022-04-17T08:28:56Z</time>
      </trkpt>
      <trkpt lat="45.08763" lon="3.54138">
        <ele>592.31</ele>
        <time>2022-04-17T08:29:04Z</time>
      </trkpt>
      <trkpt lat="45.08773" lon="3.54124">
        <ele>595.67</ele>
        <time>2022-04-17T08:29:18Z</time>
      </trkpt>
      <trkpt lat="45.08784" lon="3.54105">
        <ele>601.92</ele>
        <time>2022-04-17T08:29:32Z</time>
      </trkpt>
      <trkpt lat="45.08798" lon="3.54092">
        <ele>609.61</ele>
        <time>2022-04-17T08:29:46Z</time>
      </trkpt>
      <trkpt lat="45.08808" lon="3.54091">
        <ele>609.61</ele>
        <time>2022-04-17T08:30:02Z</time>
      </trkpt>
      <trkpt lat="45.08821" lon="3.54081">
        <ele>611.54</ele>
        <time>2022-04-17T08:30:15Z</time>
      </trkpt>
      <trkpt lat="45.08835" lon="3.5407">
        <ele>614.42</ele>
        <time>2022-04-17T08:30:30Z</time>
      </trkpt>
      <trkpt lat="45.08851" lon="3.54061">
        <ele>615.38</ele>
        <time>2022-04-17T08:30:43Z</time>
      </trkpt>
      <trkpt lat="45.0887" lon="3.54049">
        <ele>616.34</ele>
        <time>2022-04-17T08:30:59Z</time>
      </trkpt>
      <trkpt lat="45.08887" lon="3.54036">
        <ele>613.94</ele>
        <time>2022-04-17T08:31:16Z</time>
      </trkpt>
      <trkpt lat="45.08897" lon="3.54025">
        <ele>612.98</ele>
        <time>2022-04-17T08:31:28Z</time>
      </trkpt>
      <trkpt lat="45.08918" lon="3.54022">
        <ele>611.06</ele>
        <time>2022-04-17T08:31:45Z</time>
      </trkpt>
      <trkpt lat="45.08935" lon="3.54034">
        <ele>611.06</ele>
        <time>2022-04-17T08:32:00Z</time>
      </trkpt>
      <trkpt lat="45.08953" lon="3.54047">
        <ele>610.57</ele>
        <time>2022-04-17T08:32:16Z</time>
      </trkpt>
      <trkpt lat="45.08968" lon="3.54059">
        <ele>610.57</ele>
        <time>2022-04-17T08:32:31Z</time>
      </trkpt>
      <trkpt lat="45.08973" lon="3.54067">
        <ele>610.57</ele>
        <time>2022-04-17T08:32:45Z</time>
      </trkpt>
      <trkpt lat="45.08989" lon="3.54082">
        <ele>610.57</ele>
        <time>2022-04-17T08:32:59Z</time>
      </trkpt>
      <trkpt lat="45.09004" lon="3.54102">
        <ele>611.54</ele>
        <time>2022-04-17T08:33:15Z</time>
      </trkpt>
      <trkpt lat="45.0901" lon="3.54129">
        <ele>612.02</ele>
        <time>2022-04-17T08:33:31Z</time>
      </trkpt>
      <trkpt lat="45.09012" lon="3.54138">
        <ele>611.54</ele>
        <time>2022-04-17T08:33:37Z</time>
      </trkpt>
      <trkpt lat="45.09018" lon="3.54164">
        <ele>611.54</ele>
        <time>2022-04-17T08:33:54Z</time>
      </trkpt>
      <trkpt lat="45.09024" lon="3.54183">
        <ele>612.5</ele>
        <time>2022-04-17T08:34:07Z</time>
      </trkpt>
      <trkpt lat="45.09026" lon="3.54213">
        <ele>611.54</ele>
        <time>2022-04-17T08:34:24Z</time>
      </trkpt>
      <trkpt lat="45.09026" lon="3.54221">
        <ele>611.06</ele>
        <time>2022-04-17T08:34:29Z</time>
      </trkpt>
      <trkpt lat="45.09029" lon="3.54237">
        <ele>611.06</ele>
        <time>2022-04-17T08:34:40Z</time>
      </trkpt>
      <trkpt lat="45.09041" lon="3.5426">
        <ele>614.42</ele>
        <time>2022-04-17T08:34:57Z</time>
      </trkpt>
      <trkpt lat="45.09058" lon="3.54268">
        <ele>614.9</ele>
        <time>2022-04-17T08:35:12Z</time>
      </trkpt>
      <trkpt lat="45.09072" lon="3.54265">
        <ele>614.9</ele>
        <time>2022-04-17T08:35:25Z</time>
      </trkpt>
      <trkpt lat="45.09089" lon="3.54258">
        <ele>615.38</ele>
        <time>2022-04-17T08:35:40Z</time>
      </trkpt>
      <trkpt lat="45.09098" lon="3.54259">
        <ele>615.86</ele>
        <time>2022-04-17T08:35:47Z</time>
      </trkpt>
      <trkpt lat="45.09103" lon="3.54263">
        <ele>616.34</ele>
        <time>2022-04-17T08:35:52Z</time>
      </trkpt>
      <trkpt lat="45.09122" lon="3.54273">
        <ele>617.3</ele>
        <time>2022-04-17T08:36:08Z</time>
      </trkpt>
      <trkpt lat="45.09136" lon="3.54284">
        <ele>617.78</ele>
        <time>2022-04-17T08:36:22Z</time>
      </trkpt>
      <trkpt lat="45.09152" lon="3.54293">
        <ele>618.75</ele>
        <time>2022-04-17T08:36:36Z</time>
      </trkpt>
      <trkpt lat="45.09171" lon="3.54301">
        <ele>618.75</ele>
        <time>2022-04-17T08:36:52Z</time>
      </trkpt>
      <trkpt lat="45.09194" lon="3.54311">
        <ele>618.75</ele>
        <time>2022-04-17T08:37:10Z</time>
      </trkpt>
      <trkpt lat="45.09214" lon="3.54321">
        <ele>618.75</ele>
        <time>2022-04-17T08:37:27Z</time>
      </trkpt>
      <trkpt lat="45.09223" lon="3.54324">
        <ele>618.26</ele>
        <time>2022-04-17T08:37:34Z</time>
      </trkpt>
      <trkpt lat="45.09231" lon="3.54327">
        <ele>618.75</ele>
        <time>2022-04-17T08:37:41Z</time>
      </trkpt>
      <trkpt lat="45.09249" lon="3.54334">
        <ele>619.71</ele>
        <time>2022-04-17T08:37:56Z</time>
      </trkpt>
      <trkpt lat="45.0927" lon="3.54345">
        <ele>620.19</ele>
        <time>2022-04-17T08:38:13Z</time>
      </trkpt>
      <trkpt lat="45.09287" lon="3.54355">
        <ele>621.15</ele>
        <time>2022-04-17T08:38:28Z</time>
      </trkpt>
      <trkpt lat="45.09305" lon="3.54368">
        <ele>621.63</ele>
        <time>2022-04-17T08:38:44Z</time>
      </trkpt>
      <trkpt lat="45.09313" lon="3.54371">
        <ele>622.11</ele>
        <time>2022-04-17T08:38:50Z</time>
      </trkpt>
      <trkpt lat="45.09331" lon="3.54377">
        <ele>622.11</ele>
        <time>2022-04-17T08:39:04Z</time>
      </trkpt>
      <trkpt lat="45.0934" lon="3.5438">
        <ele>621.63</ele>
        <time>2022-04-17T08:39:11Z</time>
      </trkpt>
      <trkpt lat="45.09362" lon="3.5439">
        <ele>621.15</ele>
        <time>2022-04-17T08:39:30Z</time>
      </trkpt>
      <trkpt lat="45.09377" lon="3.54404">
        <ele>622.11</ele>
        <time>2022-04-17T08:39:45Z</time>
      </trkpt>
      <trkpt lat="45.09404" lon="3.54421">
        <ele>621.63</ele>
        <time>2022-04-17T08:40:06Z</time>
      </trkpt>
      <trkpt lat="45.0942" lon="3.54422">
        <ele>621.15</ele>
        <time>2022-04-17T08:40:19Z</time>
      </trkpt>
      <trkpt lat="45.09439" lon="3.54425">
        <ele>620.67</ele>
        <time>2022-04-17T08:40:34Z</time>
      </trkpt>
      <trkpt lat="45.0945" lon="3.54431">
        <ele>620.67</ele>
        <time>2022-04-17T08:40:46Z</time>
      </trkpt>
      <trkpt lat="45.09452" lon="3.54431">
        <ele>620.67</ele>
        <time>2022-04-17T08:40:48Z</time>
      </trkpt>
      <trkpt lat="45.09468" lon="3.54435">
        <ele>621.15</ele>
        <time>2022-04-17T08:41:01Z</time>
      </trkpt>
      <trkpt lat="45.0949" lon="3.5444">
        <ele>623.07</ele>
        <time>2022-04-17T08:41:18Z</time>
      </trkpt>
      <trkpt lat="45.09508" lon="3.54442">
        <ele>623.55</ele>
        <time>2022-04-17T08:41:34Z</time>
      </trkpt>
      <trkpt lat="45.09527" lon="3.54442">
        <ele>624.03</ele>
        <time>2022-04-17T08:41:49Z</time>
      </trkpt>
      <trkpt lat="45.09544" lon="3.54442">
        <ele>623.55</ele>
        <time>2022-04-17T08:42:03Z</time>
      </trkpt>
      <trkpt lat="45.09561" lon="3.5444">
        <ele>624.03</ele>
        <time>2022-04-17T08:42:17Z</time>
      </trkpt>
      <trkpt lat="45.0957" lon="3.54439">
        <ele>624.03</ele>
        <time>2022-04-17T08:42:25Z</time>
      </trkpt>
      <trkpt lat="45.09577" lon="3.54436">
        <ele>624.03</ele>
        <time>2022-04-17T08:42:31Z</time>
      </trkpt>
      <trkpt lat="45.09602" lon="3.5443">
        <ele>623.07</ele>
        <time>2022-04-17T08:42:51Z</time>
      </trkpt>
      <trkpt lat="45.09619" lon="3.54424">
        <ele>622.11</ele>
        <time>2022-04-17T08:43:05Z</time>
      </trkpt>
      <trkpt lat="45.09636" lon="3.54417">
        <ele>622.11</ele>
        <time>2022-04-17T08:43:20Z</time>
      </trkpt>
      <trkpt lat="45.09656" lon="3.54409">
        <ele>622.59</ele>
        <time>2022-04-17T08:43:37Z</time>
      </trkpt>
      <trkpt lat="45.09675" lon="3.54394">
        <ele>621.63</ele>
        <time>2022-04-17T08:43:54Z</time>
      </trkpt>
      <trkpt lat="45.09692" lon="3.54382">
        <ele>621.63</ele>
        <time>2022-04-17T08:44:10Z</time>
      </trkpt>
      <trkpt lat="45.09696" lon="3.54381">
        <ele>621.63</ele>
        <time>2022-04-17T08:44:14Z</time>
      </trkpt>
      <trkpt lat="45.09718" lon="3.54373">
        <ele>622.11</ele>
        <time>2022-04-17T08:44:32Z</time>
      </trkpt>
      <trkpt lat="45.09728" lon="3.54388">
        <ele>622.11</ele>
        <time>2022-04-17T08:44:47Z</time>
      </trkpt>
      <trkpt lat="45.09731" lon="3.5442">
        <ele>622.11</ele>
        <time>2022-04-17T08:45:06Z</time>
      </trkpt>
      <trkpt lat="45.09734" lon="3.54445">
        <ele>622.11</ele>
        <time>2022-04-17T08:45:21Z</time>
      </trkpt>
      <trkpt lat="45.09738" lon="3.5447">
        <ele>623.07</ele>
        <time>2022-04-17T08:45:36Z</time>
      </trkpt>
      <trkpt lat="45.09744" lon="3.54495">
        <ele>624.51</ele>
        <time>2022-04-17T08:45:52Z</time>
      </trkpt>
      <trkpt lat="45.0975" lon="3.54523">
        <ele>625.47</ele>
        <time>2022-04-17T08:46:09Z</time>
      </trkpt>
      <trkpt lat="45.09754" lon="3.54549">
        <ele>626.92</ele>
        <time>2022-04-17T08:46:26Z</time>
      </trkpt>
      <trkpt lat="45.09754" lon="3.54573">
        <ele>627.4</ele>
        <time>2022-04-17T08:46:40Z</time>
      </trkpt>
      <trkpt lat="45.09754" lon="3.5458">
        <ele>627.4</ele>
        <time>2022-04-17T08:46:44Z</time>
      </trkpt>
      <trkpt lat="45.09755" lon="3.54588">
        <ele>627.88</ele>
        <time>2022-04-17T08:46:49Z</time>
      </trkpt>
      <trkpt lat="45.09754" lon="3.54613">
        <ele>627.88</ele>
        <time>2022-04-17T08:47:05Z</time>
      </trkpt>
      <trkpt lat="45.09753" lon="3.54642">
        <ele>628.84</ele>
        <time>2022-04-17T08:47:23Z</time>
      </trkpt>
      <trkpt lat="45.09754" lon="3.54656">
        <ele>629.8</ele>
        <time>2022-04-17T08:47:34Z</time>
      </trkpt>
      <trkpt lat="45.09757" lon="3.54683">
        <ele>631.24</ele>
        <time>2022-04-17T08:47:51Z</time>
      </trkpt>
      <trkpt lat="45.09763" lon="3.54716">
        <ele>632.2</ele>
        <time>2022-04-17T08:48:10Z</time>
      </trkpt>
      <trkpt lat="45.09765" lon="3.54727">
        <ele>632.68</ele>
        <time>2022-04-17T08:48:18Z</time>
      </trkpt>
      <trkpt lat="45.09768" lon="3.54749">
        <ele>634.13</ele>
        <time>2022-04-17T08:48:33Z</time>
      </trkpt>
      <trkpt lat="45.09767" lon="3.54776">
        <ele>634.61</ele>
        <time>2022-04-17T08:48:51Z</time>
      </trkpt>
      <trkpt lat="45.09763" lon="3.54795">
        <ele>634.61</ele>
        <time>2022-04-17T08:49:06Z</time>
      </trkpt>
      <trkpt lat="45.0976" lon="3.54816">
        <ele>635.09</ele>
        <time>2022-04-17T08:49:21Z</time>
      </trkpt>
      <trkpt lat="45.0976" lon="3.54819">
        <ele>636.53</ele>
        <time>2022-04-17T08:49:31Z</time>
      </trkpt>
      <trkpt lat="45.09755" lon="3.54853">
        <ele>637.01</ele>
        <time>2022-04-17T08:49:50Z</time>
      </trkpt>
      <trkpt lat="45.09749" lon="3.54886">
        <ele>637.49</ele>
        <time>2022-04-17T08:50:10Z</time>
      </trkpt>
      <trkpt lat="45.09745" lon="3.54899">
        <ele>637.49</ele>
        <time>2022-04-17T08:50:20Z</time>
      </trkpt>
      <trkpt lat="45.09729" lon="3.54924">
        <ele>639.89</ele>
        <time>2022-04-17T08:50:39Z</time>
      </trkpt>
      <trkpt lat="45.09726" lon="3.54929">
        <ele>640.38</ele>
        <time>2022-04-17T08:50:43Z</time>
      </trkpt>
      <trkpt lat="45.09724" lon="3.54939">
        <ele>640.86</ele>
        <time>2022-04-17T08:50:49Z</time>
      </trkpt>
      <trkpt lat="45.09714" lon="3.54972">
        <ele>643.26</ele>
        <time>2022-04-17T08:51:10Z</time>
      </trkpt>
      <trkpt lat="45.09708" lon="3.54998">
        <ele>644.22</ele>
        <time>2022-04-17T08:51:26Z</time>
      </trkpt>
      <trkpt lat="45.09703" lon="3.55022">
        <ele>646.62</ele>
        <time>2022-04-17T08:51:42Z</time>
      </trkpt>
      <trkpt lat="45.09698" lon="3.55039">
        <ele>647.59</ele>
        <time>2022-04-17T08:51:54Z</time>
      </trkpt>
      <trkpt lat="45.09694" lon="3.55067">
        <ele>648.55</ele>
        <time>2022-04-17T08:52:11Z</time>
      </trkpt>
      <trkpt lat="45.09697" lon="3.55095">
        <ele>649.03</ele>
        <time>2022-04-17T08:52:28Z</time>
      </trkpt>
      <trkpt lat="45.09703" lon="3.55125">
        <ele>650.95</ele>
        <time>2022-04-17T08:52:46Z</time>
      </trkpt>
      <trkpt lat="45.09703" lon="3.55156">
        <ele>652.39</ele>
        <time>2022-04-17T08:53:03Z</time>
      </trkpt>
      <trkpt lat="45.09707" lon="3.55188">
        <ele>653.35</ele>
        <time>2022-04-17T08:53:22Z</time>
      </trkpt>
      <trkpt lat="45.0971" lon="3.55217">
        <ele>655.76</ele>
        <time>2022-04-17T08:53:39Z</time>
      </trkpt>
      <trkpt lat="45.09709" lon="3.5523">
        <ele>656.24</ele>
        <time>2022-04-17T08:53:46Z</time>
      </trkpt>
      <trkpt lat="45.09705" lon="3.55259">
        <ele>657.68</ele>
        <time>2022-04-17T08:54:03Z</time>
      </trkpt>
      <trkpt lat="45.09697" lon="3.55286">
        <ele>658.64</ele>
        <time>2022-04-17T08:54:21Z</time>
      </trkpt>
      <trkpt lat="45.09688" lon="3.5531">
        <ele>659.6</ele>
        <time>2022-04-17T08:54:38Z</time>
      </trkpt>
      <trkpt lat="45.09683" lon="3.55327">
        <ele>662.49</ele>
        <time>2022-04-17T08:54:55Z</time>
      </trkpt>
      <trkpt lat="45.09682" lon="3.55345">
        <ele>664.89</ele>
        <time>2022-04-17T08:55:09Z</time>
      </trkpt>
      <trkpt lat="45.09683" lon="3.55366">
        <ele>667.77</ele>
        <time>2022-04-17T08:55:23Z</time>
      </trkpt>
      <trkpt lat="45.09688" lon="3.55387">
        <ele>671.14</ele>
        <time>2022-04-17T08:55:37Z</time>
      </trkpt>
      <trkpt lat="45.09699" lon="3.55397">
        <ele>673.06</ele>
        <time>2022-04-17T08:55:48Z</time>
      </trkpt>
      <trkpt lat="45.09711" lon="3.55412">
        <ele>672.58</ele>
        <time>2022-04-17T08:56:04Z</time>
      </trkpt>
      <trkpt lat="45.09721" lon="3.55432">
        <ele>674.02</ele>
        <time>2022-04-17T08:56:18Z</time>
      </trkpt>
      <trkpt lat="45.09733" lon="3.55443">
        <ele>676.42</ele>
        <time>2022-04-17T08:56:33Z</time>
      </trkpt>
      <trkpt lat="45.09738" lon="3.55445">
        <ele>676.91</ele>
        <time>2022-04-17T08:56:38Z</time>
      </trkpt>
      <trkpt lat="45.09741" lon="3.55445">
        <ele>677.39</ele>
        <time>2022-04-17T08:56:41Z</time>
      </trkpt>
      <trkpt lat="45.09746" lon="3.55451">
        <ele>677.87</ele>
        <time>2022-04-17T08:56:49Z</time>
      </trkpt>
      <trkpt lat="45.09748" lon="3.5546">
        <ele>678.83</ele>
        <time>2022-04-17T08:56:55Z</time>
      </trkpt>
      <trkpt lat="45.09755" lon="3.55478">
        <ele>682.19</ele>
        <time>2022-04-17T08:57:09Z</time>
      </trkpt>
      <trkpt lat="45.09759" lon="3.55498">
        <ele>683.63</ele>
        <time>2022-04-17T08:57:23Z</time>
      </trkpt>
      <trkpt lat="45.09764" lon="3.55518">
        <ele>684.6</ele>
        <time>2022-04-17T08:57:36Z</time>
      </trkpt>
      <trkpt lat="45.0977" lon="3.55535">
        <ele>687.96</ele>
        <time>2022-04-17T08:57:52Z</time>
      </trkpt>
      <trkpt lat="45.09771" lon="3.55537">
        <ele>688.44</ele>
        <time>2022-04-17T08:57:54Z</time>
      </trkpt>
      <trkpt lat="45.09774" lon="3.55546">
        <ele>687</ele>
        <time>2022-04-17T08:58:01Z</time>
      </trkpt>
      <trkpt lat="45.09785" lon="3.55572">
        <ele>691.33</ele>
        <time>2022-04-17T08:58:21Z</time>
      </trkpt>
      <trkpt lat="45.09792" lon="3.55595">
        <ele>693.73</ele>
        <time>2022-04-17T08:58:38Z</time>
      </trkpt>
      <trkpt lat="45.09798" lon="3.55605">
        <ele>694.69</ele>
        <time>2022-04-17T08:58:47Z</time>
      </trkpt>
      <trkpt lat="45.09808" lon="3.5562">
        <ele>696.13</ele>
        <time>2022-04-17T08:59:00Z</time>
      </trkpt>
      <trkpt lat="45.0981" lon="3.55621">
        <ele>696.61</ele>
        <time>2022-04-17T08:59:02Z</time>
      </trkpt>
      <trkpt lat="45.09818" lon="3.55634">
        <ele>698.05</ele>
        <time>2022-04-17T08:59:16Z</time>
      </trkpt>
      <trkpt lat="45.09827" lon="3.55644">
        <ele>699.02</ele>
        <time>2022-04-17T08:59:28Z</time>
      </trkpt>
      <trkpt lat="45.09837" lon="3.5567">
        <ele>699.02</ele>
        <time>2022-04-17T08:59:45Z</time>
      </trkpt>
      <trkpt lat="45.09843" lon="3.55688">
        <ele>700.46</ele>
        <time>2022-04-17T08:59:57Z</time>
      </trkpt>
      <trkpt lat="45.09848" lon="3.5571">
        <ele>700.46</ele>
        <time>2022-04-17T09:00:10Z</time>
      </trkpt>
      <trkpt lat="45.09857" lon="3.55734">
        <ele>701.42</ele>
        <time>2022-04-17T09:00:26Z</time>
      </trkpt>
      <trkpt lat="45.09866" lon="3.55758">
        <ele>703.34</ele>
        <time>2022-04-17T09:00:41Z</time>
      </trkpt>
      <trkpt lat="45.09868" lon="3.5578">
        <ele>703.34</ele>
        <time>2022-04-17T09:00:54Z</time>
      </trkpt>
      <trkpt lat="45.09865" lon="3.55812">
        <ele>702.38</ele>
        <time>2022-04-17T09:01:12Z</time>
      </trkpt>
      <trkpt lat="45.09861" lon="3.55826">
        <ele>701.9</ele>
        <time>2022-04-17T09:01:22Z</time>
      </trkpt>
      <trkpt lat="45.09853" lon="3.55861">
        <ele>700.46</ele>
        <time>2022-04-17T09:01:43Z</time>
      </trkpt>
      <trkpt lat="45.09851" lon="3.55867">
        <ele>701.42</ele>
        <time>2022-04-17T09:01:57Z</time>
      </trkpt>
      <trkpt lat="45.09846" lon="3.55894">
        <ele>699.5</ele>
        <time>2022-04-17T09:02:13Z</time>
      </trkpt>
      <trkpt lat="45.09843" lon="3.55905">
        <ele>699.98</ele>
        <time>2022-04-17T09:02:20Z</time>
      </trkpt>
      <trkpt lat="45.09842" lon="3.55909">
        <ele>699.98</ele>
        <time>2022-04-17T09:02:22Z</time>
      </trkpt>
      <trkpt lat="45.09835" lon="3.55932">
        <ele>702.38</ele>
        <time>2022-04-17T09:02:36Z</time>
      </trkpt>
      <trkpt lat="45.0983" lon="3.55945">
        <ele>702.86</ele>
        <time>2022-04-17T09:02:43Z</time>
      </trkpt>
      <trkpt lat="45.09823" lon="3.55964">
        <ele>702.38</ele>
        <time>2022-04-17T09:02:55Z</time>
      </trkpt>
      <trkpt lat="45.0982" lon="3.55973">
        <ele>702.86</ele>
        <time>2022-04-17T09:03:01Z</time>
      </trkpt>
      <trkpt lat="45.09818" lon="3.55977">
        <ele>702.38</ele>
        <time>2022-04-17T09:03:04Z</time>
      </trkpt>
      <trkpt lat="45.09817" lon="3.5598">
        <ele>701.9</ele>
        <time>2022-04-17T09:03:06Z</time>
      </trkpt>
      <trkpt lat="45.09805" lon="3.56002">
        <ele>701.9</ele>
        <time>2022-04-17T09:03:22Z</time>
      </trkpt>
      <trkpt lat="45.09791" lon="3.56023">
        <ele>703.34</ele>
        <time>2022-04-17T09:03:39Z</time>
      </trkpt>
      <trkpt lat="45.09777" lon="3.5604">
        <ele>703.82</ele>
        <time>2022-04-17T09:03:54Z</time>
      </trkpt>
      <trkpt lat="45.09776" lon="3.56041">
        <ele>703.82</ele>
        <time>2022-04-17T09:03:55Z</time>
      </trkpt>
      <trkpt lat="45.09755" lon="3.56055">
        <ele>702.86</ele>
        <time>2022-04-17T09:04:14Z</time>
      </trkpt>
      <trkpt lat="45.09741" lon="3.56067">
        <ele>704.3</ele>
        <time>2022-04-17T09:04:28Z</time>
      </trkpt>
      <trkpt lat="45.09725" lon="3.56084">
        <ele>703.34</ele>
        <time>2022-04-17T09:04:45Z</time>
      </trkpt>
      <trkpt lat="45.0971" lon="3.56101">
        <ele>706.23</ele>
        <time>2022-04-17T09:05:00Z</time>
      </trkpt>
      <trkpt lat="45.097" lon="3.56117">
        <ele>711.03</ele>
        <time>2022-04-17T09:05:13Z</time>
      </trkpt>
      <trkpt lat="45.09698" lon="3.5612">
        <ele>711.51</ele>
        <time>2022-04-17T09:05:16Z</time>
      </trkpt>
      <trkpt lat="45.09693" lon="3.56129">
        <ele>713.44</ele>
        <time>2022-04-17T09:05:23Z</time>
      </trkpt>
      <trkpt lat="45.09681" lon="3.56147">
        <ele>715.36</ele>
        <time>2022-04-17T09:05:39Z</time>
      </trkpt>
      <trkpt lat="45.09678" lon="3.56151">
        <ele>713.92</ele>
        <time>2022-04-17T09:05:54Z</time>
      </trkpt>
      <trkpt lat="45.09664" lon="3.56164">
        <ele>712.95</ele>
        <time>2022-04-17T09:06:09Z</time>
      </trkpt>
      <trkpt lat="45.09654" lon="3.56172">
        <ele>714.88</ele>
        <time>2022-04-17T09:06:21Z</time>
      </trkpt>
      <trkpt lat="45.09637" lon="3.56169">
        <ele>717.28</ele>
        <time>2022-04-17T09:06:36Z</time>
      </trkpt>
      <trkpt lat="45.09618" lon="3.56172">
        <ele>717.28</ele>
        <time>2022-04-17T09:06:52Z</time>
      </trkpt>
      <trkpt lat="45.09604" lon="3.56178">
        <ele>718.72</ele>
        <time>2022-04-17T09:07:05Z</time>
      </trkpt>
      <trkpt lat="45.0959" lon="3.56168">
        <ele>721.13</ele>
        <time>2022-04-17T09:07:18Z</time>
      </trkpt>
      <trkpt lat="45.09577" lon="3.56162">
        <ele>722.57</ele>
        <time>2022-04-17T09:07:31Z</time>
      </trkpt>
      <trkpt lat="45.09558" lon="3.56155">
        <ele>724.97</ele>
        <time>2022-04-17T09:07:47Z</time>
      </trkpt>
      <trkpt lat="45.09538" lon="3.56147">
        <ele>729.3</ele>
        <time>2022-04-17T09:08:05Z</time>
      </trkpt>
      <trkpt lat="45.0953" lon="3.56161">
        <ele>728.82</ele>
        <time>2022-04-17T09:08:19Z</time>
      </trkpt>
      <trkpt lat="45.09524" lon="3.56167">
        <ele>729.78</ele>
        <time>2022-04-17T09:08:26Z</time>
      </trkpt>
      <trkpt lat="45.09511" lon="3.56177">
        <ele>732.66</ele>
        <time>2022-04-17T09:08:41Z</time>
      </trkpt>
      <trkpt lat="45.09508" lon="3.56179">
        <ele>733.62</ele>
        <time>2022-04-17T09:08:44Z</time>
      </trkpt>
      <trkpt lat="45.09499" lon="3.56186">
        <ele>740.35</ele>
        <time>2022-04-17T09:09:00Z</time>
      </trkpt>
      <trkpt lat="45.0949" lon="3.56188">
        <ele>744.2</ele>
        <time>2022-04-17T09:09:11Z</time>
      </trkpt>
      <trkpt lat="45.09479" lon="3.56188">
        <ele>750.45</ele>
        <time>2022-04-17T09:09:26Z</time>
      </trkpt>
      <trkpt lat="45.09474" lon="3.56193">
        <ele>751.89</ele>
        <time>2022-04-17T09:09:39Z</time>
      </trkpt>
      <trkpt lat="45.09469" lon="3.56203">
        <ele>757.18</ele>
        <time>2022-04-17T09:09:52Z</time>
      </trkpt>
      <trkpt lat="45.09463" lon="3.56211">
        <ele>761.02</ele>
        <time>2022-04-17T09:10:06Z</time>
      </trkpt>
      <trkpt lat="45.09461" lon="3.56218">
        <ele>763.9</ele>
        <time>2022-04-17T09:10:15Z</time>
      </trkpt>
      <trkpt lat="45.09457" lon="3.56226">
        <ele>766.79</ele>
        <time>2022-04-17T09:10:28Z</time>
      </trkpt>
      <trkpt lat="45.09449" lon="3.5624">
        <ele>769.19</ele>
        <time>2022-04-17T09:10:39Z</time>
      </trkpt>
      <trkpt lat="45.09444" lon="3.5626">
        <ele>771.11</ele>
        <time>2022-04-17T09:10:50Z</time>
      </trkpt>
      <trkpt lat="45.09443" lon="3.56276">
        <ele>773.04</ele>
        <time>2022-04-17T09:11:04Z</time>
      </trkpt>
      <trkpt lat="45.09443" lon="3.5629">
        <ele>776.88</ele>
        <time>2022-04-17T09:11:18Z</time>
      </trkpt>
      <trkpt lat="45.09437" lon="3.56305">
        <ele>780.25</ele>
        <time>2022-04-17T09:11:31Z</time>
      </trkpt>
      <trkpt lat="45.09433" lon="3.56326">
        <ele>780.73</ele>
        <time>2022-04-17T09:11:42Z</time>
      </trkpt>
      <trkpt lat="45.09429" lon="3.56341">
        <ele>782.17</ele>
        <time>2022-04-17T09:11:54Z</time>
      </trkpt>
      <trkpt lat="45.09428" lon="3.56362">
        <ele>787.46</ele>
        <time>2022-04-17T09:12:06Z</time>
      </trkpt>
      <trkpt lat="45.09424" lon="3.56385">
        <ele>786.98</ele>
        <time>2022-04-17T09:12:18Z</time>
      </trkpt>
      <trkpt lat="45.09411" lon="3.56392">
        <ele>787.94</ele>
        <time>2022-04-17T09:12:34Z</time>
      </trkpt>
      <trkpt lat="45.094" lon="3.56393">
        <ele>788.9</ele>
        <time>2022-04-17T09:12:48Z</time>
      </trkpt>
      <trkpt lat="45.09381" lon="3.56395">
        <ele>789.86</ele>
        <time>2022-04-17T09:13:02Z</time>
      </trkpt>
      <trkpt lat="45.0937" lon="3.56392">
        <ele>790.34</ele>
        <time>2022-04-17T09:13:14Z</time>
      </trkpt>
      <trkpt lat="45.0936" lon="3.5639">
        <ele>790.82</ele>
        <time>2022-04-17T09:13:29Z</time>
      </trkpt>
      <trkpt lat="45.09352" lon="3.56389">
        <ele>791.3</ele>
        <time>2022-04-17T09:13:45Z</time>
      </trkpt>
      <trkpt lat="45.0935" lon="3.56387">
        <ele>792.74</ele>
        <time>2022-04-17T09:14:00Z</time>
      </trkpt>
      <trkpt lat="45.09348" lon="3.56387">
        <ele>792.26</ele>
        <time>2022-04-17T09:14:18Z</time>
      </trkpt>
      <trkpt lat="45.09346" lon="3.56387">
        <ele>792.74</ele>
        <time>2022-04-17T09:14:30Z</time>
      </trkpt>
      <trkpt lat="45.09346" lon="3.56387">
        <ele>792.26</ele>
        <time>2022-04-17T09:14:32Z</time>
      </trkpt>
      <trkpt lat="45.09341" lon="3.56385">
        <ele>791.78</ele>
        <time>2022-04-17T09:14:46Z</time>
      </trkpt>
      <trkpt lat="45.09337" lon="3.56386">
        <ele>790.34</ele>
        <time>2022-04-17T09:14:52Z</time>
      </trkpt>
      <trkpt lat="45.09334" lon="3.56387">
        <ele>789.86</ele>
        <time>2022-04-17T09:14:55Z</time>
      </trkpt>
      <trkpt lat="45.09318" lon="3.56394">
        <ele>790.34</ele>
        <time>2022-04-17T09:15:10Z</time>
      </trkpt>
      <trkpt lat="45.09302" lon="3.56401">
        <ele>791.78</ele>
        <time>2022-04-17T09:15:26Z</time>
      </trkpt>
      <trkpt lat="45.09295" lon="3.56404">
        <ele>792.26</ele>
        <time>2022-04-17T09:15:33Z</time>
      </trkpt>
      <trkpt lat="45.09284" lon="3.56406">
        <ele>793.71</ele>
        <time>2022-04-17T09:15:48Z</time>
      </trkpt>
      <trkpt lat="45.09274" lon="3.56408">
        <ele>795.15</ele>
        <time>2022-04-17T09:15:59Z</time>
      </trkpt>
      <trkpt lat="45.09257" lon="3.56413">
        <ele>798.99</ele>
        <time>2022-04-17T09:16:15Z</time>
      </trkpt>
      <trkpt lat="45.09241" lon="3.56421">
        <ele>803.32</ele>
        <time>2022-04-17T09:16:31Z</time>
      </trkpt>
      <trkpt lat="45.09226" lon="3.56429">
        <ele>807.16</ele>
        <time>2022-04-17T09:16:47Z</time>
      </trkpt>
      <trkpt lat="45.09209" lon="3.56441">
        <ele>810.53</ele>
        <time>2022-04-17T09:17:06Z</time>
      </trkpt>
      <trkpt lat="45.092" lon="3.5645">
        <ele>811.01</ele>
        <time>2022-04-17T09:17:17Z</time>
      </trkpt>
      <trkpt lat="45.09198" lon="3.56451">
        <ele>811.49</ele>
        <time>2022-04-17T09:17:24Z</time>
      </trkpt>
      <trkpt lat="45.09189" lon="3.56464">
        <ele>813.41</ele>
        <time>2022-04-17T09:17:38Z</time>
      </trkpt>
      <trkpt lat="45.09179" lon="3.56482">
        <ele>815.34</ele>
        <time>2022-04-17T09:17:52Z</time>
      </trkpt>
      <trkpt lat="45.09172" lon="3.56495">
        <ele>817.26</ele>
        <time>2022-04-17T09:18:02Z</time>
      </trkpt>
      <trkpt lat="45.09161" lon="3.56514">
        <ele>816.78</ele>
        <time>2022-04-17T09:18:17Z</time>
      </trkpt>
      <trkpt lat="45.0915" lon="3.56532">
        <ele>818.22</ele>
        <time>2022-04-17T09:18:32Z</time>
      </trkpt>
      <trkpt lat="45.09139" lon="3.56555">
        <ele>818.7</ele>
        <time>2022-04-17T09:18:49Z</time>
      </trkpt>
      <trkpt lat="45.09131" lon="3.56572">
        <ele>819.66</ele>
        <time>2022-04-17T09:19:04Z</time>
      </trkpt>
      <trkpt lat="45.09122" lon="3.56592">
        <ele>822.06</ele>
        <time>2022-04-17T09:19:19Z</time>
      </trkpt>
      <trkpt lat="45.09114" lon="3.56611">
        <ele>823.99</ele>
        <time>2022-04-17T09:19:33Z</time>
      </trkpt>
      <trkpt lat="45.09106" lon="3.56632">
        <ele>824.47</ele>
        <time>2022-04-17T09:19:48Z</time>
      </trkpt>
      <trkpt lat="45.09097" lon="3.56651">
        <ele>825.91</ele>
        <time>2022-04-17T09:20:03Z</time>
      </trkpt>
      <trkpt lat="45.09088" lon="3.56674">
        <ele>826.39</ele>
        <time>2022-04-17T09:20:19Z</time>
      </trkpt>
      <trkpt lat="45.09085" lon="3.56682">
        <ele>826.39</ele>
        <time>2022-04-17T09:20:25Z</time>
      </trkpt>
      <trkpt lat="45.09077" lon="3.5671">
        <ele>827.83</ele>
        <time>2022-04-17T09:20:43Z</time>
      </trkpt>
      <trkpt lat="45.09077" lon="3.56711">
        <ele>827.35</ele>
        <time>2022-04-17T09:20:44Z</time>
      </trkpt>
      <trkpt lat="45.09074" lon="3.56739">
        <ele>824.95</ele>
        <time>2022-04-17T09:21:02Z</time>
      </trkpt>
      <trkpt lat="45.09075" lon="3.56753">
        <ele>824.47</ele>
        <time>2022-04-17T09:21:11Z</time>
      </trkpt>
      <trkpt lat="45.09077" lon="3.5676">
        <ele>824.95</ele>
        <time>2022-04-17T09:21:15Z</time>
      </trkpt>
      <trkpt lat="45.09079" lon="3.56775">
        <ele>825.43</ele>
        <time>2022-04-17T09:21:24Z</time>
      </trkpt>
      <trkpt lat="45.09086" lon="3.56794">
        <ele>826.87</ele>
        <time>2022-04-17T09:21:38Z</time>
      </trkpt>
      <trkpt lat="45.09096" lon="3.56824">
        <ele>828.79</ele>
        <time>2022-04-17T09:21:57Z</time>
      </trkpt>
      <trkpt lat="45.09107" lon="3.56855">
        <ele>828.31</ele>
        <time>2022-04-17T09:22:16Z</time>
      </trkpt>
      <trkpt lat="45.09118" lon="3.56883">
        <ele>828.79</ele>
        <time>2022-04-17T09:22:34Z</time>
      </trkpt>
      <trkpt lat="45.09123" lon="3.56912">
        <ele>829.27</ele>
        <time>2022-04-17T09:22:52Z</time>
      </trkpt>
      <trkpt lat="45.09122" lon="3.56918">
        <ele>828.79</ele>
        <time>2022-04-17T09:22:56Z</time>
      </trkpt>
      <trkpt lat="45.09122" lon="3.56925">
        <ele>828.79</ele>
        <time>2022-04-17T09:23:00Z</time>
      </trkpt>
      <trkpt lat="45.0912" lon="3.56933">
        <ele>828.31</ele>
        <time>2022-04-17T09:23:05Z</time>
      </trkpt>
      <trkpt lat="45.0912" lon="3.56936">
        <ele>828.31</ele>
        <time>2022-04-17T09:23:07Z</time>
      </trkpt>
      <trkpt lat="45.09117" lon="3.56952">
        <ele>829.27</ele>
        <time>2022-04-17T09:23:16Z</time>
      </trkpt>
      <trkpt lat="45.09112" lon="3.56987">
        <ele>829.27</ele>
        <time>2022-04-17T09:23:36Z</time>
      </trkpt>
      <trkpt lat="45.0911" lon="3.57018">
        <ele>826.39</ele>
        <time>2022-04-17T09:23:54Z</time>
      </trkpt>
      <trkpt lat="45.09108" lon="3.57052">
        <ele>823.99</ele>
        <time>2022-04-17T09:24:13Z</time>
      </trkpt>
      <trkpt lat="45.09106" lon="3.57081">
        <ele>823.99</ele>
        <time>2022-04-17T09:24:30Z</time>
      </trkpt>
      <trkpt lat="45.09109" lon="3.57108">
        <ele>825.91</ele>
        <time>2022-04-17T09:24:46Z</time>
      </trkpt>
      <trkpt lat="45.09111" lon="3.57136">
        <ele>824.95</ele>
        <time>2022-04-17T09:25:02Z</time>
      </trkpt>
      <trkpt lat="45.0911" lon="3.57157">
        <ele>824.47</ele>
        <time>2022-04-17T09:25:14Z</time>
      </trkpt>
      <trkpt lat="45.09109" lon="3.57163">
        <ele>824.95</ele>
        <time>2022-04-17T09:25:18Z</time>
      </trkpt>
      <trkpt lat="45.09102" lon="3.57192">
        <ele>824.95</ele>
        <time>2022-04-17T09:25:36Z</time>
      </trkpt>
      <trkpt lat="45.09093" lon="3.57217">
        <ele>825.91</ele>
        <time>2022-04-17T09:25:53Z</time>
      </trkpt>
      <trkpt lat="45.09084" lon="3.57233">
        <ele>824.47</ele>
        <time>2022-04-17T09:26:05Z</time>
      </trkpt>
      <trkpt lat="45.09071" lon="3.57263">
        <ele>823.51</ele>
        <time>2022-04-17T09:26:25Z</time>
      </trkpt>
      <trkpt lat="45.09061" lon="3.57285">
        <ele>822.55</ele>
        <time>2022-04-17T09:26:43Z</time>
      </trkpt>
      <trkpt lat="45.0905" lon="3.57311">
        <ele>823.99</ele>
        <time>2022-04-17T09:27:00Z</time>
      </trkpt>
      <trkpt lat="45.09038" lon="3.57338">
        <ele>823.51</ele>
        <time>2022-04-17T09:27:18Z</time>
      </trkpt>
      <trkpt lat="45.09027" lon="3.57364">
        <ele>822.55</ele>
        <time>2022-04-17T09:27:35Z</time>
      </trkpt>
      <trkpt lat="45.09016" lon="3.57394">
        <ele>819.66</ele>
        <time>2022-04-17T09:27:54Z</time>
      </trkpt>
      <trkpt lat="45.0901" lon="3.57415">
        <ele>817.74</ele>
        <time>2022-04-17T09:28:09Z</time>
      </trkpt>
      <trkpt lat="45.09006" lon="3.57443">
        <ele>815.34</ele>
        <time>2022-04-17T09:28:25Z</time>
      </trkpt>
      <trkpt lat="45.09005" lon="3.57462">
        <ele>816.78</ele>
        <time>2022-04-17T09:28:36Z</time>
      </trkpt>
      <trkpt lat="45.08999" lon="3.57466">
        <ele>818.22</ele>
        <time>2022-04-17T09:28:42Z</time>
      </trkpt>
      <trkpt lat="45.08994" lon="3.57479">
        <ele>819.18</ele>
        <time>2022-04-17T09:28:51Z</time>
      </trkpt>
      <trkpt lat="45.08991" lon="3.57484">
        <ele>818.7</ele>
        <time>2022-04-17T09:28:56Z</time>
      </trkpt>
      <trkpt lat="45.08982" lon="3.57498">
        <ele>819.66</ele>
        <time>2022-04-17T09:29:12Z</time>
      </trkpt>
      <trkpt lat="45.08979" lon="3.575">
        <ele>820.62</ele>
        <time>2022-04-17T09:29:26Z</time>
      </trkpt>
      <trkpt lat="45.08979" lon="3.575">
        <ele>820.62</ele>
        <time>2022-04-17T09:29:43Z</time>
      </trkpt>
      <trkpt lat="45.08979" lon="3.57501">
        <ele>821.1</ele>
        <time>2022-04-17T09:29:53Z</time>
      </trkpt>
      <trkpt lat="45.08979" lon="3.57501">
        <ele>822.06</ele>
        <time>2022-04-17T09:30:12Z</time>
      </trkpt>
      <trkpt lat="45.08979" lon="3.57502">
        <ele>823.51</ele>
        <time>2022-04-17T09:30:27Z</time>
      </trkpt>
      <trkpt lat="45.08979" lon="3.57503">
        <ele>823.51</ele>
        <time>2022-04-17T09:30:43Z</time>
      </trkpt>
      <trkpt lat="45.08979" lon="3.57504">
        <ele>823.99</ele>
        <time>2022-04-17T09:30:56Z</time>
      </trkpt>
      <trkpt lat="45.0898" lon="3.57505">
        <ele>823.99</ele>
        <time>2022-04-17T09:31:10Z</time>
      </trkpt>
      <trkpt lat="45.0898" lon="3.57506">
        <ele>823.99</ele>
        <time>2022-04-17T09:31:26Z</time>
      </trkpt>
      <trkpt lat="45.08981" lon="3.57507">
        <ele>823.51</ele>
        <time>2022-04-17T09:31:44Z</time>
      </trkpt>
      <trkpt lat="45.08983" lon="3.57507">
        <ele>823.03</ele>
        <time>2022-04-17T09:31:59Z</time>
      </trkpt>
      <trkpt lat="45.08984" lon="3.57503">
        <ele>823.51</ele>
        <time>2022-04-17T09:32:09Z</time>
      </trkpt>
      <trkpt lat="45.08984" lon="3.57502">
        <ele>823.99</ele>
        <time>2022-04-17T09:32:25Z</time>
      </trkpt>
      <trkpt lat="45.08983" lon="3.57502">
        <ele>823.99</ele>
        <time>2022-04-17T09:32:48Z</time>
      </trkpt>
      <trkpt lat="45.08983" lon="3.57502">
        <ele>823.99</ele>
        <time>2022-04-17T09:33:12Z</time>
      </trkpt>
      <trkpt lat="45.08983" lon="3.57502">
        <ele>823.99</ele>
        <time>2022-04-17T09:33:30Z</time>
      </trkpt>
      <trkpt lat="45.08983" lon="3.57502">
        <ele>823.99</ele>
        <time>2022-04-17T09:34:00Z</time>
      </trkpt>
      <trkpt lat="45.08982" lon="3.57502">
        <ele>823.99</ele>
        <time>2022-04-17T09:34:27Z</time>
      </trkpt>
      <trkpt lat="45.08983" lon="3.57501">
        <ele>824.47</ele>
        <time>2022-04-17T09:34:50Z</time>
      </trkpt>
      <trkpt lat="45.08983" lon="3.57501">
        <ele>825.43</ele>
        <time>2022-04-17T09:35:15Z</time>
      </trkpt>
      <trkpt lat="45.08984" lon="3.57501">
        <ele>825.43</ele>
        <time>2022-04-17T09:35:40Z</time>
      </trkpt>
      <trkpt lat="45.08984" lon="3.57502">
        <ele>824.95</ele>
        <time>2022-04-17T09:35:57Z</time>
      </trkpt>
      <trkpt lat="45.08984" lon="3.57504">
        <ele>823.99</ele>
        <time>2022-04-17T09:36:16Z</time>
      </trkpt>
      <trkpt lat="45.08984" lon="3.57504">
        <ele>823.03</ele>
        <time>2022-04-17T09:36:39Z</time>
      </trkpt>
      <trkpt lat="45.08984" lon="3.57504">
        <ele>823.03</ele>
        <time>2022-04-17T09:37:03Z</time>
      </trkpt>
      <trkpt lat="45.08984" lon="3.57505">
        <ele>823.03</ele>
        <time>2022-04-17T09:37:26Z</time>
      </trkpt>
      <trkpt lat="45.08984" lon="3.57504">
        <ele>823.03</ele>
        <time>2022-04-17T09:37:49Z</time>
      </trkpt>
      <trkpt lat="45.08985" lon="3.57505">
        <ele>823.03</ele>
        <time>2022-04-17T09:37:57Z</time>
      </trkpt>
      <trkpt lat="45.08985" lon="3.57505">
        <ele>823.03</ele>
        <time>2022-04-17T09:38:12Z</time>
      </trkpt>
      <trkpt lat="45.08985" lon="3.57505">
        <ele>822.55</ele>
        <time>2022-04-17T09:38:26Z</time>
      </trkpt>
      <trkpt lat="45.08985" lon="3.57506">
        <ele>823.03</ele>
        <time>2022-04-17T09:38:47Z</time>
      </trkpt>
      <trkpt lat="45.08986" lon="3.57506">
        <ele>823.03</ele>
        <time>2022-04-17T09:39:07Z</time>
      </trkpt>
      <trkpt lat="45.08986" lon="3.57506">
        <ele>823.03</ele>
        <time>2022-04-17T09:39:23Z</time>
      </trkpt>
      <trkpt lat="45.08987" lon="3.57504">
        <ele>824.47</ele>
        <time>2022-04-17T09:39:47Z</time>
      </trkpt>
      <trkpt lat="45.08987" lon="3.57506">
        <ele>825.43</ele>
        <time>2022-04-17T09:39:59Z</time>
      </trkpt>
      <trkpt lat="45.08987" lon="3.57503">
        <ele>825.43</ele>
        <time>2022-04-17T09:40:19Z</time>
      </trkpt>
      <trkpt lat="45.08988" lon="3.57501">
        <ele>825.43</ele>
        <time>2022-04-17T09:40:30Z</time>
      </trkpt>
      <trkpt lat="45.08988" lon="3.57504">
        <ele>825.43</ele>
        <time>2022-04-17T09:40:44Z</time>
      </trkpt>
      <trkpt lat="45.08987" lon="3.57504">
        <ele>826.39</ele>
        <time>2022-04-17T09:41:04Z</time>
      </trkpt>
      <trkpt lat="45.08987" lon="3.57505">
        <ele>825.91</ele>
        <time>2022-04-17T09:41:26Z</time>
      </trkpt>
      <trkpt lat="45.08986" lon="3.57504">
        <ele>823.51</ele>
        <time>2022-04-17T09:41:51Z</time>
      </trkpt>
      <trkpt lat="45.08986" lon="3.57504">
        <ele>823.51</ele>
        <time>2022-04-17T09:42:17Z</time>
      </trkpt>
      <trkpt lat="45.08986" lon="3.57505">
        <ele>823.03</ele>
        <time>2022-04-17T09:42:37Z</time>
      </trkpt>
      <trkpt lat="45.08986" lon="3.57506">
        <ele>823.99</ele>
        <time>2022-04-17T09:43:00Z</time>
      </trkpt>
      <trkpt lat="45.08987" lon="3.57504">
        <ele>823.51</ele>
        <time>2022-04-17T09:43:15Z</time>
      </trkpt>
      <trkpt lat="45.08987" lon="3.57504">
        <ele>823.99</ele>
        <time>2022-04-17T09:43:34Z</time>
      </trkpt>
      <trkpt lat="45.08986" lon="3.57503">
        <ele>823.51</ele>
        <time>2022-04-17T09:43:55Z</time>
      </trkpt>
      <trkpt lat="45.08986" lon="3.57505">
        <ele>823.51</ele>
        <time>2022-04-17T09:44:08Z</time>
      </trkpt>
      <trkpt lat="45.08986" lon="3.57505">
        <ele>823.99</ele>
        <time>2022-04-17T09:44:19Z</time>
      </trkpt>
      <trkpt lat="45.08988" lon="3.57514">
        <ele>825.43</ele>
        <time>2022-04-17T09:44:30Z</time>
      </trkpt>
      <trkpt lat="45.08987" lon="3.57519">
        <ele>825.43</ele>
        <time>2022-04-17T09:44:33Z</time>
      </trkpt>
      <trkpt lat="45.08986" lon="3.57528">
        <ele>825.91</ele>
        <time>2022-04-17T09:44:45Z</time>
      </trkpt>
      <trkpt lat="45.08987" lon="3.57528">
        <ele>825.43</ele>
        <time>2022-04-17T09:44:50Z</time>
      </trkpt>
      <trkpt lat="45.08986" lon="3.57535">
        <ele>824.95</ele>
        <time>2022-04-17T09:44:54Z</time>
      </trkpt>
      <trkpt lat="45.08986" lon="3.5756">
        <ele>826.87</ele>
        <time>2022-04-17T09:45:10Z</time>
      </trkpt>
      <trkpt lat="45.08988" lon="3.57567">
        <ele>828.31</ele>
        <time>2022-04-17T09:45:15Z</time>
      </trkpt>
      <trkpt lat="45.08989" lon="3.57594">
        <ele>829.76</ele>
        <time>2022-04-17T09:45:31Z</time>
      </trkpt>
      <trkpt lat="45.08989" lon="3.576">
        <ele>830.72</ele>
        <time>2022-04-17T09:45:35Z</time>
      </trkpt>
      <trkpt lat="45.08987" lon="3.5762">
        <ele>833.12</ele>
        <time>2022-04-17T09:45:47Z</time>
      </trkpt>
      <trkpt lat="45.08984" lon="3.57629">
        <ele>832.16</ele>
        <time>2022-04-17T09:45:52Z</time>
      </trkpt>
      <trkpt lat="45.08976" lon="3.57643">
        <ele>829.76</ele>
        <time>2022-04-17T09:46:02Z</time>
      </trkpt>
      <trkpt lat="45.08965" lon="3.57661">
        <ele>826.87</ele>
        <time>2022-04-17T09:46:15Z</time>
      </trkpt>
      <trkpt lat="45.08963" lon="3.57671">
        <ele>826.39</ele>
        <time>2022-04-17T09:46:21Z</time>
      </trkpt>
      <trkpt lat="45.08977" lon="3.57693">
        <ele>825.43</ele>
        <time>2022-04-17T09:46:39Z</time>
      </trkpt>
      <trkpt lat="45.08998" lon="3.57719">
        <ele>824.95</ele>
        <time>2022-04-17T09:47:01Z</time>
      </trkpt>
      <trkpt lat="45.09013" lon="3.57742">
        <ele>826.87</ele>
        <time>2022-04-17T09:47:19Z</time>
      </trkpt>
      <trkpt lat="45.09018" lon="3.5775">
        <ele>828.31</ele>
        <time>2022-04-17T09:47:25Z</time>
      </trkpt>
      <trkpt lat="45.09021" lon="3.57754">
        <ele>828.31</ele>
        <time>2022-04-17T09:47:29Z</time>
      </trkpt>
      <trkpt lat="45.09023" lon="3.57759">
        <ele>828.79</ele>
        <time>2022-04-17T09:47:32Z</time>
      </trkpt>
      <trkpt lat="45.09036" lon="3.57781">
        <ele>832.16</ele>
        <time>2022-04-17T09:47:49Z</time>
      </trkpt>
      <trkpt lat="45.09047" lon="3.57805">
        <ele>831.2</ele>
        <time>2022-04-17T09:48:04Z</time>
      </trkpt>
      <trkpt lat="45.09058" lon="3.5783">
        <ele>831.2</ele>
        <time>2022-04-17T09:48:20Z</time>
      </trkpt>
      <trkpt lat="45.09059" lon="3.57831">
        <ele>831.2</ele>
        <time>2022-04-17T09:48:21Z</time>
      </trkpt>
      <trkpt lat="45.09066" lon="3.57849">
        <ele>832.16</ele>
        <time>2022-04-17T09:48:34Z</time>
      </trkpt>
      <trkpt lat="45.09077" lon="3.5788">
        <ele>831.68</ele>
        <time>2022-04-17T09:48:51Z</time>
      </trkpt>
      <trkpt lat="45.09085" lon="3.57908">
        <ele>833.6</ele>
        <time>2022-04-17T09:49:08Z</time>
      </trkpt>
      <trkpt lat="45.09094" lon="3.57932">
        <ele>835.04</ele>
        <time>2022-04-17T09:49:23Z</time>
      </trkpt>
      <trkpt lat="45.09103" lon="3.57959">
        <ele>834.08</ele>
        <time>2022-04-17T09:49:40Z</time>
      </trkpt>
      <trkpt lat="45.09113" lon="3.57988">
        <ele>835.04</ele>
        <time>2022-04-17T09:49:58Z</time>
      </trkpt>
      <trkpt lat="45.09122" lon="3.58014">
        <ele>832.64</ele>
        <time>2022-04-17T09:50:14Z</time>
      </trkpt>
      <trkpt lat="45.09132" lon="3.58042">
        <ele>831.68</ele>
        <time>2022-04-17T09:50:30Z</time>
      </trkpt>
      <trkpt lat="45.09135" lon="3.58052">
        <ele>832.16</ele>
        <time>2022-04-17T09:50:36Z</time>
      </trkpt>
      <trkpt lat="45.0914" lon="3.58066">
        <ele>833.12</ele>
        <time>2022-04-17T09:50:45Z</time>
      </trkpt>
      <trkpt lat="45.09141" lon="3.58069">
        <ele>833.6</ele>
        <time>2022-04-17T09:50:47Z</time>
      </trkpt>
      <trkpt lat="45.09142" lon="3.58072">
        <ele>833.6</ele>
        <time>2022-04-17T09:50:49Z</time>
      </trkpt>
      <trkpt lat="45.09155" lon="3.58102">
        <ele>833.6</ele>
        <time>2022-04-17T09:51:08Z</time>
      </trkpt>
      <trkpt lat="45.09163" lon="3.58122">
        <ele>833.6</ele>
        <time>2022-04-17T09:51:21Z</time>
      </trkpt>
      <trkpt lat="45.09173" lon="3.58145">
        <ele>833.12</ele>
        <time>2022-04-17T09:51:36Z</time>
      </trkpt>
      <trkpt lat="45.09184" lon="3.5817">
        <ele>833.6</ele>
        <time>2022-04-17T09:51:53Z</time>
      </trkpt>
      <trkpt lat="45.09194" lon="3.58195">
        <ele>835.52</ele>
        <time>2022-04-17T09:52:10Z</time>
      </trkpt>
      <trkpt lat="45.09203" lon="3.58222">
        <ele>836.48</ele>
        <time>2022-04-17T09:52:27Z</time>
      </trkpt>
      <trkpt lat="45.0921" lon="3.58245">
        <ele>838.41</ele>
        <time>2022-04-17T09:52:43Z</time>
      </trkpt>
      <trkpt lat="45.09218" lon="3.58264">
        <ele>840.81</ele>
        <time>2022-04-17T09:52:56Z</time>
      </trkpt>
      <trkpt lat="45.0922" lon="3.58271">
        <ele>842.25</ele>
        <time>2022-04-17T09:53:01Z</time>
      </trkpt>
      <trkpt lat="45.0923" lon="3.58288">
        <ele>848.5</ele>
        <time>2022-04-17T09:53:16Z</time>
      </trkpt>
      <trkpt lat="45.0924" lon="3.58306">
        <ele>852.83</ele>
        <time>2022-04-17T09:53:31Z</time>
      </trkpt>
      <trkpt lat="45.0925" lon="3.58326">
        <ele>851.87</ele>
        <time>2022-04-17T09:53:45Z</time>
      </trkpt>
      <trkpt lat="45.09261" lon="3.58346">
        <ele>849.46</ele>
        <time>2022-04-17T09:53:59Z</time>
      </trkpt>
      <trkpt lat="45.09275" lon="3.58362">
        <ele>848.5</ele>
        <time>2022-04-17T09:54:14Z</time>
      </trkpt>
      <trkpt lat="45.09292" lon="3.58384">
        <ele>840.81</ele>
        <time>2022-04-17T09:54:31Z</time>
      </trkpt>
      <trkpt lat="45.0931" lon="3.58399">
        <ele>837.93</ele>
        <time>2022-04-17T09:54:48Z</time>
      </trkpt>
      <trkpt lat="45.09327" lon="3.5841">
        <ele>837.93</ele>
        <time>2022-04-17T09:55:05Z</time>
      </trkpt>
      <trkpt lat="45.09342" lon="3.58415">
        <ele>838.41</ele>
        <time>2022-04-17T09:55:19Z</time>
      </trkpt>
      <trkpt lat="45.09362" lon="3.58426">
        <ele>837.93</ele>
        <time>2022-04-17T09:55:37Z</time>
      </trkpt>
      <trkpt lat="45.09382" lon="3.58432">
        <ele>840.81</ele>
        <time>2022-04-17T09:55:54Z</time>
      </trkpt>
      <trkpt lat="45.09404" lon="3.58436">
        <ele>842.25</ele>
        <time>2022-04-17T09:56:13Z</time>
      </trkpt>
      <trkpt lat="45.09426" lon="3.58437">
        <ele>844.18</ele>
        <time>2022-04-17T09:56:31Z</time>
      </trkpt>
      <trkpt lat="45.09446" lon="3.58435">
        <ele>845.62</ele>
        <time>2022-04-17T09:56:48Z</time>
      </trkpt>
      <trkpt lat="45.09465" lon="3.58432">
        <ele>846.1</ele>
        <time>2022-04-17T09:57:04Z</time>
      </trkpt>
      <trkpt lat="45.09485" lon="3.5843">
        <ele>847.06</ele>
        <time>2022-04-17T09:57:21Z</time>
      </trkpt>
      <trkpt lat="45.09504" lon="3.58428">
        <ele>845.62</ele>
        <time>2022-04-17T09:57:36Z</time>
      </trkpt>
      <trkpt lat="45.0953" lon="3.58421">
        <ele>847.06</ele>
        <time>2022-04-17T09:57:57Z</time>
      </trkpt>
      <trkpt lat="45.09551" lon="3.58421">
        <ele>847.54</ele>
        <time>2022-04-17T09:58:14Z</time>
      </trkpt>
      <trkpt lat="45.09575" lon="3.58421">
        <ele>846.1</ele>
        <time>2022-04-17T09:58:32Z</time>
      </trkpt>
      <trkpt lat="45.09599" lon="3.58421">
        <ele>845.62</ele>
        <time>2022-04-17T09:58:51Z</time>
      </trkpt>
      <trkpt lat="45.09622" lon="3.58431">
        <ele>845.14</ele>
        <time>2022-04-17T09:59:10Z</time>
      </trkpt>
      <trkpt lat="45.09639" lon="3.58439">
        <ele>845.14</ele>
        <time>2022-04-17T09:59:25Z</time>
      </trkpt>
      <trkpt lat="45.09657" lon="3.58445">
        <ele>845.62</ele>
        <time>2022-04-17T09:59:40Z</time>
      </trkpt>
      <trkpt lat="45.09679" lon="3.58447">
        <ele>845.14</ele>
        <time>2022-04-17T09:59:57Z</time>
      </trkpt>
      <trkpt lat="45.09695" lon="3.58446">
        <ele>845.14</ele>
        <time>2022-04-17T10:00:10Z</time>
      </trkpt>
      <trkpt lat="45.09718" lon="3.58451">
        <ele>846.58</ele>
        <time>2022-04-17T10:00:29Z</time>
      </trkpt>
      <trkpt lat="45.0974" lon="3.58457">
        <ele>846.58</ele>
        <time>2022-04-17T10:00:46Z</time>
      </trkpt>
      <trkpt lat="45.0976" lon="3.58462">
        <ele>846.58</ele>
        <time>2022-04-17T10:01:03Z</time>
      </trkpt>
      <trkpt lat="45.09767" lon="3.58466">
        <ele>846.1</ele>
        <time>2022-04-17T10:01:16Z</time>
      </trkpt>
      <trkpt lat="45.09766" lon="3.58467">
        <ele>846.1</ele>
        <time>2022-04-17T10:01:21Z</time>
      </trkpt>
      <trkpt lat="45.09764" lon="3.58472">
        <ele>845.62</ele>
        <time>2022-04-17T10:01:30Z</time>
      </trkpt>
      <trkpt lat="45.09754" lon="3.58493">
        <ele>844.18</ele>
        <time>2022-04-17T10:01:46Z</time>
      </trkpt>
      <trkpt lat="45.09744" lon="3.58517">
        <ele>841.29</ele>
        <time>2022-04-17T10:02:02Z</time>
      </trkpt>
      <trkpt lat="45.09733" lon="3.58539">
        <ele>836.96</ele>
        <time>2022-04-17T10:02:18Z</time>
      </trkpt>
      <trkpt lat="45.09724" lon="3.58551">
        <ele>837.45</ele>
        <time>2022-04-17T10:02:31Z</time>
      </trkpt>
      <trkpt lat="45.09718" lon="3.58562">
        <ele>837.93</ele>
        <time>2022-04-17T10:02:38Z</time>
      </trkpt>
      <trkpt lat="45.097" lon="3.58561">
        <ele>834.56</ele>
        <time>2022-04-17T10:02:55Z</time>
      </trkpt>
      <trkpt lat="45.09694" lon="3.58566">
        <ele>835.04</ele>
        <time>2022-04-17T10:03:03Z</time>
      </trkpt>
      <trkpt lat="45.09679" lon="3.58579">
        <ele>833.12</ele>
        <time>2022-04-17T10:03:18Z</time>
      </trkpt>
      <trkpt lat="45.09661" lon="3.58596">
        <ele>829.76</ele>
        <time>2022-04-17T10:03:36Z</time>
      </trkpt>
      <trkpt lat="45.09642" lon="3.58614">
        <ele>828.31</ele>
        <time>2022-04-17T10:03:54Z</time>
      </trkpt>
      <trkpt lat="45.09623" lon="3.58634">
        <ele>826.87</ele>
        <time>2022-04-17T10:04:12Z</time>
      </trkpt>
      <trkpt lat="45.09608" lon="3.58651">
        <ele>826.39</ele>
        <time>2022-04-17T10:04:28Z</time>
      </trkpt>
      <trkpt lat="45.0959" lon="3.58674">
        <ele>826.87</ele>
        <time>2022-04-17T10:04:47Z</time>
      </trkpt>
      <trkpt lat="45.09574" lon="3.58684">
        <ele>826.39</ele>
        <time>2022-04-17T10:05:02Z</time>
      </trkpt>
      <trkpt lat="45.09554" lon="3.5869">
        <ele>824.47</ele>
        <time>2022-04-17T10:05:18Z</time>
      </trkpt>
      <trkpt lat="45.09528" lon="3.58699">
        <ele>821.58</ele>
        <time>2022-04-17T10:05:38Z</time>
      </trkpt>
      <trkpt lat="45.0951" lon="3.58708">
        <ele>820.14</ele>
        <time>2022-04-17T10:05:53Z</time>
      </trkpt>
      <trkpt lat="45.09496" lon="3.58715">
        <ele>817.26</ele>
        <time>2022-04-17T10:06:03Z</time>
      </trkpt>
      <trkpt lat="45.09494" lon="3.58715">
        <ele>816.78</ele>
        <time>2022-04-17T10:06:04Z</time>
      </trkpt>
      <trkpt lat="45.09492" lon="3.58715">
        <ele>815.82</ele>
        <time>2022-04-17T10:06:06Z</time>
      </trkpt>
      <trkpt lat="45.09485" lon="3.58717">
        <ele>813.89</ele>
        <time>2022-04-17T10:06:12Z</time>
      </trkpt>
      <trkpt lat="45.09478" lon="3.58721">
        <ele>813.41</ele>
        <time>2022-04-17T10:06:17Z</time>
      </trkpt>
      <trkpt lat="45.0947" lon="3.58725">
        <ele>811.97</ele>
        <time>2022-04-17T10:06:24Z</time>
      </trkpt>
      <trkpt lat="45.09457" lon="3.58731">
        <ele>809.57</ele>
        <time>2022-04-17T10:06:34Z</time>
      </trkpt>
      <trkpt lat="45.09449" lon="3.58734">
        <ele>807.16</ele>
        <time>2022-04-17T10:06:41Z</time>
      </trkpt>
      <trkpt lat="45.09431" lon="3.58742">
        <ele>805.24</ele>
        <time>2022-04-17T10:06:57Z</time>
      </trkpt>
      <trkpt lat="45.09409" lon="3.58755">
        <ele>804.76</ele>
        <time>2022-04-17T10:07:16Z</time>
      </trkpt>
      <trkpt lat="45.0939" lon="3.58767">
        <ele>810.05</ele>
        <time>2022-04-17T10:07:33Z</time>
      </trkpt>
      <trkpt lat="45.09387" lon="3.58768">
        <ele>810.53</ele>
        <time>2022-04-17T10:07:35Z</time>
      </trkpt>
      <trkpt lat="45.09377" lon="3.58773">
        <ele>810.53</ele>
        <time>2022-04-17T10:07:43Z</time>
      </trkpt>
      <trkpt lat="45.09359" lon="3.58787">
        <ele>812.45</ele>
        <time>2022-04-17T10:08:00Z</time>
      </trkpt>
      <trkpt lat="45.09345" lon="3.58801">
        <ele>814.85</ele>
        <time>2022-04-17T10:08:15Z</time>
      </trkpt>
      <trkpt lat="45.09342" lon="3.5881">
        <ele>815.82</ele>
        <time>2022-04-17T10:08:22Z</time>
      </trkpt>
      <trkpt lat="45.09342" lon="3.58822">
        <ele>817.26</ele>
        <time>2022-04-17T10:08:31Z</time>
      </trkpt>
      <trkpt lat="45.09355" lon="3.58834">
        <ele>818.7</ele>
        <time>2022-04-17T10:08:45Z</time>
      </trkpt>
      <trkpt lat="45.09374" lon="3.58851">
        <ele>821.58</ele>
        <time>2022-04-17T10:09:04Z</time>
      </trkpt>
      <trkpt lat="45.09383" lon="3.58859">
        <ele>822.55</ele>
        <time>2022-04-17T10:09:13Z</time>
      </trkpt>
      <trkpt lat="45.09399" lon="3.58873">
        <ele>823.99</ele>
        <time>2022-04-17T10:09:29Z</time>
      </trkpt>
      <trkpt lat="45.09415" lon="3.58884">
        <ele>824.95</ele>
        <time>2022-04-17T10:09:45Z</time>
      </trkpt>
      <trkpt lat="45.09436" lon="3.58894">
        <ele>825.43</ele>
        <time>2022-04-17T10:10:03Z</time>
      </trkpt>
      <trkpt lat="45.09449" lon="3.58914">
        <ele>827.35</ele>
        <time>2022-04-17T10:10:19Z</time>
      </trkpt>
      <trkpt lat="45.09458" lon="3.58939">
        <ele>828.31</ele>
        <time>2022-04-17T10:10:35Z</time>
      </trkpt>
      <trkpt lat="45.09465" lon="3.5896">
        <ele>829.76</ele>
        <time>2022-04-17T10:10:49Z</time>
      </trkpt>
      <trkpt lat="45.09467" lon="3.58965">
        <ele>830.24</ele>
        <time>2022-04-17T10:10:53Z</time>
      </trkpt>
      <trkpt lat="45.09484" lon="3.58977">
        <ele>831.2</ele>
        <time>2022-04-17T10:11:09Z</time>
      </trkpt>
      <trkpt lat="45.09499" lon="3.58984">
        <ele>832.64</ele>
        <time>2022-04-17T10:11:23Z</time>
      </trkpt>
      <trkpt lat="45.09518" lon="3.58994">
        <ele>833.12</ele>
        <time>2022-04-17T10:11:40Z</time>
      </trkpt>
      <trkpt lat="45.09533" lon="3.59002">
        <ele>835.04</ele>
        <time>2022-04-17T10:11:55Z</time>
      </trkpt>
      <trkpt lat="45.09543" lon="3.59009">
        <ele>835.52</ele>
        <time>2022-04-17T10:12:08Z</time>
      </trkpt>
      <trkpt lat="45.09552" lon="3.59006">
        <ele>836.48</ele>
        <time>2022-04-17T10:12:16Z</time>
      </trkpt>
      <trkpt lat="45.0956" lon="3.58995">
        <ele>837.45</ele>
        <time>2022-04-17T10:12:25Z</time>
      </trkpt>
      <trkpt lat="45.09561" lon="3.58992">
        <ele>837.45</ele>
        <time>2022-04-17T10:12:27Z</time>
      </trkpt>
      <trkpt lat="45.09575" lon="3.59004">
        <ele>838.41</ele>
        <time>2022-04-17T10:12:42Z</time>
      </trkpt>
      <trkpt lat="45.09577" lon="3.59006">
        <ele>838.41</ele>
        <time>2022-04-17T10:12:44Z</time>
      </trkpt>
      <trkpt lat="45.09584" lon="3.59013">
        <ele>838.41</ele>
        <time>2022-04-17T10:12:50Z</time>
      </trkpt>
      <trkpt lat="45.09597" lon="3.59032">
        <ele>839.37</ele>
        <time>2022-04-17T10:13:07Z</time>
      </trkpt>
      <trkpt lat="45.09602" lon="3.59056">
        <ele>840.33</ele>
        <time>2022-04-17T10:13:21Z</time>
      </trkpt>
      <trkpt lat="45.09609" lon="3.59079">
        <ele>840.81</ele>
        <time>2022-04-17T10:13:36Z</time>
      </trkpt>
      <trkpt lat="45.09618" lon="3.59096">
        <ele>842.25</ele>
        <time>2022-04-17T10:13:50Z</time>
      </trkpt>
      <trkpt lat="45.09633" lon="3.59112">
        <ele>843.69</ele>
        <time>2022-04-17T10:14:07Z</time>
      </trkpt>
      <trkpt lat="45.09652" lon="3.59122">
        <ele>844.66</ele>
        <time>2022-04-17T10:14:24Z</time>
      </trkpt>
      <trkpt lat="45.09656" lon="3.59124">
        <ele>844.66</ele>
        <time>2022-04-17T10:14:28Z</time>
      </trkpt>
      <trkpt lat="45.09675" lon="3.59138">
        <ele>845.14</ele>
        <time>2022-04-17T10:14:45Z</time>
      </trkpt>
      <trkpt lat="45.09687" lon="3.59152">
        <ele>845.62</ele>
        <time>2022-04-17T10:15:01Z</time>
      </trkpt>
      <trkpt lat="45.09702" lon="3.59166">
        <ele>847.06</ele>
        <time>2022-04-17T10:15:17Z</time>
      </trkpt>
      <trkpt lat="45.09721" lon="3.5919">
        <ele>848.5</ele>
        <time>2022-04-17T10:15:36Z</time>
      </trkpt>
      <trkpt lat="45.09734" lon="3.59212">
        <ele>850.9</ele>
        <time>2022-04-17T10:15:53Z</time>
      </trkpt>
      <trkpt lat="45.09749" lon="3.59236">
        <ele>851.87</ele>
        <time>2022-04-17T10:16:12Z</time>
      </trkpt>
      <trkpt lat="45.09764" lon="3.59258">
        <ele>852.35</ele>
        <time>2022-04-17T10:16:29Z</time>
      </trkpt>
      <trkpt lat="45.09784" lon="3.59272">
        <ele>850.9</ele>
        <time>2022-04-17T10:16:45Z</time>
      </trkpt>
      <trkpt lat="45.09806" lon="3.59284">
        <ele>850.9</ele>
        <time>2022-04-17T10:17:03Z</time>
      </trkpt>
      <trkpt lat="45.09812" lon="3.59285">
        <ele>851.38</ele>
        <time>2022-04-17T10:17:16Z</time>
      </trkpt>
      <trkpt lat="45.09826" lon="3.59291">
        <ele>850.9</ele>
        <time>2022-04-17T10:17:31Z</time>
      </trkpt>
      <trkpt lat="45.09841" lon="3.593">
        <ele>849.94</ele>
        <time>2022-04-17T10:17:45Z</time>
      </trkpt>
      <trkpt lat="45.09862" lon="3.59311">
        <ele>850.9</ele>
        <time>2022-04-17T10:18:01Z</time>
      </trkpt>
      <trkpt lat="45.09868" lon="3.59314">
        <ele>851.38</ele>
        <time>2022-04-17T10:18:11Z</time>
      </trkpt>
      <trkpt lat="45.09882" lon="3.59334">
        <ele>850.9</ele>
        <time>2022-04-17T10:18:27Z</time>
      </trkpt>
      <trkpt lat="45.09894" lon="3.59354">
        <ele>850.42</ele>
        <time>2022-04-17T10:18:43Z</time>
      </trkpt>
      <trkpt lat="45.09906" lon="3.59371">
        <ele>848.98</ele>
        <time>2022-04-17T10:18:59Z</time>
      </trkpt>
      <trkpt lat="45.09916" lon="3.59381">
        <ele>848.98</ele>
        <time>2022-04-17T10:19:12Z</time>
      </trkpt>
      <trkpt lat="45.09926" lon="3.59401">
        <ele>848.02</ele>
        <time>2022-04-17T10:19:27Z</time>
      </trkpt>
      <trkpt lat="45.09935" lon="3.59425">
        <ele>846.58</ele>
        <time>2022-04-17T10:19:42Z</time>
      </trkpt>
      <trkpt lat="45.09938" lon="3.59433">
        <ele>846.58</ele>
        <time>2022-04-17T10:19:47Z</time>
      </trkpt>
      <trkpt lat="45.09943" lon="3.59457">
        <ele>847.54</ele>
        <time>2022-04-17T10:20:03Z</time>
      </trkpt>
      <trkpt lat="45.09948" lon="3.59481">
        <ele>845.62</ele>
        <time>2022-04-17T10:20:20Z</time>
      </trkpt>
      <trkpt lat="45.09951" lon="3.59504">
        <ele>843.21</ele>
        <time>2022-04-17T10:20:34Z</time>
      </trkpt>
      <trkpt lat="45.09957" lon="3.59528">
        <ele>840.33</ele>
        <time>2022-04-17T10:20:49Z</time>
      </trkpt>
      <trkpt lat="45.09959" lon="3.59547">
        <ele>836.48</ele>
        <time>2022-04-17T10:21:05Z</time>
      </trkpt>
      <trkpt lat="45.09962" lon="3.59569">
        <ele>835.04</ele>
        <time>2022-04-17T10:21:19Z</time>
      </trkpt>
      <trkpt lat="45.09963" lon="3.5957">
        <ele>834.56</ele>
        <time>2022-04-17T10:21:20Z</time>
      </trkpt>
      <trkpt lat="45.09967" lon="3.59598">
        <ele>831.68</ele>
        <time>2022-04-17T10:21:35Z</time>
      </trkpt>
      <trkpt lat="45.09971" lon="3.59616">
        <ele>828.31</ele>
        <time>2022-04-17T10:21:49Z</time>
      </trkpt>
      <trkpt lat="45.09979" lon="3.59638">
        <ele>824.95</ele>
        <time>2022-04-17T10:22:03Z</time>
      </trkpt>
      <trkpt lat="45.09989" lon="3.59659">
        <ele>819.18</ele>
        <time>2022-04-17T10:22:21Z</time>
      </trkpt>
      <trkpt lat="45.09995" lon="3.59669">
        <ele>819.18</ele>
        <time>2022-04-17T10:22:30Z</time>
      </trkpt>
      <trkpt lat="45.10005" lon="3.59691">
        <ele>815.82</ele>
        <time>2022-04-17T10:22:47Z</time>
      </trkpt>
      <trkpt lat="45.10015" lon="3.59703">
        <ele>814.37</ele>
        <time>2022-04-17T10:23:02Z</time>
      </trkpt>
      <trkpt lat="45.1002" lon="3.5971">
        <ele>813.41</ele>
        <time>2022-04-17T10:23:20Z</time>
      </trkpt>
      <trkpt lat="45.10023" lon="3.59719">
        <ele>812.93</ele>
        <time>2022-04-17T10:23:32Z</time>
      </trkpt>
      <trkpt lat="45.10029" lon="3.59739">
        <ele>811.49</ele>
        <time>2022-04-17T10:23:47Z</time>
      </trkpt>
      <trkpt lat="45.10035" lon="3.59752">
        <ele>811.01</ele>
        <time>2022-04-17T10:24:00Z</time>
      </trkpt>
      <trkpt lat="45.10037" lon="3.59757">
        <ele>810.05</ele>
        <time>2022-04-17T10:24:04Z</time>
      </trkpt>
      <trkpt lat="45.1005" lon="3.59769">
        <ele>806.2</ele>
        <time>2022-04-17T10:24:19Z</time>
      </trkpt>
      <trkpt lat="45.10052" lon="3.59771">
        <ele>805.72</ele>
        <time>2022-04-17T10:24:22Z</time>
      </trkpt>
      <trkpt lat="45.10065" lon="3.59781">
        <ele>801.4</ele>
        <time>2022-04-17T10:24:36Z</time>
      </trkpt>
      <trkpt lat="45.10081" lon="3.59796">
        <ele>799.47</ele>
        <time>2022-04-17T10:24:50Z</time>
      </trkpt>
      <trkpt lat="45.10093" lon="3.59798">
        <ele>797.07</ele>
        <time>2022-04-17T10:25:05Z</time>
      </trkpt>
      <trkpt lat="45.1011" lon="3.59807">
        <ele>798.51</ele>
        <time>2022-04-17T10:25:23Z</time>
      </trkpt>
      <trkpt lat="45.10114" lon="3.59811">
        <ele>798.99</ele>
        <time>2022-04-17T10:25:39Z</time>
      </trkpt>
      <trkpt lat="45.10113" lon="3.59814">
        <ele>799.95</ele>
        <time>2022-04-17T10:25:57Z</time>
      </trkpt>
      <trkpt lat="45.10122" lon="3.59817">
        <ele>800.44</ele>
        <time>2022-04-17T10:26:14Z</time>
      </trkpt>
      <trkpt lat="45.10136" lon="3.59821">
        <ele>802.36</ele>
        <time>2022-04-17T10:26:29Z</time>
      </trkpt>
      <trkpt lat="45.10137" lon="3.59821">
        <ele>802.36</ele>
        <time>2022-04-17T10:26:30Z</time>
      </trkpt>
      <trkpt lat="45.10149" lon="3.59815">
        <ele>801.88</ele>
        <time>2022-04-17T10:26:45Z</time>
      </trkpt>
      <trkpt lat="45.1016" lon="3.598">
        <ele>801.88</ele>
        <time>2022-04-17T10:26:59Z</time>
      </trkpt>
      <trkpt lat="45.10179" lon="3.59784">
        <ele>803.32</ele>
        <time>2022-04-17T10:27:14Z</time>
      </trkpt>
      <trkpt lat="45.10182" lon="3.59781">
        <ele>803.32</ele>
        <time>2022-04-17T10:27:16Z</time>
      </trkpt>
      <trkpt lat="45.102" lon="3.5977">
        <ele>799.95</ele>
        <time>2022-04-17T10:27:32Z</time>
      </trkpt>
      <trkpt lat="45.10198" lon="3.59781">
        <ele>797.55</ele>
        <time>2022-04-17T10:27:44Z</time>
      </trkpt>
      <trkpt lat="45.10196" lon="3.5979">
        <ele>798.03</ele>
        <time>2022-04-17T10:27:50Z</time>
      </trkpt>
      <trkpt lat="45.10193" lon="3.5981">
        <ele>796.59</ele>
        <time>2022-04-17T10:28:04Z</time>
      </trkpt>
      <trkpt lat="45.10186" lon="3.59823">
        <ele>795.63</ele>
        <time>2022-04-17T10:28:19Z</time>
      </trkpt>
      <trkpt lat="45.10182" lon="3.5983">
        <ele>794.67</ele>
        <time>2022-04-17T10:28:23Z</time>
      </trkpt>
      <trkpt lat="45.10179" lon="3.59847">
        <ele>793.71</ele>
        <time>2022-04-17T10:28:38Z</time>
      </trkpt>
      <trkpt lat="45.10177" lon="3.59854">
        <ele>793.71</ele>
        <time>2022-04-17T10:28:43Z</time>
      </trkpt>
      <trkpt lat="45.10163" lon="3.59874">
        <ele>790.34</ele>
        <time>2022-04-17T10:29:00Z</time>
      </trkpt>
      <trkpt lat="45.10151" lon="3.59881">
        <ele>786.98</ele>
        <time>2022-04-17T10:29:14Z</time>
      </trkpt>
      <trkpt lat="45.10137" lon="3.59886">
        <ele>784.09</ele>
        <time>2022-04-17T10:29:25Z</time>
      </trkpt>
      <trkpt lat="45.1013" lon="3.5989">
        <ele>783.13</ele>
        <time>2022-04-17T10:29:30Z</time>
      </trkpt>
      <trkpt lat="45.1013" lon="3.59902">
        <ele>781.21</ele>
        <time>2022-04-17T10:29:39Z</time>
      </trkpt>
      <trkpt lat="45.10118" lon="3.59932">
        <ele>774</ele>
        <time>2022-04-17T10:29:58Z</time>
      </trkpt>
      <trkpt lat="45.10098" lon="3.59945">
        <ele>769.19</ele>
        <time>2022-04-17T10:30:13Z</time>
      </trkpt>
      <trkpt lat="45.10083" lon="3.59949">
        <ele>768.23</ele>
        <time>2022-04-17T10:30:27Z</time>
      </trkpt>
      <trkpt lat="45.10087" lon="3.59958">
        <ele>767.75</ele>
        <time>2022-04-17T10:30:40Z</time>
      </trkpt>
      <trkpt lat="45.10094" lon="3.59963">
        <ele>766.79</ele>
        <time>2022-04-17T10:30:50Z</time>
      </trkpt>
      <trkpt lat="45.10098" lon="3.59966">
        <ele>766.79</ele>
        <time>2022-04-17T10:30:56Z</time>
      </trkpt>
      <trkpt lat="45.10106" lon="3.59975">
        <ele>767.27</ele>
        <time>2022-04-17T10:31:10Z</time>
      </trkpt>
      <trkpt lat="45.10108" lon="3.59976">
        <ele>767.27</ele>
        <time>2022-04-17T10:31:19Z</time>
      </trkpt>
      <trkpt lat="45.10123" lon="3.59987">
        <ele>769.67</ele>
        <time>2022-04-17T10:31:35Z</time>
      </trkpt>
      <trkpt lat="45.10131" lon="3.59989">
        <ele>769.67</ele>
        <time>2022-04-17T10:31:42Z</time>
      </trkpt>
      <trkpt lat="45.10148" lon="3.59979">
        <ele>771.11</ele>
        <time>2022-04-17T10:31:58Z</time>
      </trkpt>
      <trkpt lat="45.10154" lon="3.59979">
        <ele>772.08</ele>
        <time>2022-04-17T10:32:13Z</time>
      </trkpt>
      <trkpt lat="45.1017" lon="3.59977">
        <ele>776.88</ele>
        <time>2022-04-17T10:32:28Z</time>
      </trkpt>
      <trkpt lat="45.10187" lon="3.59982">
        <ele>778.81</ele>
        <time>2022-04-17T10:32:39Z</time>
      </trkpt>
      <trkpt lat="45.10195" lon="3.59993">
        <ele>783.13</ele>
        <time>2022-04-17T10:32:52Z</time>
      </trkpt>
      <trkpt lat="45.10197" lon="3.6">
        <ele>784.09</ele>
        <time>2022-04-17T10:32:57Z</time>
      </trkpt>
      <trkpt lat="45.10201" lon="3.6002">
        <ele>785.53</ele>
        <time>2022-04-17T10:33:12Z</time>
      </trkpt>
      <trkpt lat="45.10203" lon="3.60032">
        <ele>786.5</ele>
        <time>2022-04-17T10:33:22Z</time>
      </trkpt>
      <trkpt lat="45.10208" lon="3.6005">
        <ele>788.42</ele>
        <time>2022-04-17T10:33:37Z</time>
      </trkpt>
      <trkpt lat="45.10213" lon="3.60059">
        <ele>788.42</ele>
        <time>2022-04-17T10:33:50Z</time>
      </trkpt>
      <trkpt lat="45.10218" lon="3.60066">
        <ele>788.9</ele>
        <time>2022-04-17T10:34:05Z</time>
      </trkpt>
      <trkpt lat="45.10225" lon="3.60077">
        <ele>790.34</ele>
        <time>2022-04-17T10:34:19Z</time>
      </trkpt>
      <trkpt lat="45.10229" lon="3.6009">
        <ele>792.26</ele>
        <time>2022-04-17T10:34:32Z</time>
      </trkpt>
      <trkpt lat="45.10232" lon="3.60099">
        <ele>796.59</ele>
        <time>2022-04-17T10:34:46Z</time>
      </trkpt>
      <trkpt lat="45.10237" lon="3.60108">
        <ele>798.99</ele>
        <time>2022-04-17T10:34:58Z</time>
      </trkpt>
      <trkpt lat="45.10238" lon="3.60113">
        <ele>800.44</ele>
        <time>2022-04-17T10:35:18Z</time>
      </trkpt>
      <trkpt lat="45.10249" lon="3.6012">
        <ele>805.24</ele>
        <time>2022-04-17T10:35:32Z</time>
      </trkpt>
      <trkpt lat="45.10256" lon="3.60129">
        <ele>807.16</ele>
        <time>2022-04-17T10:35:46Z</time>
      </trkpt>
      <trkpt lat="45.1026" lon="3.6014">
        <ele>807.16</ele>
        <time>2022-04-17T10:36:02Z</time>
      </trkpt>
      <trkpt lat="45.10265" lon="3.60155">
        <ele>810.05</ele>
        <time>2022-04-17T10:36:18Z</time>
      </trkpt>
      <trkpt lat="45.1027" lon="3.60164">
        <ele>811.01</ele>
        <time>2022-04-17T10:36:33Z</time>
      </trkpt>
      <trkpt lat="45.10272" lon="3.60167">
        <ele>811.49</ele>
        <time>2022-04-17T10:36:45Z</time>
      </trkpt>
      <trkpt lat="45.10278" lon="3.60177">
        <ele>812.45</ele>
        <time>2022-04-17T10:36:55Z</time>
      </trkpt>
      <trkpt lat="45.1029" lon="3.60187">
        <ele>813.41</ele>
        <time>2022-04-17T10:37:09Z</time>
      </trkpt>
      <trkpt lat="45.10304" lon="3.60203">
        <ele>813.89</ele>
        <time>2022-04-17T10:37:24Z</time>
      </trkpt>
      <trkpt lat="45.10313" lon="3.60217">
        <ele>813.41</ele>
        <time>2022-04-17T10:37:33Z</time>
      </trkpt>
      <trkpt lat="45.10316" lon="3.60225">
        <ele>812.93</ele>
        <time>2022-04-17T10:37:37Z</time>
      </trkpt>
      <trkpt lat="45.1032" lon="3.60238">
        <ele>811.49</ele>
        <time>2022-04-17T10:37:44Z</time>
      </trkpt>
      <trkpt lat="45.10327" lon="3.60256">
        <ele>810.53</ele>
        <time>2022-04-17T10:37:56Z</time>
      </trkpt>
      <trkpt lat="45.10337" lon="3.60273">
        <ele>811.49</ele>
        <time>2022-04-17T10:38:11Z</time>
      </trkpt>
      <trkpt lat="45.10339" lon="3.60275">
        <ele>811.49</ele>
        <time>2022-04-17T10:38:13Z</time>
      </trkpt>
      <trkpt lat="45.1035" lon="3.60293">
        <ele>811.97</ele>
        <time>2022-04-17T10:38:29Z</time>
      </trkpt>
      <trkpt lat="45.10356" lon="3.60305">
        <ele>812.45</ele>
        <time>2022-04-17T10:38:37Z</time>
      </trkpt>
      <trkpt lat="45.10359" lon="3.60308">
        <ele>812.93</ele>
        <time>2022-04-17T10:38:40Z</time>
      </trkpt>
      <trkpt lat="45.10364" lon="3.60315">
        <ele>813.89</ele>
        <time>2022-04-17T10:38:47Z</time>
      </trkpt>
      <trkpt lat="45.10371" lon="3.60323">
        <ele>815.34</ele>
        <time>2022-04-17T10:38:56Z</time>
      </trkpt>
      <trkpt lat="45.10385" lon="3.60342">
        <ele>815.82</ele>
        <time>2022-04-17T10:39:13Z</time>
      </trkpt>
      <trkpt lat="45.10397" lon="3.60354">
        <ele>815.34</ele>
        <time>2022-04-17T10:39:27Z</time>
      </trkpt>
      <trkpt lat="45.10411" lon="3.60368">
        <ele>815.34</ele>
        <time>2022-04-17T10:39:41Z</time>
      </trkpt>
      <trkpt lat="45.10415" lon="3.60373">
        <ele>815.34</ele>
        <time>2022-04-17T10:39:45Z</time>
      </trkpt>
      <trkpt lat="45.10424" lon="3.60382">
        <ele>816.3</ele>
        <time>2022-04-17T10:39:57Z</time>
      </trkpt>
      <trkpt lat="45.10426" lon="3.60396">
        <ele>816.3</ele>
        <time>2022-04-17T10:40:12Z</time>
      </trkpt>
      <trkpt lat="45.10426" lon="3.60396">
        <ele>816.3</ele>
        <time>2022-04-17T10:40:13Z</time>
      </trkpt>
      <trkpt lat="45.10415" lon="3.60393">
        <ele>816.3</ele>
        <time>2022-04-17T10:40:27Z</time>
      </trkpt>
      <trkpt lat="45.10404" lon="3.60385">
        <ele>818.7</ele>
        <time>2022-04-17T10:40:42Z</time>
      </trkpt>
      <trkpt lat="45.10392" lon="3.60377">
        <ele>820.62</ele>
        <time>2022-04-17T10:40:58Z</time>
      </trkpt>
      <trkpt lat="45.10382" lon="3.60369">
        <ele>822.06</ele>
        <time>2022-04-17T10:41:11Z</time>
      </trkpt>
      <trkpt lat="45.10374" lon="3.60365">
        <ele>823.99</ele>
        <time>2022-04-17T10:41:17Z</time>
      </trkpt>
      <trkpt lat="45.1036" lon="3.60356">
        <ele>828.79</ele>
        <time>2022-04-17T10:41:32Z</time>
      </trkpt>
      <trkpt lat="45.10346" lon="3.60347">
        <ele>829.76</ele>
        <time>2022-04-17T10:41:48Z</time>
      </trkpt>
      <trkpt lat="45.10342" lon="3.60346">
        <ele>829.76</ele>
        <time>2022-04-17T10:41:52Z</time>
      </trkpt>
      <trkpt lat="45.1033" lon="3.60338">
        <ele>831.68</ele>
        <time>2022-04-17T10:42:07Z</time>
      </trkpt>
      <trkpt lat="45.10328" lon="3.60336">
        <ele>832.16</ele>
        <time>2022-04-17T10:42:10Z</time>
      </trkpt>
      <trkpt lat="45.10314" lon="3.60328">
        <ele>835.52</ele>
        <time>2022-04-17T10:42:27Z</time>
      </trkpt>
      <trkpt lat="45.10306" lon="3.6032">
        <ele>836.48</ele>
        <time>2022-04-17T10:42:40Z</time>
      </trkpt>
      <trkpt lat="45.10299" lon="3.60311">
        <ele>838.41</ele>
        <time>2022-04-17T10:42:53Z</time>
      </trkpt>
      <trkpt lat="45.10286" lon="3.603">
        <ele>840.81</ele>
        <time>2022-04-17T10:43:08Z</time>
      </trkpt>
      <trkpt lat="45.10274" lon="3.60288">
        <ele>842.73</ele>
        <time>2022-04-17T10:43:22Z</time>
      </trkpt>
      <trkpt lat="45.10264" lon="3.60282">
        <ele>845.62</ele>
        <time>2022-04-17T10:43:34Z</time>
      </trkpt>
      <trkpt lat="45.10251" lon="3.60275">
        <ele>847.54</ele>
        <time>2022-04-17T10:43:51Z</time>
      </trkpt>
      <trkpt lat="45.10239" lon="3.60265">
        <ele>849.46</ele>
        <time>2022-04-17T10:44:07Z</time>
      </trkpt>
      <trkpt lat="45.10226" lon="3.60256">
        <ele>848.98</ele>
        <time>2022-04-17T10:44:23Z</time>
      </trkpt>
      <trkpt lat="45.10208" lon="3.60246">
        <ele>849.46</ele>
        <time>2022-04-17T10:44:38Z</time>
      </trkpt>
      <trkpt lat="45.1019" lon="3.60242">
        <ele>850.42</ele>
        <time>2022-04-17T10:44:54Z</time>
      </trkpt>
      <trkpt lat="45.10178" lon="3.60244">
        <ele>850.9</ele>
        <time>2022-04-17T10:45:09Z</time>
      </trkpt>
      <trkpt lat="45.10163" lon="3.60248">
        <ele>851.87</ele>
        <time>2022-04-17T10:45:25Z</time>
      </trkpt>
      <trkpt lat="45.10147" lon="3.60253">
        <ele>852.83</ele>
        <time>2022-04-17T10:45:40Z</time>
      </trkpt>
      <trkpt lat="45.10129" lon="3.60259">
        <ele>852.35</ele>
        <time>2022-04-17T10:45:56Z</time>
      </trkpt>
      <trkpt lat="45.10113" lon="3.60267">
        <ele>852.35</ele>
        <time>2022-04-17T10:46:12Z</time>
      </trkpt>
      <trkpt lat="45.10092" lon="3.60275">
        <ele>852.35</ele>
        <time>2022-04-17T10:46:30Z</time>
      </trkpt>
      <trkpt lat="45.10067" lon="3.60285">
        <ele>852.35</ele>
        <time>2022-04-17T10:46:51Z</time>
      </trkpt>
      <trkpt lat="45.10046" lon="3.60293">
        <ele>851.87</ele>
        <time>2022-04-17T10:47:10Z</time>
      </trkpt>
      <trkpt lat="45.10024" lon="3.60304">
        <ele>851.38</ele>
        <time>2022-04-17T10:47:29Z</time>
      </trkpt>
      <trkpt lat="45.10001" lon="3.60315">
        <ele>851.38</ele>
        <time>2022-04-17T10:47:49Z</time>
      </trkpt>
      <trkpt lat="45.09976" lon="3.60325">
        <ele>850.9</ele>
        <time>2022-04-17T10:48:10Z</time>
      </trkpt>
      <trkpt lat="45.09954" lon="3.60338">
        <ele>850.42</ele>
        <time>2022-04-17T10:48:30Z</time>
      </trkpt>
      <trkpt lat="45.09938" lon="3.60352">
        <ele>851.38</ele>
        <time>2022-04-17T10:48:46Z</time>
      </trkpt>
      <trkpt lat="45.09922" lon="3.60368">
        <ele>851.38</ele>
        <time>2022-04-17T10:49:02Z</time>
      </trkpt>
      <trkpt lat="45.09908" lon="3.60381">
        <ele>850.42</ele>
        <time>2022-04-17T10:49:17Z</time>
      </trkpt>
      <trkpt lat="45.0989" lon="3.60398">
        <ele>850.42</ele>
        <time>2022-04-17T10:49:34Z</time>
      </trkpt>
      <trkpt lat="45.09872" lon="3.60417">
        <ele>850.9</ele>
        <time>2022-04-17T10:49:52Z</time>
      </trkpt>
      <trkpt lat="45.09862" lon="3.60443">
        <ele>851.38</ele>
        <time>2022-04-17T10:50:10Z</time>
      </trkpt>
      <trkpt lat="45.09858" lon="3.60457">
        <ele>851.38</ele>
        <time>2022-04-17T10:50:23Z</time>
      </trkpt>
      <trkpt lat="45.09843" lon="3.60486">
        <ele>851.87</ele>
        <time>2022-04-17T10:50:44Z</time>
      </trkpt>
      <trkpt lat="45.09827" lon="3.60509">
        <ele>851.87</ele>
        <time>2022-04-17T10:51:02Z</time>
      </trkpt>
      <trkpt lat="45.09815" lon="3.6053">
        <ele>852.35</ele>
        <time>2022-04-17T10:51:18Z</time>
      </trkpt>
      <trkpt lat="45.09812" lon="3.60533">
        <ele>852.83</ele>
        <time>2022-04-17T10:51:26Z</time>
      </trkpt>
      <trkpt lat="45.09808" lon="3.6054">
        <ele>852.83</ele>
        <time>2022-04-17T10:51:31Z</time>
      </trkpt>
      <trkpt lat="45.09795" lon="3.60563">
        <ele>852.83</ele>
        <time>2022-04-17T10:51:48Z</time>
      </trkpt>
      <trkpt lat="45.0978" lon="3.60586">
        <ele>852.83</ele>
        <time>2022-04-17T10:52:05Z</time>
      </trkpt>
      <trkpt lat="45.09763" lon="3.60609">
        <ele>852.35</ele>
        <time>2022-04-17T10:52:24Z</time>
      </trkpt>
      <trkpt lat="45.09745" lon="3.60633">
        <ele>852.35</ele>
        <time>2022-04-17T10:52:44Z</time>
      </trkpt>
      <trkpt lat="45.0973" lon="3.60657">
        <ele>852.35</ele>
        <time>2022-04-17T10:53:03Z</time>
      </trkpt>
      <trkpt lat="45.09716" lon="3.60683">
        <ele>851.87</ele>
        <time>2022-04-17T10:53:23Z</time>
      </trkpt>
      <trkpt lat="45.09697" lon="3.60704">
        <ele>851.38</ele>
        <time>2022-04-17T10:53:42Z</time>
      </trkpt>
      <trkpt lat="45.09684" lon="3.60718">
        <ele>850.9</ele>
        <time>2022-04-17T10:53:55Z</time>
      </trkpt>
      <trkpt lat="45.09678" lon="3.60725">
        <ele>850.9</ele>
        <time>2022-04-17T10:54:02Z</time>
      </trkpt>
      <trkpt lat="45.09659" lon="3.6074">
        <ele>850.42</ele>
        <time>2022-04-17T10:54:21Z</time>
      </trkpt>
      <trkpt lat="45.09641" lon="3.60756">
        <ele>850.42</ele>
        <time>2022-04-17T10:54:38Z</time>
      </trkpt>
      <trkpt lat="45.0962" lon="3.60772">
        <ele>850.42</ele>
        <time>2022-04-17T10:54:57Z</time>
      </trkpt>
      <trkpt lat="45.09608" lon="3.6078">
        <ele>850.42</ele>
        <time>2022-04-17T10:55:10Z</time>
      </trkpt>
      <trkpt lat="45.09581" lon="3.60789">
        <ele>850.42</ele>
        <time>2022-04-17T10:55:32Z</time>
      </trkpt>
      <trkpt lat="45.09574" lon="3.60789">
        <ele>850.42</ele>
        <time>2022-04-17T10:55:47Z</time>
      </trkpt>
      <trkpt lat="45.09548" lon="3.60793">
        <ele>851.38</ele>
        <time>2022-04-17T10:56:08Z</time>
      </trkpt>
      <trkpt lat="45.09529" lon="3.60796">
        <ele>851.38</ele>
        <time>2022-04-17T10:56:28Z</time>
      </trkpt>
      <trkpt lat="45.09512" lon="3.60807">
        <ele>851.38</ele>
        <time>2022-04-17T10:56:43Z</time>
      </trkpt>
      <trkpt lat="45.09488" lon="3.60825">
        <ele>850.9</ele>
        <time>2022-04-17T10:57:05Z</time>
      </trkpt>
      <trkpt lat="45.09467" lon="3.60838">
        <ele>850.42</ele>
        <time>2022-04-17T10:57:23Z</time>
      </trkpt>
      <trkpt lat="45.09443" lon="3.60841">
        <ele>850.42</ele>
        <time>2022-04-17T10:57:43Z</time>
      </trkpt>
      <trkpt lat="45.09422" lon="3.60856">
        <ele>849.46</ele>
        <time>2022-04-17T10:58:03Z</time>
      </trkpt>
      <trkpt lat="45.09405" lon="3.60873">
        <ele>848.98</ele>
        <time>2022-04-17T10:58:21Z</time>
      </trkpt>
      <trkpt lat="45.09391" lon="3.60895">
        <ele>848.98</ele>
        <time>2022-04-17T10:58:38Z</time>
      </trkpt>
      <trkpt lat="45.09384" lon="3.60919">
        <ele>847.54</ele>
        <time>2022-04-17T10:58:54Z</time>
      </trkpt>
      <trkpt lat="45.09376" lon="3.60949">
        <ele>846.58</ele>
        <time>2022-04-17T10:59:13Z</time>
      </trkpt>
      <trkpt lat="45.09364" lon="3.60978">
        <ele>844.18</ele>
        <time>2022-04-17T10:59:33Z</time>
      </trkpt>
      <trkpt lat="45.09352" lon="3.61002">
        <ele>842.73</ele>
        <time>2022-04-17T10:59:52Z</time>
      </trkpt>
      <trkpt lat="45.09337" lon="3.61026">
        <ele>840.81</ele>
        <time>2022-04-17T11:00:11Z</time>
      </trkpt>
      <trkpt lat="45.09324" lon="3.61046">
        <ele>837.93</ele>
        <time>2022-04-17T11:00:29Z</time>
      </trkpt>
      <trkpt lat="45.09308" lon="3.61064">
        <ele>837.45</ele>
        <time>2022-04-17T11:00:47Z</time>
      </trkpt>
      <trkpt lat="45.09296" lon="3.61078">
        <ele>837.93</ele>
        <time>2022-04-17T11:01:03Z</time>
      </trkpt>
      <trkpt lat="45.09294" lon="3.61081">
        <ele>837.45</ele>
        <time>2022-04-17T11:01:06Z</time>
      </trkpt>
      <trkpt lat="45.09278" lon="3.61103">
        <ele>836.48</ele>
        <time>2022-04-17T11:01:25Z</time>
      </trkpt>
      <trkpt lat="45.0926" lon="3.61125">
        <ele>836.48</ele>
        <time>2022-04-17T11:01:44Z</time>
      </trkpt>
      <trkpt lat="45.0925" lon="3.61144">
        <ele>834.56</ele>
        <time>2022-04-17T11:02:01Z</time>
      </trkpt>
      <trkpt lat="45.09238" lon="3.61162">
        <ele>834.08</ele>
        <time>2022-04-17T11:02:17Z</time>
      </trkpt>
      <trkpt lat="45.09222" lon="3.61184">
        <ele>832.64</ele>
        <time>2022-04-17T11:02:33Z</time>
      </trkpt>
      <trkpt lat="45.0921" lon="3.61207">
        <ele>834.08</ele>
        <time>2022-04-17T11:02:52Z</time>
      </trkpt>
      <trkpt lat="45.092" lon="3.61218">
        <ele>834.08</ele>
        <time>2022-04-17T11:03:08Z</time>
      </trkpt>
      <trkpt lat="45.09199" lon="3.61218">
        <ele>833.6</ele>
        <time>2022-04-17T11:03:21Z</time>
      </trkpt>
      <trkpt lat="45.09196" lon="3.61219">
        <ele>833.12</ele>
        <time>2022-04-17T11:03:27Z</time>
      </trkpt>
      <trkpt lat="45.09183" lon="3.61218">
        <ele>836</ele>
        <time>2022-04-17T11:03:42Z</time>
      </trkpt>
      <trkpt lat="45.09171" lon="3.61229">
        <ele>840.33</ele>
        <time>2022-04-17T11:03:56Z</time>
      </trkpt>
      <trkpt lat="45.09162" lon="3.61241">
        <ele>842.25</ele>
        <time>2022-04-17T11:04:11Z</time>
      </trkpt>
      <trkpt lat="45.09148" lon="3.61258">
        <ele>845.14</ele>
        <time>2022-04-17T11:04:27Z</time>
      </trkpt>
      <trkpt lat="45.09142" lon="3.61261">
        <ele>845.14</ele>
        <time>2022-04-17T11:04:32Z</time>
      </trkpt>
      <trkpt lat="45.09137" lon="3.61262">
        <ele>844.18</ele>
        <time>2022-04-17T11:04:36Z</time>
      </trkpt>
      <trkpt lat="45.09122" lon="3.6125">
        <ele>844.66</ele>
        <time>2022-04-17T11:04:53Z</time>
      </trkpt>
      <trkpt lat="45.0912" lon="3.61229">
        <ele>846.58</ele>
        <time>2022-04-17T11:05:09Z</time>
      </trkpt>
      <trkpt lat="45.0912" lon="3.612">
        <ele>848.02</ele>
        <time>2022-04-17T11:05:28Z</time>
      </trkpt>
      <trkpt lat="45.09114" lon="3.61185">
        <ele>849.94</ele>
        <time>2022-04-17T11:05:43Z</time>
      </trkpt>
      <trkpt lat="45.09111" lon="3.61181">
        <ele>850.42</ele>
        <time>2022-04-17T11:05:47Z</time>
      </trkpt>
      <trkpt lat="45.09099" lon="3.6116">
        <ele>853.31</ele>
        <time>2022-04-17T11:06:05Z</time>
      </trkpt>
      <trkpt lat="45.09097" lon="3.61152">
        <ele>854.27</ele>
        <time>2022-04-17T11:06:10Z</time>
      </trkpt>
      <trkpt lat="45.09096" lon="3.61149">
        <ele>854.75</ele>
        <time>2022-04-17T11:06:12Z</time>
      </trkpt>
      <trkpt lat="45.09099" lon="3.61136">
        <ele>855.71</ele>
        <time>2022-04-17T11:06:27Z</time>
      </trkpt>
      <trkpt lat="45.09098" lon="3.61111">
        <ele>857.63</ele>
        <time>2022-04-17T11:06:43Z</time>
      </trkpt>
      <trkpt lat="45.09088" lon="3.61083">
        <ele>858.59</ele>
        <time>2022-04-17T11:07:02Z</time>
      </trkpt>
      <trkpt lat="45.09082" lon="3.6107">
        <ele>858.59</ele>
        <time>2022-04-17T11:07:15Z</time>
      </trkpt>
      <trkpt lat="45.09075" lon="3.61063">
        <ele>859.08</ele>
        <time>2022-04-17T11:07:22Z</time>
      </trkpt>
      <trkpt lat="45.09057" lon="3.61086">
        <ele>859.08</ele>
        <time>2022-04-17T11:07:42Z</time>
      </trkpt>
      <trkpt lat="45.09042" lon="3.61109">
        <ele>859.56</ele>
        <time>2022-04-17T11:08:00Z</time>
      </trkpt>
      <trkpt lat="45.09026" lon="3.61133">
        <ele>860.04</ele>
        <time>2022-04-17T11:08:19Z</time>
      </trkpt>
      <trkpt lat="45.09012" lon="3.61155">
        <ele>861.48</ele>
        <time>2022-04-17T11:08:37Z</time>
      </trkpt>
      <trkpt lat="45.09002" lon="3.61171">
        <ele>862.92</ele>
        <time>2022-04-17T11:08:54Z</time>
      </trkpt>
      <trkpt lat="45.08992" lon="3.61197">
        <ele>863.88</ele>
        <time>2022-04-17T11:09:12Z</time>
      </trkpt>
      <trkpt lat="45.08981" lon="3.61219">
        <ele>863.4</ele>
        <time>2022-04-17T11:09:30Z</time>
      </trkpt>
      <trkpt lat="45.08967" lon="3.61246">
        <ele>863.88</ele>
        <time>2022-04-17T11:09:49Z</time>
      </trkpt>
      <trkpt lat="45.08956" lon="3.61267">
        <ele>864.36</ele>
        <time>2022-04-17T11:10:05Z</time>
      </trkpt>
      <trkpt lat="45.08944" lon="3.61289">
        <ele>865.32</ele>
        <time>2022-04-17T11:10:23Z</time>
      </trkpt>
      <trkpt lat="45.08933" lon="3.61311">
        <ele>866.29</ele>
        <time>2022-04-17T11:10:39Z</time>
      </trkpt>
      <trkpt lat="45.08929" lon="3.61319">
        <ele>866.77</ele>
        <time>2022-04-17T11:10:45Z</time>
      </trkpt>
      <trkpt lat="45.08922" lon="3.61333">
        <ele>867.25</ele>
        <time>2022-04-17T11:10:55Z</time>
      </trkpt>
      <trkpt lat="45.08913" lon="3.61348">
        <ele>867.25</ele>
        <time>2022-04-17T11:11:06Z</time>
      </trkpt>
      <trkpt lat="45.08903" lon="3.61367">
        <ele>868.21</ele>
        <time>2022-04-17T11:11:21Z</time>
      </trkpt>
      <trkpt lat="45.08893" lon="3.61384">
        <ele>869.65</ele>
        <time>2022-04-17T11:11:35Z</time>
      </trkpt>
      <trkpt lat="45.08879" lon="3.61407">
        <ele>870.61</ele>
        <time>2022-04-17T11:11:52Z</time>
      </trkpt>
      <trkpt lat="45.08878" lon="3.61436">
        <ele>871.09</ele>
        <time>2022-04-17T11:12:10Z</time>
      </trkpt>
      <trkpt lat="45.08884" lon="3.61455">
        <ele>872.05</ele>
        <time>2022-04-17T11:12:23Z</time>
      </trkpt>
      <trkpt lat="45.08877" lon="3.61462">
        <ele>872.53</ele>
        <time>2022-04-17T11:12:30Z</time>
      </trkpt>
      <trkpt lat="45.08852" lon="3.61472">
        <ele>872.53</ele>
        <time>2022-04-17T11:12:51Z</time>
      </trkpt>
      <trkpt lat="45.08838" lon="3.61485">
        <ele>873.01</ele>
        <time>2022-04-17T11:13:04Z</time>
      </trkpt>
      <trkpt lat="45.08824" lon="3.61501">
        <ele>872.53</ele>
        <time>2022-04-17T11:13:19Z</time>
      </trkpt>
      <trkpt lat="45.08823" lon="3.61502">
        <ele>873.01</ele>
        <time>2022-04-17T11:13:20Z</time>
      </trkpt>
      <trkpt lat="45.0883" lon="3.61517">
        <ele>873.01</ele>
        <time>2022-04-17T11:13:31Z</time>
      </trkpt>
      <trkpt lat="45.08834" lon="3.61534">
        <ele>874.46</ele>
        <time>2022-04-17T11:13:42Z</time>
      </trkpt>
      <trkpt lat="45.08835" lon="3.6154">
        <ele>875.42</ele>
        <time>2022-04-17T11:13:46Z</time>
      </trkpt>
      <trkpt lat="45.08844" lon="3.61576">
        <ele>874.46</ele>
        <time>2022-04-17T11:14:07Z</time>
      </trkpt>
      <trkpt lat="45.0885" lon="3.61601">
        <ele>874.94</ele>
        <time>2022-04-17T11:14:22Z</time>
      </trkpt>
      <trkpt lat="45.08848" lon="3.61613">
        <ele>874.94</ele>
        <time>2022-04-17T11:14:30Z</time>
      </trkpt>
      <trkpt lat="45.08843" lon="3.61615">
        <ele>875.42</ele>
        <time>2022-04-17T11:14:34Z</time>
      </trkpt>
      <trkpt lat="45.08836" lon="3.61621">
        <ele>875.9</ele>
        <time>2022-04-17T11:14:41Z</time>
      </trkpt>
      <trkpt lat="45.08815" lon="3.61629">
        <ele>877.34</ele>
        <time>2022-04-17T11:15:00Z</time>
      </trkpt>
      <trkpt lat="45.08811" lon="3.61631">
        <ele>877.34</ele>
        <time>2022-04-17T11:15:04Z</time>
      </trkpt>
      <trkpt lat="45.08795" lon="3.61635">
        <ele>878.3</ele>
        <time>2022-04-17T11:15:18Z</time>
      </trkpt>
      <trkpt lat="45.08793" lon="3.61636">
        <ele>878.3</ele>
        <time>2022-04-17T11:15:30Z</time>
      </trkpt>
      <trkpt lat="45.08776" lon="3.6164">
        <ele>878.78</ele>
        <time>2022-04-17T11:15:44Z</time>
      </trkpt>
      <trkpt lat="45.08756" lon="3.61646">
        <ele>880.71</ele>
        <time>2022-04-17T11:16:00Z</time>
      </trkpt>
      <trkpt lat="45.08736" lon="3.61657">
        <ele>882.63</ele>
        <time>2022-04-17T11:16:18Z</time>
      </trkpt>
      <trkpt lat="45.08718" lon="3.61673">
        <ele>883.59</ele>
        <time>2022-04-17T11:16:35Z</time>
      </trkpt>
      <trkpt lat="45.08699" lon="3.61687">
        <ele>885.03</ele>
        <time>2022-04-17T11:16:52Z</time>
      </trkpt>
      <trkpt lat="45.08682" lon="3.6169">
        <ele>885.51</ele>
        <time>2022-04-17T11:17:06Z</time>
      </trkpt>
      <trkpt lat="45.08662" lon="3.61685">
        <ele>887.91</ele>
        <time>2022-04-17T11:17:22Z</time>
      </trkpt>
      <trkpt lat="45.0864" lon="3.61689">
        <ele>888.88</ele>
        <time>2022-04-17T11:17:40Z</time>
      </trkpt>
      <trkpt lat="45.08616" lon="3.61695">
        <ele>889.84</ele>
        <time>2022-04-17T11:17:59Z</time>
      </trkpt>
      <trkpt lat="45.08593" lon="3.61698">
        <ele>891.76</ele>
        <time>2022-04-17T11:18:17Z</time>
      </trkpt>
      <trkpt lat="45.08575" lon="3.61705">
        <ele>892.72</ele>
        <time>2022-04-17T11:18:33Z</time>
      </trkpt>
      <trkpt lat="45.08558" lon="3.61717">
        <ele>894.64</ele>
        <time>2022-04-17T11:18:49Z</time>
      </trkpt>
      <trkpt lat="45.08542" lon="3.61729">
        <ele>896.09</ele>
        <time>2022-04-17T11:19:05Z</time>
      </trkpt>
      <trkpt lat="45.08529" lon="3.61737">
        <ele>896.57</ele>
        <time>2022-04-17T11:19:19Z</time>
      </trkpt>
      <trkpt lat="45.08529" lon="3.61737">
        <ele>896.09</ele>
        <time>2022-04-17T11:19:38Z</time>
      </trkpt>
      <trkpt lat="45.08528" lon="3.61738">
        <ele>896.09</ele>
        <time>2022-04-17T11:19:41Z</time>
      </trkpt>
      <trkpt lat="45.08511" lon="3.61751">
        <ele>897.05</ele>
        <time>2022-04-17T11:19:56Z</time>
      </trkpt>
      <trkpt lat="45.08494" lon="3.61765">
        <ele>898.49</ele>
        <time>2022-04-17T11:20:12Z</time>
      </trkpt>
      <trkpt lat="45.08476" lon="3.61778">
        <ele>900.89</ele>
        <time>2022-04-17T11:20:29Z</time>
      </trkpt>
      <trkpt lat="45.08459" lon="3.61791">
        <ele>901.85</ele>
        <time>2022-04-17T11:20:46Z</time>
      </trkpt>
      <trkpt lat="45.08443" lon="3.61805">
        <ele>902.33</ele>
        <time>2022-04-17T11:21:01Z</time>
      </trkpt>
      <trkpt lat="45.08433" lon="3.61828">
        <ele>904.26</ele>
        <time>2022-04-17T11:21:17Z</time>
      </trkpt>
      <trkpt lat="45.0843" lon="3.61836">
        <ele>905.22</ele>
        <time>2022-04-17T11:21:28Z</time>
      </trkpt>
      <trkpt lat="45.08421" lon="3.6185">
        <ele>907.14</ele>
        <time>2022-04-17T11:21:40Z</time>
      </trkpt>
      <trkpt lat="45.08413" lon="3.61859">
        <ele>908.1</ele>
        <time>2022-04-17T11:21:50Z</time>
      </trkpt>
      <trkpt lat="45.08403" lon="3.61877">
        <ele>909.54</ele>
        <time>2022-04-17T11:22:05Z</time>
      </trkpt>
      <trkpt lat="45.08398" lon="3.61889">
        <ele>911.95</ele>
        <time>2022-04-17T11:22:17Z</time>
      </trkpt>
      <trkpt lat="45.08395" lon="3.61893">
        <ele>912.43</ele>
        <time>2022-04-17T11:22:21Z</time>
      </trkpt>
      <trkpt lat="45.08394" lon="3.61896">
        <ele>912.91</ele>
        <time>2022-04-17T11:22:23Z</time>
      </trkpt>
      <trkpt lat="45.08384" lon="3.61915">
        <ele>916.75</ele>
        <time>2022-04-17T11:22:39Z</time>
      </trkpt>
      <trkpt lat="45.08375" lon="3.6194">
        <ele>917.24</ele>
        <time>2022-04-17T11:22:55Z</time>
      </trkpt>
      <trkpt lat="45.08369" lon="3.61957">
        <ele>918.2</ele>
        <time>2022-04-17T11:23:10Z</time>
      </trkpt>
      <trkpt lat="45.08362" lon="3.61978">
        <ele>921.08</ele>
        <time>2022-04-17T11:23:24Z</time>
      </trkpt>
      <trkpt lat="45.08361" lon="3.6198">
        <ele>921.56</ele>
        <time>2022-04-17T11:23:26Z</time>
      </trkpt>
      <trkpt lat="45.0835" lon="3.61996">
        <ele>923.48</ele>
        <time>2022-04-17T11:23:43Z</time>
      </trkpt>
      <trkpt lat="45.08339" lon="3.62013">
        <ele>923.96</ele>
        <time>2022-04-17T11:23:57Z</time>
      </trkpt>
      <trkpt lat="45.08324" lon="3.62014">
        <ele>925.41</ele>
        <time>2022-04-17T11:24:12Z</time>
      </trkpt>
      <trkpt lat="45.08311" lon="3.62004">
        <ele>924.45</ele>
        <time>2022-04-17T11:24:30Z</time>
      </trkpt>
      <trkpt lat="45.08309" lon="3.62002">
        <ele>924.45</ele>
        <time>2022-04-17T11:24:33Z</time>
      </trkpt>
      <trkpt lat="45.08298" lon="3.61974">
        <ele>923.96</ele>
        <time>2022-04-17T11:24:52Z</time>
      </trkpt>
      <trkpt lat="45.08296" lon="3.61969">
        <ele>923.96</ele>
        <time>2022-04-17T11:24:56Z</time>
      </trkpt>
      <trkpt lat="45.08294" lon="3.61965">
        <ele>923.48</ele>
        <time>2022-04-17T11:24:59Z</time>
      </trkpt>
      <trkpt lat="45.08283" lon="3.61941">
        <ele>924.93</ele>
        <time>2022-04-17T11:25:15Z</time>
      </trkpt>
      <trkpt lat="45.08268" lon="3.61921">
        <ele>923.96</ele>
        <time>2022-04-17T11:25:30Z</time>
      </trkpt>
      <trkpt lat="45.08249" lon="3.61904">
        <ele>924.93</ele>
        <time>2022-04-17T11:25:47Z</time>
      </trkpt>
      <trkpt lat="45.08231" lon="3.61893">
        <ele>925.41</ele>
        <time>2022-04-17T11:26:03Z</time>
      </trkpt>
      <trkpt lat="45.08229" lon="3.61887">
        <ele>925.41</ele>
        <time>2022-04-17T11:26:16Z</time>
      </trkpt>
      <trkpt lat="45.08227" lon="3.61854">
        <ele>925.41</ele>
        <time>2022-04-17T11:26:35Z</time>
      </trkpt>
      <trkpt lat="45.08226" lon="3.61818">
        <ele>924.45</ele>
        <time>2022-04-17T11:26:55Z</time>
      </trkpt>
      <trkpt lat="45.08215" lon="3.61787">
        <ele>923.48</ele>
        <time>2022-04-17T11:27:14Z</time>
      </trkpt>
      <trkpt lat="45.08201" lon="3.61755">
        <ele>922.52</ele>
        <time>2022-04-17T11:27:33Z</time>
      </trkpt>
      <trkpt lat="45.08189" lon="3.61731">
        <ele>922.04</ele>
        <time>2022-04-17T11:27:51Z</time>
      </trkpt>
      <trkpt lat="45.08187" lon="3.61727">
        <ele>922.04</ele>
        <time>2022-04-17T11:28:06Z</time>
      </trkpt>
      <trkpt lat="45.08169" lon="3.61702">
        <ele>920.6</ele>
        <time>2022-04-17T11:28:24Z</time>
      </trkpt>
      <trkpt lat="45.08145" lon="3.61679">
        <ele>921.08</ele>
        <time>2022-04-17T11:28:45Z</time>
      </trkpt>
      <trkpt lat="45.08124" lon="3.61669">
        <ele>920.6</ele>
        <time>2022-04-17T11:29:02Z</time>
      </trkpt>
      <trkpt lat="45.08102" lon="3.61661">
        <ele>920.6</ele>
        <time>2022-04-17T11:29:20Z</time>
      </trkpt>
      <trkpt lat="45.08081" lon="3.61653">
        <ele>922.52</ele>
        <time>2022-04-17T11:29:36Z</time>
      </trkpt>
      <trkpt lat="45.08063" lon="3.61644">
        <ele>922.04</ele>
        <time>2022-04-17T11:29:52Z</time>
      </trkpt>
      <trkpt lat="45.08048" lon="3.61622">
        <ele>921.56</ele>
        <time>2022-04-17T11:30:09Z</time>
      </trkpt>
      <trkpt lat="45.08036" lon="3.6159">
        <ele>919.16</ele>
        <time>2022-04-17T11:30:29Z</time>
      </trkpt>
      <trkpt lat="45.08024" lon="3.61553">
        <ele>917.72</ele>
        <time>2022-04-17T11:30:50Z</time>
      </trkpt>
      <trkpt lat="45.08015" lon="3.61518">
        <ele>917.72</ele>
        <time>2022-04-17T11:31:09Z</time>
      </trkpt>
      <trkpt lat="45.08002" lon="3.61484">
        <ele>915.79</ele>
        <time>2022-04-17T11:31:29Z</time>
      </trkpt>
      <trkpt lat="45.07993" lon="3.61469">
        <ele>915.31</ele>
        <time>2022-04-17T11:31:43Z</time>
      </trkpt>
      <trkpt lat="45.07978" lon="3.6145">
        <ele>914.83</ele>
        <time>2022-04-17T11:31:59Z</time>
      </trkpt>
      <trkpt lat="45.0796" lon="3.61431">
        <ele>914.35</ele>
        <time>2022-04-17T11:32:17Z</time>
      </trkpt>
      <trkpt lat="45.07958" lon="3.6143">
        <ele>914.35</ele>
        <time>2022-04-17T11:32:24Z</time>
      </trkpt>
      <trkpt lat="45.07944" lon="3.61411">
        <ele>914.35</ele>
        <time>2022-04-17T11:32:41Z</time>
      </trkpt>
      <trkpt lat="45.07927" lon="3.61386">
        <ele>914.35</ele>
        <time>2022-04-17T11:33:01Z</time>
      </trkpt>
      <trkpt lat="45.07919" lon="3.61381">
        <ele>914.35</ele>
        <time>2022-04-17T11:33:13Z</time>
      </trkpt>
      <trkpt lat="45.07916" lon="3.61379">
        <ele>914.35</ele>
        <time>2022-04-17T11:33:27Z</time>
      </trkpt>
      <trkpt lat="45.07914" lon="3.6138">
        <ele>914.35</ele>
        <time>2022-04-17T11:33:36Z</time>
      </trkpt>
      <trkpt lat="45.07914" lon="3.6138">
        <ele>914.35</ele>
        <time>2022-04-17T11:33:45Z</time>
      </trkpt>
      <trkpt lat="45.07913" lon="3.6138">
        <ele>914.83</ele>
        <time>2022-04-17T11:34:02Z</time>
      </trkpt>
      <trkpt lat="45.07913" lon="3.6138">
        <ele>914.83</ele>
        <time>2022-04-17T11:34:21Z</time>
      </trkpt>
      <trkpt lat="45.07912" lon="3.6138">
        <ele>914.83</ele>
        <time>2022-04-17T11:34:36Z</time>
      </trkpt>
      <trkpt lat="45.07911" lon="3.61378">
        <ele>915.31</ele>
        <time>2022-04-17T11:34:52Z</time>
      </trkpt>
      <trkpt lat="45.0791" lon="3.61378">
        <ele>915.31</ele>
        <time>2022-04-17T11:35:10Z</time>
      </trkpt>
      <trkpt lat="45.07911" lon="3.61379">
        <ele>914.83</ele>
        <time>2022-04-17T11:35:33Z</time>
      </trkpt>
      <trkpt lat="45.07913" lon="3.61381">
        <ele>914.35</ele>
        <time>2022-04-17T11:35:51Z</time>
      </trkpt>
      <trkpt lat="45.07913" lon="3.61393">
        <ele>914.83</ele>
        <time>2022-04-17T11:36:09Z</time>
      </trkpt>
      <trkpt lat="45.07912" lon="3.61398">
        <ele>914.35</ele>
        <time>2022-04-17T11:36:22Z</time>
      </trkpt>
      <trkpt lat="45.07912" lon="3.614">
        <ele>914.35</ele>
        <time>2022-04-17T11:36:37Z</time>
      </trkpt>
      <trkpt lat="45.07913" lon="3.614">
        <ele>914.35</ele>
        <time>2022-04-17T11:36:56Z</time>
      </trkpt>
      <trkpt lat="45.07913" lon="3.61401">
        <ele>914.35</ele>
        <time>2022-04-17T11:37:18Z</time>
      </trkpt>
      <trkpt lat="45.07912" lon="3.61401">
        <ele>914.83</ele>
        <time>2022-04-17T11:37:43Z</time>
      </trkpt>
      <trkpt lat="45.07912" lon="3.614">
        <ele>913.87</ele>
        <time>2022-04-17T11:38:16Z</time>
      </trkpt>
      <trkpt lat="45.07911" lon="3.61399">
        <ele>913.87</ele>
        <time>2022-04-17T11:38:49Z</time>
      </trkpt>
      <trkpt lat="45.07912" lon="3.61398">
        <ele>914.35</ele>
        <time>2022-04-17T11:39:27Z</time>
      </trkpt>
      <trkpt lat="45.07912" lon="3.61399">
        <ele>913.87</ele>
        <time>2022-04-17T11:40:02Z</time>
      </trkpt>
      <trkpt lat="45.07912" lon="3.61398">
        <ele>913.39</ele>
        <time>2022-04-17T11:40:36Z</time>
      </trkpt>
      <trkpt lat="45.07912" lon="3.61399">
        <ele>913.87</ele>
        <time>2022-04-17T11:41:05Z</time>
      </trkpt>
      <trkpt lat="45.07912" lon="3.61399">
        <ele>913.39</ele>
        <time>2022-04-17T11:41:37Z</time>
      </trkpt>
      <trkpt lat="45.07912" lon="3.61399">
        <ele>913.39</ele>
        <time>2022-04-17T11:42:10Z</time>
      </trkpt>
      <trkpt lat="45.07911" lon="3.614">
        <ele>912.91</ele>
        <time>2022-04-17T11:42:47Z</time>
      </trkpt>
      <trkpt lat="45.07911" lon="3.61399">
        <ele>913.39</ele>
        <time>2022-04-17T11:43:20Z</time>
      </trkpt>
      <trkpt lat="45.07912" lon="3.61399">
        <ele>912.91</ele>
        <time>2022-04-17T11:43:58Z</time>
      </trkpt>
      <trkpt lat="45.07912" lon="3.61399">
        <ele>912.91</ele>
        <time>2022-04-17T11:44:29Z</time>
      </trkpt>
      <trkpt lat="45.07912" lon="3.61399">
        <ele>913.39</ele>
        <time>2022-04-17T11:45:03Z</time>
      </trkpt>
      <trkpt lat="45.07912" lon="3.61399">
        <ele>913.39</ele>
        <time>2022-04-17T11:45:30Z</time>
      </trkpt>
      <trkpt lat="45.07912" lon="3.61399">
        <ele>913.87</ele>
        <time>2022-04-17T11:46:09Z</time>
      </trkpt>
      <trkpt lat="45.07913" lon="3.61399">
        <ele>914.35</ele>
        <time>2022-04-17T11:46:49Z</time>
      </trkpt>
      <trkpt lat="45.07913" lon="3.61399">
        <ele>914.35</ele>
        <time>2022-04-17T11:47:20Z</time>
      </trkpt>
      <trkpt lat="45.07912" lon="3.61399">
        <ele>914.35</ele>
        <time>2022-04-17T11:48:04Z</time>
      </trkpt>
      <trkpt lat="45.07912" lon="3.614">
        <ele>913.87</ele>
        <time>2022-04-17T11:48:41Z</time>
      </trkpt>
      <trkpt lat="45.0791" lon="3.61396">
        <ele>913.87</ele>
        <time>2022-04-17T11:49:20Z</time>
      </trkpt>
      <trkpt lat="45.07909" lon="3.61395">
        <ele>914.83</ele>
        <time>2022-04-17T11:49:57Z</time>
      </trkpt>
      <trkpt lat="45.0791" lon="3.61395">
        <ele>915.31</ele>
        <time>2022-04-17T11:50:42Z</time>
      </trkpt>
      <trkpt lat="45.0791" lon="3.61395">
        <ele>915.31</ele>
        <time>2022-04-17T11:51:24Z</time>
      </trkpt>
      <trkpt lat="45.07911" lon="3.61395">
        <ele>915.31</ele>
        <time>2022-04-17T11:52:04Z</time>
      </trkpt>
      <trkpt lat="45.07909" lon="3.61393">
        <ele>916.75</ele>
        <time>2022-04-17T11:52:41Z</time>
      </trkpt>
      <trkpt lat="45.07909" lon="3.61392">
        <ele>917.24</ele>
        <time>2022-04-17T11:53:04Z</time>
      </trkpt>
      <trkpt lat="45.07909" lon="3.6139">
        <ele>917.24</ele>
        <time>2022-04-17T11:53:30Z</time>
      </trkpt>
      <trkpt lat="45.07908" lon="3.61389">
        <ele>917.72</ele>
        <time>2022-04-17T11:53:56Z</time>
      </trkpt>
      <trkpt lat="45.07908" lon="3.61387">
        <ele>917.72</ele>
        <time>2022-04-17T11:54:33Z</time>
      </trkpt>
      <trkpt lat="45.07908" lon="3.61387">
        <ele>918.2</ele>
        <time>2022-04-17T11:55:10Z</time>
      </trkpt>
      <trkpt lat="45.07908" lon="3.61389">
        <ele>917.24</ele>
        <time>2022-04-17T11:55:31Z</time>
      </trkpt>
      <trkpt lat="45.07907" lon="3.61388">
        <ele>917.72</ele>
        <time>2022-04-17T11:56:00Z</time>
      </trkpt>
      <trkpt lat="45.07907" lon="3.61388">
        <ele>917.24</ele>
        <time>2022-04-17T11:56:31Z</time>
      </trkpt>
      <trkpt lat="45.07907" lon="3.61388">
        <ele>917.24</ele>
        <time>2022-04-17T11:56:58Z</time>
      </trkpt>
      <trkpt lat="45.07907" lon="3.61388">
        <ele>916.27</ele>
        <time>2022-04-17T11:57:19Z</time>
      </trkpt>
      <trkpt lat="45.07907" lon="3.61388">
        <ele>915.79</ele>
        <time>2022-04-17T11:57:43Z</time>
      </trkpt>
      <trkpt lat="45.07908" lon="3.61388">
        <ele>915.79</ele>
        <time>2022-04-17T11:58:12Z</time>
      </trkpt>
      <trkpt lat="45.07908" lon="3.6139">
        <ele>915.79</ele>
        <time>2022-04-17T11:58:29Z</time>
      </trkpt>
      <trkpt lat="45.07908" lon="3.61391">
        <ele>915.31</ele>
        <time>2022-04-17T11:58:50Z</time>
      </trkpt>
      <trkpt lat="45.07908" lon="3.61391">
        <ele>914.83</ele>
        <time>2022-04-17T11:59:14Z</time>
      </trkpt>
      <trkpt lat="45.07908" lon="3.61391">
        <ele>914.83</ele>
        <time>2022-04-17T11:59:38Z</time>
      </trkpt>
      <trkpt lat="45.07908" lon="3.6139">
        <ele>915.31</ele>
        <time>2022-04-17T12:00:00Z</time>
      </trkpt>
      <trkpt lat="45.07908" lon="3.61391">
        <ele>914.83</ele>
        <time>2022-04-17T12:00:18Z</time>
      </trkpt>
      <trkpt lat="45.07909" lon="3.61391">
        <ele>915.31</ele>
        <time>2022-04-17T12:00:44Z</time>
      </trkpt>
      <trkpt lat="45.0791" lon="3.61393">
        <ele>915.79</ele>
        <time>2022-04-17T12:01:08Z</time>
      </trkpt>
      <trkpt lat="45.07911" lon="3.61395">
        <ele>915.79</ele>
        <time>2022-04-17T12:01:41Z</time>
      </trkpt>
      <trkpt lat="45.07911" lon="3.61397">
        <ele>915.31</ele>
        <time>2022-04-17T12:02:11Z</time>
      </trkpt>
      <trkpt lat="45.07912" lon="3.61398">
        <ele>914.35</ele>
        <time>2022-04-17T12:02:39Z</time>
      </trkpt>
      <trkpt lat="45.07912" lon="3.61398">
        <ele>914.35</ele>
        <time>2022-04-17T12:03:05Z</time>
      </trkpt>
      <trkpt lat="45.07912" lon="3.61399">
        <ele>914.35</ele>
        <time>2022-04-17T12:03:35Z</time>
      </trkpt>
      <trkpt lat="45.07911" lon="3.61399">
        <ele>914.35</ele>
        <time>2022-04-17T12:04:03Z</time>
      </trkpt>
      <trkpt lat="45.07912" lon="3.61398">
        <ele>914.35</ele>
        <time>2022-04-17T12:04:25Z</time>
      </trkpt>
      <trkpt lat="45.07912" lon="3.61398">
        <ele>914.83</ele>
        <time>2022-04-17T12:04:54Z</time>
      </trkpt>
      <trkpt lat="45.07912" lon="3.61398">
        <ele>914.83</ele>
        <time>2022-04-17T12:05:21Z</time>
      </trkpt>
      <trkpt lat="45.07912" lon="3.61399">
        <ele>914.35</ele>
        <time>2022-04-17T12:05:51Z</time>
      </trkpt>
      <trkpt lat="45.07912" lon="3.61399">
        <ele>914.35</ele>
        <time>2022-04-17T12:06:16Z</time>
      </trkpt>
      <trkpt lat="45.07912" lon="3.61399">
        <ele>914.35</ele>
        <time>2022-04-17T12:06:43Z</time>
      </trkpt>
      <trkpt lat="45.07912" lon="3.614">
        <ele>914.35</ele>
        <time>2022-04-17T12:07:13Z</time>
      </trkpt>
      <trkpt lat="45.07912" lon="3.614">
        <ele>914.35</ele>
        <time>2022-04-17T12:07:45Z</time>
      </trkpt>
      <trkpt lat="45.07912" lon="3.614">
        <ele>913.87</ele>
        <time>2022-04-17T12:08:10Z</time>
      </trkpt>
      <trkpt lat="45.07912" lon="3.614">
        <ele>913.39</ele>
        <time>2022-04-17T12:08:43Z</time>
      </trkpt>
      <trkpt lat="45.07912" lon="3.614">
        <ele>913.39</ele>
        <time>2022-04-17T12:09:09Z</time>
      </trkpt>
      <trkpt lat="45.07912" lon="3.614">
        <ele>913.87</ele>
        <time>2022-04-17T12:09:35Z</time>
      </trkpt>
      <trkpt lat="45.07912" lon="3.61399">
        <ele>913.87</ele>
        <time>2022-04-17T12:10:09Z</time>
      </trkpt>
      <trkpt lat="45.07912" lon="3.61399">
        <ele>913.87</ele>
        <time>2022-04-17T12:10:43Z</time>
      </trkpt>
      <trkpt lat="45.07911" lon="3.614">
        <ele>913.87</ele>
        <time>2022-04-17T12:11:15Z</time>
      </trkpt>
      <trkpt lat="45.07911" lon="3.614">
        <ele>913.87</ele>
        <time>2022-04-17T12:11:44Z</time>
      </trkpt>
      <trkpt lat="45.07912" lon="3.614">
        <ele>913.87</ele>
        <time>2022-04-17T12:12:01Z</time>
      </trkpt>
      <trkpt lat="45.07912" lon="3.61401">
        <ele>913.39</ele>
        <time>2022-04-17T12:12:23Z</time>
      </trkpt>
      <trkpt lat="45.07911" lon="3.614">
        <ele>913.39</ele>
        <time>2022-04-17T12:12:50Z</time>
      </trkpt>
      <trkpt lat="45.07911" lon="3.614">
        <ele>913.87</ele>
        <time>2022-04-17T12:13:27Z</time>
      </trkpt>
      <trkpt lat="45.0791" lon="3.61399">
        <ele>914.83</ele>
        <time>2022-04-17T12:13:53Z</time>
      </trkpt>
      <trkpt lat="45.0791" lon="3.61397">
        <ele>915.31</ele>
        <time>2022-04-17T12:14:22Z</time>
      </trkpt>
      <trkpt lat="45.0791" lon="3.61397">
        <ele>915.31</ele>
        <time>2022-04-17T12:14:43Z</time>
      </trkpt>
      <trkpt lat="45.0791" lon="3.61397">
        <ele>915.31</ele>
        <time>2022-04-17T12:15:08Z</time>
      </trkpt>
      <trkpt lat="45.0791" lon="3.61397">
        <ele>915.31</ele>
        <time>2022-04-17T12:15:29Z</time>
      </trkpt>
      <trkpt lat="45.07911" lon="3.61397">
        <ele>914.83</ele>
        <time>2022-04-17T12:15:57Z</time>
      </trkpt>
      <trkpt lat="45.0791" lon="3.61397">
        <ele>914.83</ele>
        <time>2022-04-17T12:16:23Z</time>
      </trkpt>
      <trkpt lat="45.0791" lon="3.61397">
        <ele>913.87</ele>
        <time>2022-04-17T12:16:50Z</time>
      </trkpt>
      <trkpt lat="45.0791" lon="3.61398">
        <ele>913.39</ele>
        <time>2022-04-17T12:17:15Z</time>
      </trkpt>
      <trkpt lat="45.07909" lon="3.61399">
        <ele>912.91</ele>
        <time>2022-04-17T12:17:43Z</time>
      </trkpt>
      <trkpt lat="45.0791" lon="3.614">
        <ele>912.91</ele>
        <time>2022-04-17T12:18:06Z</time>
      </trkpt>
      <trkpt lat="45.07911" lon="3.614">
        <ele>912.91</ele>
        <time>2022-04-17T12:18:25Z</time>
      </trkpt>
      <trkpt lat="45.07912" lon="3.614">
        <ele>912.43</ele>
        <time>2022-04-17T12:18:56Z</time>
      </trkpt>
      <trkpt lat="45.07912" lon="3.614">
        <ele>912.43</ele>
        <time>2022-04-17T12:19:22Z</time>
      </trkpt>
      <trkpt lat="45.07912" lon="3.614">
        <ele>912.43</ele>
        <time>2022-04-17T12:19:30Z</time>
      </trkpt>
      <trkpt lat="45.07913" lon="3.61389">
        <ele>912.91</ele>
        <time>2022-04-17T12:19:40Z</time>
      </trkpt>
      <trkpt lat="45.07912" lon="3.61379">
        <ele>911.95</ele>
        <time>2022-04-17T12:19:56Z</time>
      </trkpt>
      <trkpt lat="45.07912" lon="3.61378">
        <ele>912.43</ele>
        <time>2022-04-17T12:20:06Z</time>
      </trkpt>
      <trkpt lat="45.07914" lon="3.61375">
        <ele>913.39</ele>
        <time>2022-04-17T12:20:17Z</time>
      </trkpt>
      <trkpt lat="45.07913" lon="3.61372">
        <ele>913.39</ele>
        <time>2022-04-17T12:20:26Z</time>
      </trkpt>
      <trkpt lat="45.07908" lon="3.6136">
        <ele>913.87</ele>
        <time>2022-04-17T12:20:39Z</time>
      </trkpt>
      <trkpt lat="45.07899" lon="3.6134">
        <ele>913.39</ele>
        <time>2022-04-17T12:20:57Z</time>
      </trkpt>
      <trkpt lat="45.07893" lon="3.6133">
        <ele>912.91</ele>
        <time>2022-04-17T12:21:08Z</time>
      </trkpt>
      <trkpt lat="45.07885" lon="3.61315">
        <ele>913.39</ele>
        <time>2022-04-17T12:21:23Z</time>
      </trkpt>
      <trkpt lat="45.07872" lon="3.61293">
        <ele>913.39</ele>
        <time>2022-04-17T12:21:42Z</time>
      </trkpt>
      <trkpt lat="45.07859" lon="3.6127">
        <ele>912.43</ele>
        <time>2022-04-17T12:22:00Z</time>
      </trkpt>
      <trkpt lat="45.07846" lon="3.61248">
        <ele>912.43</ele>
        <time>2022-04-17T12:22:18Z</time>
      </trkpt>
      <trkpt lat="45.07831" lon="3.61227">
        <ele>912.91</ele>
        <time>2022-04-17T12:22:36Z</time>
      </trkpt>
      <trkpt lat="45.07819" lon="3.61209">
        <ele>913.39</ele>
        <time>2022-04-17T12:22:53Z</time>
      </trkpt>
      <trkpt lat="45.07816" lon="3.61206">
        <ele>913.39</ele>
        <time>2022-04-17T12:22:56Z</time>
      </trkpt>
      <trkpt lat="45.07805" lon="3.61184">
        <ele>913.39</ele>
        <time>2022-04-17T12:23:14Z</time>
      </trkpt>
      <trkpt lat="45.07789" lon="3.6116">
        <ele>913.39</ele>
        <time>2022-04-17T12:23:33Z</time>
      </trkpt>
      <trkpt lat="45.07772" lon="3.61134">
        <ele>911.95</ele>
        <time>2022-04-17T12:23:54Z</time>
      </trkpt>
      <trkpt lat="45.07771" lon="3.61133">
        <ele>912.43</ele>
        <time>2022-04-17T12:23:55Z</time>
      </trkpt>
      <trkpt lat="45.07768" lon="3.61127">
        <ele>911.95</ele>
        <time>2022-04-17T12:23:59Z</time>
      </trkpt>
      <trkpt lat="45.07755" lon="3.61104">
        <ele>911.47</ele>
        <time>2022-04-17T12:24:17Z</time>
      </trkpt>
      <trkpt lat="45.07746" lon="3.61085">
        <ele>913.39</ele>
        <time>2022-04-17T12:24:34Z</time>
      </trkpt>
      <trkpt lat="45.07744" lon="3.61078">
        <ele>912.91</ele>
        <time>2022-04-17T12:24:46Z</time>
      </trkpt>
      <trkpt lat="45.07737" lon="3.61069">
        <ele>912.43</ele>
        <time>2022-04-17T12:24:59Z</time>
      </trkpt>
      <trkpt lat="45.07736" lon="3.61066">
        <ele>912.43</ele>
        <time>2022-04-17T12:25:02Z</time>
      </trkpt>
      <trkpt lat="45.0773" lon="3.61053">
        <ele>912.91</ele>
        <time>2022-04-17T12:25:16Z</time>
      </trkpt>
      <trkpt lat="45.07726" lon="3.61048">
        <ele>912.43</ele>
        <time>2022-04-17T12:25:21Z</time>
      </trkpt>
      <trkpt lat="45.07721" lon="3.61043">
        <ele>912.43</ele>
        <time>2022-04-17T12:25:33Z</time>
      </trkpt>
      <trkpt lat="45.07715" lon="3.61037">
        <ele>913.87</ele>
        <time>2022-04-17T12:25:46Z</time>
      </trkpt>
      <trkpt lat="45.07714" lon="3.61036">
        <ele>913.87</ele>
        <time>2022-04-17T12:25:50Z</time>
      </trkpt>
      <trkpt lat="45.07712" lon="3.61033">
        <ele>913.87</ele>
        <time>2022-04-17T12:25:52Z</time>
      </trkpt>
      <trkpt lat="45.07709" lon="3.6103">
        <ele>913.87</ele>
        <time>2022-04-17T12:25:55Z</time>
      </trkpt>
      <trkpt lat="45.07694" lon="3.61003">
        <ele>911.95</ele>
        <time>2022-04-17T12:26:14Z</time>
      </trkpt>
      <trkpt lat="45.07688" lon="3.60991">
        <ele>912.43</ele>
        <time>2022-04-17T12:26:23Z</time>
      </trkpt>
      <trkpt lat="45.07686" lon="3.60961">
        <ele>911.95</ele>
        <time>2022-04-17T12:26:41Z</time>
      </trkpt>
      <trkpt lat="45.07691" lon="3.60936">
        <ele>913.39</ele>
        <time>2022-04-17T12:26:58Z</time>
      </trkpt>
      <trkpt lat="45.07695" lon="3.60918">
        <ele>913.39</ele>
        <time>2022-04-17T12:27:14Z</time>
      </trkpt>
      <trkpt lat="45.07698" lon="3.60905">
        <ele>913.39</ele>
        <time>2022-04-17T12:27:28Z</time>
      </trkpt>
      <trkpt lat="45.07699" lon="3.60899">
        <ele>912.91</ele>
        <time>2022-04-17T12:27:32Z</time>
      </trkpt>
      <trkpt lat="45.07699" lon="3.6089">
        <ele>911.95</ele>
        <time>2022-04-17T12:27:38Z</time>
      </trkpt>
      <trkpt lat="45.07699" lon="3.60857">
        <ele>909.06</ele>
        <time>2022-04-17T12:27:58Z</time>
      </trkpt>
      <trkpt lat="45.07699" lon="3.60831">
        <ele>907.14</ele>
        <time>2022-04-17T12:28:15Z</time>
      </trkpt>
      <trkpt lat="45.07703" lon="3.60803">
        <ele>905.7</ele>
        <time>2022-04-17T12:28:33Z</time>
      </trkpt>
      <trkpt lat="45.07709" lon="3.60781">
        <ele>904.26</ele>
        <time>2022-04-17T12:28:50Z</time>
      </trkpt>
      <trkpt lat="45.07715" lon="3.60758">
        <ele>902.33</ele>
        <time>2022-04-17T12:29:06Z</time>
      </trkpt>
      <trkpt lat="45.07716" lon="3.60732">
        <ele>900.89</ele>
        <time>2022-04-17T12:29:22Z</time>
      </trkpt>
      <trkpt lat="45.07718" lon="3.60706">
        <ele>898.49</ele>
        <time>2022-04-17T12:29:38Z</time>
      </trkpt>
      <trkpt lat="45.07723" lon="3.60673">
        <ele>896.09</ele>
        <time>2022-04-17T12:29:58Z</time>
      </trkpt>
      <trkpt lat="45.07725" lon="3.60662">
        <ele>895.61</ele>
        <time>2022-04-17T12:30:05Z</time>
      </trkpt>
      <trkpt lat="45.07732" lon="3.6063">
        <ele>894.16</ele>
        <time>2022-04-17T12:30:25Z</time>
      </trkpt>
      <trkpt lat="45.07738" lon="3.60609">
        <ele>893.68</ele>
        <time>2022-04-17T12:30:40Z</time>
      </trkpt>
      <trkpt lat="45.0775" lon="3.60583">
        <ele>892.24</ele>
        <time>2022-04-17T12:30:59Z</time>
      </trkpt>
      <trkpt lat="45.07751" lon="3.60582">
        <ele>892.24</ele>
        <time>2022-04-17T12:31:00Z</time>
      </trkpt>
      <trkpt lat="45.07759" lon="3.60559">
        <ele>890.8</ele>
        <time>2022-04-17T12:31:16Z</time>
      </trkpt>
      <trkpt lat="45.07758" lon="3.60528">
        <ele>886.95</ele>
        <time>2022-04-17T12:31:34Z</time>
      </trkpt>
      <trkpt lat="45.07755" lon="3.60498">
        <ele>884.07</ele>
        <time>2022-04-17T12:31:52Z</time>
      </trkpt>
      <trkpt lat="45.07752" lon="3.60468">
        <ele>880.71</ele>
        <time>2022-04-17T12:32:11Z</time>
      </trkpt>
      <trkpt lat="45.07751" lon="3.60436">
        <ele>877.82</ele>
        <time>2022-04-17T12:32:30Z</time>
      </trkpt>
      <trkpt lat="45.0775" lon="3.60408">
        <ele>875.42</ele>
        <time>2022-04-17T12:32:47Z</time>
      </trkpt>
      <trkpt lat="45.0775" lon="3.60381">
        <ele>873.01</ele>
        <time>2022-04-17T12:33:04Z</time>
      </trkpt>
      <trkpt lat="45.0775" lon="3.60364">
        <ele>871.57</ele>
        <time>2022-04-17T12:33:14Z</time>
      </trkpt>
      <trkpt lat="45.0775" lon="3.60359">
        <ele>871.09</ele>
        <time>2022-04-17T12:33:17Z</time>
      </trkpt>
      <trkpt lat="45.07753" lon="3.60342">
        <ele>870.61</ele>
        <time>2022-04-17T12:33:27Z</time>
      </trkpt>
      <trkpt lat="45.07757" lon="3.60327">
        <ele>869.65</ele>
        <time>2022-04-17T12:33:37Z</time>
      </trkpt>
      <trkpt lat="45.07773" lon="3.60304">
        <ele>870.13</ele>
        <time>2022-04-17T12:33:56Z</time>
      </trkpt>
      <trkpt lat="45.07783" lon="3.60288">
        <ele>869.65</ele>
        <time>2022-04-17T12:34:11Z</time>
      </trkpt>
      <trkpt lat="45.07787" lon="3.60283">
        <ele>869.65</ele>
        <time>2022-04-17T12:34:15Z</time>
      </trkpt>
      <trkpt lat="45.07807" lon="3.6027">
        <ele>870.61</ele>
        <time>2022-04-17T12:34:35Z</time>
      </trkpt>
      <trkpt lat="45.07827" lon="3.60259">
        <ele>869.65</ele>
        <time>2022-04-17T12:34:54Z</time>
      </trkpt>
      <trkpt lat="45.07842" lon="3.60246">
        <ele>867.73</ele>
        <time>2022-04-17T12:35:10Z</time>
      </trkpt>
      <trkpt lat="45.07854" lon="3.60229">
        <ele>866.77</ele>
        <time>2022-04-17T12:35:28Z</time>
      </trkpt>
      <trkpt lat="45.07868" lon="3.60208">
        <ele>864.84</ele>
        <time>2022-04-17T12:35:47Z</time>
      </trkpt>
      <trkpt lat="45.07878" lon="3.60191">
        <ele>862.44</ele>
        <time>2022-04-17T12:36:01Z</time>
      </trkpt>
      <trkpt lat="45.07882" lon="3.60185">
        <ele>861.48</ele>
        <time>2022-04-17T12:36:06Z</time>
      </trkpt>
      <trkpt lat="45.07889" lon="3.60154">
        <ele>857.63</ele>
        <time>2022-04-17T12:36:27Z</time>
      </trkpt>
      <trkpt lat="45.07886" lon="3.6013">
        <ele>854.27</ele>
        <time>2022-04-17T12:36:44Z</time>
      </trkpt>
      <trkpt lat="45.07876" lon="3.6011">
        <ele>851.87</ele>
        <time>2022-04-17T12:36:59Z</time>
      </trkpt>
      <trkpt lat="45.07874" lon="3.60109">
        <ele>851.38</ele>
        <time>2022-04-17T12:37:01Z</time>
      </trkpt>
      <trkpt lat="45.07873" lon="3.60107">
        <ele>851.38</ele>
        <time>2022-04-17T12:37:03Z</time>
      </trkpt>
      <trkpt lat="45.07868" lon="3.60101">
        <ele>851.38</ele>
        <time>2022-04-17T12:37:15Z</time>
      </trkpt>
      <trkpt lat="45.07862" lon="3.60094">
        <ele>850.42</ele>
        <time>2022-04-17T12:37:27Z</time>
      </trkpt>
      <trkpt lat="45.07856" lon="3.60087">
        <ele>849.94</ele>
        <time>2022-04-17T12:37:34Z</time>
      </trkpt>
      <trkpt lat="45.07853" lon="3.60083">
        <ele>848.98</ele>
        <time>2022-04-17T12:37:38Z</time>
      </trkpt>
      <trkpt lat="45.07843" lon="3.60057">
        <ele>846.1</ele>
        <time>2022-04-17T12:37:57Z</time>
      </trkpt>
      <trkpt lat="45.07842" lon="3.60042">
        <ele>844.66</ele>
        <time>2022-04-17T12:38:09Z</time>
      </trkpt>
      <trkpt lat="45.07855" lon="3.60017">
        <ele>843.21</ele>
        <time>2022-04-17T12:38:28Z</time>
      </trkpt>
      <trkpt lat="45.07857" lon="3.60015">
        <ele>843.21</ele>
        <time>2022-04-17T12:38:30Z</time>
      </trkpt>
      <trkpt lat="45.07862" lon="3.60007">
        <ele>842.73</ele>
        <time>2022-04-17T12:38:42Z</time>
      </trkpt>
      <trkpt lat="45.07876" lon="3.59987">
        <ele>842.73</ele>
        <time>2022-04-17T12:39:00Z</time>
      </trkpt>
      <trkpt lat="45.07881" lon="3.59975">
        <ele>840.81</ele>
        <time>2022-04-17T12:39:08Z</time>
      </trkpt>
      <trkpt lat="45.07882" lon="3.59941">
        <ele>835.04</ele>
        <time>2022-04-17T12:39:30Z</time>
      </trkpt>
      <trkpt lat="45.0788" lon="3.59922">
        <ele>832.64</ele>
        <time>2022-04-17T12:39:45Z</time>
      </trkpt>
      <trkpt lat="45.07877" lon="3.59889">
        <ele>828.31</ele>
        <time>2022-04-17T12:40:04Z</time>
      </trkpt>
      <trkpt lat="45.07873" lon="3.5985">
        <ele>824.47</ele>
        <time>2022-04-17T12:40:26Z</time>
      </trkpt>
      <trkpt lat="45.07872" lon="3.59825">
        <ele>823.03</ele>
        <time>2022-04-17T12:40:42Z</time>
      </trkpt>
      <trkpt lat="45.07869" lon="3.59789">
        <ele>820.62</ele>
        <time>2022-04-17T12:41:02Z</time>
      </trkpt>
      <trkpt lat="45.07869" lon="3.59753">
        <ele>818.7</ele>
        <time>2022-04-17T12:41:23Z</time>
      </trkpt>
      <trkpt lat="45.07877" lon="3.5972">
        <ele>816.3</ele>
        <time>2022-04-17T12:41:45Z</time>
      </trkpt>
      <trkpt lat="45.07885" lon="3.59689">
        <ele>815.34</ele>
        <time>2022-04-17T12:42:04Z</time>
      </trkpt>
      <trkpt lat="45.07886" lon="3.59671">
        <ele>814.85</ele>
        <time>2022-04-17T12:42:15Z</time>
      </trkpt>
      <trkpt lat="45.07887" lon="3.59657">
        <ele>812.93</ele>
        <time>2022-04-17T12:42:24Z</time>
      </trkpt>
      <trkpt lat="45.07889" lon="3.59623">
        <ele>809.57</ele>
        <time>2022-04-17T12:42:43Z</time>
      </trkpt>
      <trkpt lat="45.07884" lon="3.59598">
        <ele>809.09</ele>
        <time>2022-04-17T12:42:59Z</time>
      </trkpt>
      <trkpt lat="45.07875" lon="3.59589">
        <ele>807.64</ele>
        <time>2022-04-17T12:43:08Z</time>
      </trkpt>
      <trkpt lat="45.07865" lon="3.59558">
        <ele>805.24</ele>
        <time>2022-04-17T12:43:29Z</time>
      </trkpt>
      <trkpt lat="45.07859" lon="3.59534">
        <ele>802.84</ele>
        <time>2022-04-17T12:43:45Z</time>
      </trkpt>
      <trkpt lat="45.07856" lon="3.59502">
        <ele>800.44</ele>
        <time>2022-04-17T12:44:04Z</time>
      </trkpt>
      <trkpt lat="45.07858" lon="3.59468">
        <ele>799.47</ele>
        <time>2022-04-17T12:44:24Z</time>
      </trkpt>
      <trkpt lat="45.07862" lon="3.59439">
        <ele>798.03</ele>
        <time>2022-04-17T12:44:42Z</time>
      </trkpt>
      <trkpt lat="45.07863" lon="3.59425">
        <ele>797.07</ele>
        <time>2022-04-17T12:44:50Z</time>
      </trkpt>
      <trkpt lat="45.07862" lon="3.59422">
        <ele>797.07</ele>
        <time>2022-04-17T12:44:56Z</time>
      </trkpt>
      <trkpt lat="45.07865" lon="3.59397">
        <ele>796.59</ele>
        <time>2022-04-17T12:45:12Z</time>
      </trkpt>
      <trkpt lat="45.07867" lon="3.59385">
        <ele>796.11</ele>
        <time>2022-04-17T12:45:20Z</time>
      </trkpt>
      <trkpt lat="45.07869" lon="3.59374">
        <ele>795.63</ele>
        <time>2022-04-17T12:45:27Z</time>
      </trkpt>
      <trkpt lat="45.07871" lon="3.59368">
        <ele>795.15</ele>
        <time>2022-04-17T12:45:31Z</time>
      </trkpt>
      <trkpt lat="45.07881" lon="3.5933">
        <ele>794.19</ele>
        <time>2022-04-17T12:45:54Z</time>
      </trkpt>
      <trkpt lat="45.07889" lon="3.59297">
        <ele>794.67</ele>
        <time>2022-04-17T12:46:14Z</time>
      </trkpt>
      <trkpt lat="45.07902" lon="3.59271">
        <ele>793.71</ele>
        <time>2022-04-17T12:46:33Z</time>
      </trkpt>
      <trkpt lat="45.07916" lon="3.59249">
        <ele>794.19</ele>
        <time>2022-04-17T12:46:49Z</time>
      </trkpt>
      <trkpt lat="45.07926" lon="3.5923">
        <ele>795.63</ele>
        <time>2022-04-17T12:47:04Z</time>
      </trkpt>
      <trkpt lat="45.07934" lon="3.59213">
        <ele>796.59</ele>
        <time>2022-04-17T12:47:17Z</time>
      </trkpt>
      <trkpt lat="45.07948" lon="3.59186">
        <ele>797.55</ele>
        <time>2022-04-17T12:47:37Z</time>
      </trkpt>
      <trkpt lat="45.07963" lon="3.59159">
        <ele>796.11</ele>
        <time>2022-04-17T12:47:58Z</time>
      </trkpt>
      <trkpt lat="45.07977" lon="3.59137">
        <ele>794.19</ele>
        <time>2022-04-17T12:48:16Z</time>
      </trkpt>
      <trkpt lat="45.07986" lon="3.59122">
        <ele>792.74</ele>
        <time>2022-04-17T12:48:29Z</time>
      </trkpt>
      <trkpt lat="45.08003" lon="3.59092">
        <ele>792.26</ele>
        <time>2022-04-17T12:48:51Z</time>
      </trkpt>
      <trkpt lat="45.08013" lon="3.59074">
        <ele>791.3</ele>
        <time>2022-04-17T12:49:08Z</time>
      </trkpt>
      <trkpt lat="45.0802" lon="3.59066">
        <ele>791.3</ele>
        <time>2022-04-17T12:49:21Z</time>
      </trkpt>
      <trkpt lat="45.08022" lon="3.59064">
        <ele>791.3</ele>
        <time>2022-04-17T12:49:23Z</time>
      </trkpt>
      <trkpt lat="45.08036" lon="3.59042">
        <ele>790.34</ele>
        <time>2022-04-17T12:49:42Z</time>
      </trkpt>
      <trkpt lat="45.08053" lon="3.59022">
        <ele>789.38</ele>
        <time>2022-04-17T12:50:01Z</time>
      </trkpt>
      <trkpt lat="45.08068" lon="3.59002">
        <ele>788.42</ele>
        <time>2022-04-17T12:50:19Z</time>
      </trkpt>
      <trkpt lat="45.08081" lon="3.58981">
        <ele>788.9</ele>
        <time>2022-04-17T12:50:37Z</time>
      </trkpt>
      <trkpt lat="45.08095" lon="3.58953">
        <ele>788.9</ele>
        <time>2022-04-17T12:50:58Z</time>
      </trkpt>
      <trkpt lat="45.08102" lon="3.58932">
        <ele>787.46</ele>
        <time>2022-04-17T12:51:15Z</time>
      </trkpt>
      <trkpt lat="45.08103" lon="3.58928">
        <ele>786.98</ele>
        <time>2022-04-17T12:51:28Z</time>
      </trkpt>
      <trkpt lat="45.08101" lon="3.58923">
        <ele>787.46</ele>
        <time>2022-04-17T12:51:44Z</time>
      </trkpt>
      <trkpt lat="45.08101" lon="3.58924">
        <ele>787.46</ele>
        <time>2022-04-17T12:51:56Z</time>
      </trkpt>
      <trkpt lat="45.08099" lon="3.58925">
        <ele>786.98</ele>
        <time>2022-04-17T12:52:18Z</time>
      </trkpt>
      <trkpt lat="45.08099" lon="3.58925">
        <ele>786.98</ele>
        <time>2022-04-17T12:52:19Z</time>
      </trkpt>
      <trkpt lat="45.08086" lon="3.58913">
        <ele>788.42</ele>
        <time>2022-04-17T12:52:34Z</time>
      </trkpt>
      <trkpt lat="45.08074" lon="3.58908">
        <ele>788.42</ele>
        <time>2022-04-17T12:52:46Z</time>
      </trkpt>
      <trkpt lat="45.08061" lon="3.58904">
        <ele>789.86</ele>
        <time>2022-04-17T12:52:59Z</time>
      </trkpt>
      <trkpt lat="45.08042" lon="3.58896">
        <ele>790.34</ele>
        <time>2022-04-17T12:53:16Z</time>
      </trkpt>
      <trkpt lat="45.08027" lon="3.58894">
        <ele>792.26</ele>
        <time>2022-04-17T12:53:29Z</time>
      </trkpt>
      <trkpt lat="45.08013" lon="3.58891">
        <ele>796.11</ele>
        <time>2022-04-17T12:53:43Z</time>
      </trkpt>
      <trkpt lat="45.07995" lon="3.58888">
        <ele>798.99</ele>
        <time>2022-04-17T12:53:59Z</time>
      </trkpt>
      <trkpt lat="45.07976" lon="3.58882">
        <ele>799.95</ele>
        <time>2022-04-17T12:54:14Z</time>
      </trkpt>
      <trkpt lat="45.07962" lon="3.58876">
        <ele>795.63</ele>
        <time>2022-04-17T12:54:24Z</time>
      </trkpt>
      <trkpt lat="45.07959" lon="3.58876">
        <ele>795.15</ele>
        <time>2022-04-17T12:54:26Z</time>
      </trkpt>
      <trkpt lat="45.07948" lon="3.58878">
        <ele>789.38</ele>
        <time>2022-04-17T12:54:41Z</time>
      </trkpt>
      <trkpt lat="45.07947" lon="3.58879">
        <ele>786.02</ele>
        <time>2022-04-17T12:55:04Z</time>
      </trkpt>
      <trkpt lat="45.07947" lon="3.58879">
        <ele>785.05</ele>
        <time>2022-04-17T12:55:25Z</time>
      </trkpt>
      <trkpt lat="45.07947" lon="3.58879">
        <ele>784.57</ele>
        <time>2022-04-17T12:55:47Z</time>
      </trkpt>
      <trkpt lat="45.07944" lon="3.58878">
        <ele>784.09</ele>
        <time>2022-04-17T12:55:58Z</time>
      </trkpt>
      <trkpt lat="45.07942" lon="3.58876">
        <ele>784.09</ele>
        <time>2022-04-17T12:56:00Z</time>
      </trkpt>
      <trkpt lat="45.0793" lon="3.58868">
        <ele>784.09</ele>
        <time>2022-04-17T12:56:10Z</time>
      </trkpt>
      <trkpt lat="45.07904" lon="3.58861">
        <ele>783.13</ele>
        <time>2022-04-17T12:56:27Z</time>
      </trkpt>
      <trkpt lat="45.07875" lon="3.5885">
        <ele>778.32</ele>
        <time>2022-04-17T12:56:44Z</time>
      </trkpt>
      <trkpt lat="45.07853" lon="3.5882">
        <ele>775.44</ele>
        <time>2022-04-17T12:57:01Z</time>
      </trkpt>
      <trkpt lat="45.07836" lon="3.58784">
        <ele>773.52</ele>
        <time>2022-04-17T12:57:19Z</time>
      </trkpt>
      <trkpt lat="45.07816" lon="3.58739">
        <ele>773.04</ele>
        <time>2022-04-17T12:57:41Z</time>
      </trkpt>
      <trkpt lat="45.07795" lon="3.58699">
        <ele>772.08</ele>
        <time>2022-04-17T12:58:02Z</time>
      </trkpt>
      <trkpt lat="45.07777" lon="3.58662">
        <ele>771.11</ele>
        <time>2022-04-17T12:58:22Z</time>
      </trkpt>
      <trkpt lat="45.07761" lon="3.58636">
        <ele>771.11</ele>
        <time>2022-04-17T12:58:39Z</time>
      </trkpt>
      <trkpt lat="45.07754" lon="3.58631">
        <ele>771.6</ele>
        <time>2022-04-17T12:58:44Z</time>
      </trkpt>
      <trkpt lat="45.07747" lon="3.58627">
        <ele>771.6</ele>
        <time>2022-04-17T12:58:49Z</time>
      </trkpt>
      <trkpt lat="45.07726" lon="3.58615">
        <ele>771.11</ele>
        <time>2022-04-17T12:59:05Z</time>
      </trkpt>
      <trkpt lat="45.07711" lon="3.58606">
        <ele>768.71</ele>
        <time>2022-04-17T12:59:18Z</time>
      </trkpt>
      <trkpt lat="45.07691" lon="3.58594">
        <ele>766.31</ele>
        <time>2022-04-17T12:59:36Z</time>
      </trkpt>
      <trkpt lat="45.0767" lon="3.58579">
        <ele>764.39</ele>
        <time>2022-04-17T12:59:56Z</time>
      </trkpt>
      <trkpt lat="45.0765" lon="3.58566">
        <ele>763.9</ele>
        <time>2022-04-17T13:00:15Z</time>
      </trkpt>
      <trkpt lat="45.07633" lon="3.58554">
        <ele>762.94</ele>
        <time>2022-04-17T13:00:31Z</time>
      </trkpt>
      <trkpt lat="45.07624" lon="3.5855">
        <ele>761.98</ele>
        <time>2022-04-17T13:00:38Z</time>
      </trkpt>
      <trkpt lat="45.07603" lon="3.58536">
        <ele>759.58</ele>
        <time>2022-04-17T13:00:58Z</time>
      </trkpt>
      <trkpt lat="45.07601" lon="3.58534">
        <ele>759.58</ele>
        <time>2022-04-17T13:01:12Z</time>
      </trkpt>
      <trkpt lat="45.076" lon="3.58533">
        <ele>759.58</ele>
        <time>2022-04-17T13:01:29Z</time>
      </trkpt>
      <trkpt lat="45.07597" lon="3.58532">
        <ele>759.1</ele>
        <time>2022-04-17T13:01:43Z</time>
      </trkpt>
      <trkpt lat="45.07595" lon="3.58534">
        <ele>759.1</ele>
        <time>2022-04-17T13:01:47Z</time>
      </trkpt>
      <trkpt lat="45.07577" lon="3.58542">
        <ele>756.69</ele>
        <time>2022-04-17T13:02:03Z</time>
      </trkpt>
      <trkpt lat="45.07558" lon="3.58555">
        <ele>754.29</ele>
        <time>2022-04-17T13:02:21Z</time>
      </trkpt>
      <trkpt lat="45.07544" lon="3.58571">
        <ele>753.33</ele>
        <time>2022-04-17T13:02:38Z</time>
      </trkpt>
      <trkpt lat="45.0753" lon="3.58598">
        <ele>751.41</ele>
        <time>2022-04-17T13:02:57Z</time>
      </trkpt>
      <trkpt lat="45.07527" lon="3.58624">
        <ele>751.89</ele>
        <time>2022-04-17T13:03:14Z</time>
      </trkpt>
      <trkpt lat="45.07528" lon="3.58644">
        <ele>753.33</ele>
        <time>2022-04-17T13:03:30Z</time>
      </trkpt>
      <trkpt lat="45.0753" lon="3.58662">
        <ele>754.29</ele>
        <time>2022-04-17T13:03:46Z</time>
      </trkpt>
      <trkpt lat="45.0753" lon="3.58666">
        <ele>754.77</ele>
        <time>2022-04-17T13:03:51Z</time>
      </trkpt>
      <trkpt lat="45.07529" lon="3.58668">
        <ele>754.29</ele>
        <time>2022-04-17T13:03:53Z</time>
      </trkpt>
      <trkpt lat="45.0752" lon="3.5867">
        <ele>750.45</ele>
        <time>2022-04-17T13:04:08Z</time>
      </trkpt>
      <trkpt lat="45.07518" lon="3.58668">
        <ele>750.45</ele>
        <time>2022-04-17T13:04:12Z</time>
      </trkpt>
      <trkpt lat="45.07513" lon="3.58659">
        <ele>749.49</ele>
        <time>2022-04-17T13:04:27Z</time>
      </trkpt>
      <trkpt lat="45.0751" lon="3.58651">
        <ele>749.49</ele>
        <time>2022-04-17T13:04:40Z</time>
      </trkpt>
      <trkpt lat="45.07502" lon="3.58635">
        <ele>750.93</ele>
        <time>2022-04-17T13:04:53Z</time>
      </trkpt>
      <trkpt lat="45.07498" lon="3.58612">
        <ele>753.33</ele>
        <time>2022-04-17T13:05:08Z</time>
      </trkpt>
      <trkpt lat="45.07492" lon="3.58596">
        <ele>753.81</ele>
        <time>2022-04-17T13:05:22Z</time>
      </trkpt>
      <trkpt lat="45.07492" lon="3.58593">
        <ele>753.81</ele>
        <time>2022-04-17T13:05:24Z</time>
      </trkpt>
      <trkpt lat="45.07494" lon="3.58576">
        <ele>756.21</ele>
        <time>2022-04-17T13:05:34Z</time>
      </trkpt>
      <trkpt lat="45.07495" lon="3.58571">
        <ele>757.66</ele>
        <time>2022-04-17T13:05:38Z</time>
      </trkpt>
      <trkpt lat="45.07497" lon="3.58555">
        <ele>760.06</ele>
        <time>2022-04-17T13:05:48Z</time>
      </trkpt>
      <trkpt lat="45.0749" lon="3.58536">
        <ele>762.46</ele>
        <time>2022-04-17T13:06:00Z</time>
      </trkpt>
      <trkpt lat="45.0748" lon="3.58516">
        <ele>762.94</ele>
        <time>2022-04-17T13:06:14Z</time>
      </trkpt>
      <trkpt lat="45.07478" lon="3.58513">
        <ele>763.42</ele>
        <time>2022-04-17T13:06:17Z</time>
      </trkpt>
      <trkpt lat="45.07476" lon="3.58513">
        <ele>762.94</ele>
        <time>2022-04-17T13:06:20Z</time>
      </trkpt>
      <trkpt lat="45.07474" lon="3.58508">
        <ele>762.46</ele>
        <time>2022-04-17T13:06:24Z</time>
      </trkpt>
      <trkpt lat="45.0745" lon="3.58481">
        <ele>754.29</ele>
        <time>2022-04-17T13:06:42Z</time>
      </trkpt>
      <trkpt lat="45.07435" lon="3.58459">
        <ele>748.52</ele>
        <time>2022-04-17T13:06:57Z</time>
      </trkpt>
      <trkpt lat="45.07423" lon="3.58442">
        <ele>751.41</ele>
        <time>2022-04-17T13:07:13Z</time>
      </trkpt>
      <trkpt lat="45.07397" lon="3.58423">
        <ele>747.56</ele>
        <time>2022-04-17T13:07:29Z</time>
      </trkpt>
      <trkpt lat="45.07385" lon="3.58419">
        <ele>746.6</ele>
        <time>2022-04-17T13:07:39Z</time>
      </trkpt>
      <trkpt lat="45.07382" lon="3.58417">
        <ele>746.12</ele>
        <time>2022-04-17T13:07:42Z</time>
      </trkpt>
      <trkpt lat="45.07362" lon="3.58411">
        <ele>745.16</ele>
        <time>2022-04-17T13:07:59Z</time>
      </trkpt>
      <trkpt lat="45.07347" lon="3.58407">
        <ele>743.72</ele>
        <time>2022-04-17T13:08:12Z</time>
      </trkpt>
      <trkpt lat="45.07332" lon="3.58401">
        <ele>743.24</ele>
        <time>2022-04-17T13:08:27Z</time>
      </trkpt>
      <trkpt lat="45.07311" lon="3.58395">
        <ele>741.31</ele>
        <time>2022-04-17T13:08:44Z</time>
      </trkpt>
      <trkpt lat="45.07293" lon="3.58391">
        <ele>738.43</ele>
        <time>2022-04-17T13:09:00Z</time>
      </trkpt>
      <trkpt lat="45.07276" lon="3.58386">
        <ele>735.55</ele>
        <time>2022-04-17T13:09:15Z</time>
      </trkpt>
      <trkpt lat="45.07253" lon="3.58376">
        <ele>732.66</ele>
        <time>2022-04-17T13:09:34Z</time>
      </trkpt>
      <trkpt lat="45.07234" lon="3.58373">
        <ele>730.26</ele>
        <time>2022-04-17T13:09:50Z</time>
      </trkpt>
      <trkpt lat="45.0722" lon="3.58367">
        <ele>728.34</ele>
        <time>2022-04-17T13:10:05Z</time>
      </trkpt>
      <trkpt lat="45.07218" lon="3.58362">
        <ele>727.37</ele>
        <time>2022-04-17T13:10:10Z</time>
      </trkpt>
      <trkpt lat="45.07221" lon="3.58345">
        <ele>726.41</ele>
        <time>2022-04-17T13:10:24Z</time>
      </trkpt>
      <trkpt lat="45.07223" lon="3.58341">
        <ele>725.93</ele>
        <time>2022-04-17T13:10:28Z</time>
      </trkpt>
      <trkpt lat="45.07231" lon="3.5833">
        <ele>725.45</ele>
        <time>2022-04-17T13:10:41Z</time>
      </trkpt>
      <trkpt lat="45.07227" lon="3.5831">
        <ele>724.49</ele>
        <time>2022-04-17T13:10:55Z</time>
      </trkpt>
      <trkpt lat="45.07222" lon="3.5829">
        <ele>722.09</ele>
        <time>2022-04-17T13:11:10Z</time>
      </trkpt>
      <trkpt lat="45.07219" lon="3.58279">
        <ele>721.13</ele>
        <time>2022-04-17T13:11:19Z</time>
      </trkpt>
      <trkpt lat="45.07216" lon="3.58274">
        <ele>721.13</ele>
        <time>2022-04-17T13:11:23Z</time>
      </trkpt>
      <trkpt lat="45.07205" lon="3.58244">
        <ele>720.65</ele>
        <time>2022-04-17T13:11:43Z</time>
      </trkpt>
      <trkpt lat="45.07196" lon="3.58222">
        <ele>717.76</ele>
        <time>2022-04-17T13:11:59Z</time>
      </trkpt>
      <trkpt lat="45.07187" lon="3.58202">
        <ele>717.76</ele>
        <time>2022-04-17T13:12:13Z</time>
      </trkpt>
      <trkpt lat="45.07183" lon="3.5818">
        <ele>716.8</ele>
        <time>2022-04-17T13:12:27Z</time>
      </trkpt>
      <trkpt lat="45.07181" lon="3.5815">
        <ele>714.4</ele>
        <time>2022-04-17T13:12:44Z</time>
      </trkpt>
      <trkpt lat="45.0718" lon="3.58139">
        <ele>713.92</ele>
        <time>2022-04-17T13:12:51Z</time>
      </trkpt>
      <trkpt lat="45.0717" lon="3.58122">
        <ele>713.92</ele>
        <time>2022-04-17T13:13:04Z</time>
      </trkpt>
      <trkpt lat="45.07165" lon="3.58112">
        <ele>712.95</ele>
        <time>2022-04-17T13:13:11Z</time>
      </trkpt>
      <trkpt lat="45.07163" lon="3.58106">
        <ele>711.99</ele>
        <time>2022-04-17T13:13:15Z</time>
      </trkpt>
      <trkpt lat="45.07157" lon="3.5809">
        <ele>709.11</ele>
        <time>2022-04-17T13:13:25Z</time>
      </trkpt>
      <trkpt lat="45.07149" lon="3.58065">
        <ele>706.71</ele>
        <time>2022-04-17T13:13:42Z</time>
      </trkpt>
      <trkpt lat="45.07148" lon="3.58064">
        <ele>706.71</ele>
        <time>2022-04-17T13:13:45Z</time>
      </trkpt>
      <trkpt lat="45.07147" lon="3.58057">
        <ele>706.23</ele>
        <time>2022-04-17T13:13:49Z</time>
      </trkpt>
      <trkpt lat="45.07145" lon="3.58048">
        <ele>705.26</ele>
        <time>2022-04-17T13:13:54Z</time>
      </trkpt>
      <trkpt lat="45.07143" lon="3.58042">
        <ele>705.26</ele>
        <time>2022-04-17T13:13:58Z</time>
      </trkpt>
      <trkpt lat="45.07138" lon="3.58013">
        <ele>703.82</ele>
        <time>2022-04-17T13:14:16Z</time>
      </trkpt>
      <trkpt lat="45.07136" lon="3.57988">
        <ele>701.42</ele>
        <time>2022-04-17T13:14:32Z</time>
      </trkpt>
      <trkpt lat="45.07131" lon="3.57964">
        <ele>702.38</ele>
        <time>2022-04-17T13:14:48Z</time>
      </trkpt>
      <trkpt lat="45.07129" lon="3.5796">
        <ele>702.38</ele>
        <time>2022-04-17T13:14:51Z</time>
      </trkpt>
      <trkpt lat="45.07121" lon="3.57935">
        <ele>701.42</ele>
        <time>2022-04-17T13:15:07Z</time>
      </trkpt>
      <trkpt lat="45.07114" lon="3.57916">
        <ele>699.5</ele>
        <time>2022-04-17T13:15:20Z</time>
      </trkpt>
      <trkpt lat="45.07111" lon="3.57902">
        <ele>697.57</ele>
        <time>2022-04-17T13:15:34Z</time>
      </trkpt>
      <trkpt lat="45.07108" lon="3.57891">
        <ele>694.69</ele>
        <time>2022-04-17T13:15:42Z</time>
      </trkpt>
      <trkpt lat="45.07103" lon="3.5787">
        <ele>691.33</ele>
        <time>2022-04-17T13:15:54Z</time>
      </trkpt>
      <trkpt lat="45.07099" lon="3.57856">
        <ele>688.92</ele>
        <time>2022-04-17T13:16:07Z</time>
      </trkpt>
      <trkpt lat="45.07098" lon="3.57841">
        <ele>687.48</ele>
        <time>2022-04-17T13:16:21Z</time>
      </trkpt>
      <trkpt lat="45.07099" lon="3.57839">
        <ele>687</ele>
        <time>2022-04-17T13:16:23Z</time>
      </trkpt>
      <trkpt lat="45.07103" lon="3.5782">
        <ele>683.15</ele>
        <time>2022-04-17T13:16:35Z</time>
      </trkpt>
      <trkpt lat="45.07113" lon="3.57806">
        <ele>680.27</ele>
        <time>2022-04-17T13:16:49Z</time>
      </trkpt>
      <trkpt lat="45.07118" lon="3.57796">
        <ele>679.79</ele>
        <time>2022-04-17T13:16:58Z</time>
      </trkpt>
      <trkpt lat="45.07124" lon="3.57792">
        <ele>677.87</ele>
        <time>2022-04-17T13:17:08Z</time>
      </trkpt>
      <trkpt lat="45.07129" lon="3.57789">
        <ele>676.91</ele>
        <time>2022-04-17T13:17:14Z</time>
      </trkpt>
      <trkpt lat="45.07133" lon="3.57777">
        <ele>676.42</ele>
        <time>2022-04-17T13:17:28Z</time>
      </trkpt>
      <trkpt lat="45.07132" lon="3.57774">
        <ele>676.91</ele>
        <time>2022-04-17T13:17:31Z</time>
      </trkpt>
      <trkpt lat="45.07124" lon="3.57752">
        <ele>676.91</ele>
        <time>2022-04-17T13:17:47Z</time>
      </trkpt>
      <trkpt lat="45.07123" lon="3.57748">
        <ele>675.94</ele>
        <time>2022-04-17T13:17:51Z</time>
      </trkpt>
      <trkpt lat="45.07115" lon="3.57728">
        <ele>674.02</ele>
        <time>2022-04-17T13:18:06Z</time>
      </trkpt>
      <trkpt lat="45.0711" lon="3.57715">
        <ele>674.98</ele>
        <time>2022-04-17T13:18:17Z</time>
      </trkpt>
      <trkpt lat="45.07099" lon="3.57699">
        <ele>674.98</ele>
        <time>2022-04-17T13:18:30Z</time>
      </trkpt>
      <trkpt lat="45.07084" lon="3.5767">
        <ele>674.98</ele>
        <time>2022-04-17T13:18:46Z</time>
      </trkpt>
      <trkpt lat="45.07083" lon="3.57666">
        <ele>674.98</ele>
        <time>2022-04-17T13:18:48Z</time>
      </trkpt>
      <trkpt lat="45.07078" lon="3.57654">
        <ele>674.5</ele>
        <time>2022-04-17T13:18:57Z</time>
      </trkpt>
      <trkpt lat="45.07077" lon="3.57648">
        <ele>674.02</ele>
        <time>2022-04-17T13:19:01Z</time>
      </trkpt>
      <trkpt lat="45.0707" lon="3.57627">
        <ele>674.5</ele>
        <time>2022-04-17T13:19:16Z</time>
      </trkpt>
      <trkpt lat="45.07064" lon="3.57608">
        <ele>671.14</ele>
        <time>2022-04-17T13:19:29Z</time>
      </trkpt>
      <trkpt lat="45.07067" lon="3.57586">
        <ele>669.22</ele>
        <time>2022-04-17T13:19:46Z</time>
      </trkpt>
      <trkpt lat="45.0707" lon="3.57563">
        <ele>669.7</ele>
        <time>2022-04-17T13:20:01Z</time>
      </trkpt>
      <trkpt lat="45.07066" lon="3.57543">
        <ele>673.54</ele>
        <time>2022-04-17T13:20:17Z</time>
      </trkpt>
      <trkpt lat="45.07063" lon="3.5752">
        <ele>680.75</ele>
        <time>2022-04-17T13:20:30Z</time>
      </trkpt>
      <trkpt lat="45.07063" lon="3.57495">
        <ele>681.23</ele>
        <time>2022-04-17T13:20:44Z</time>
      </trkpt>
      <trkpt lat="45.07069" lon="3.5747">
        <ele>681.71</ele>
        <time>2022-04-17T13:20:58Z</time>
      </trkpt>
      <trkpt lat="45.07077" lon="3.57443">
        <ele>681.71</ele>
        <time>2022-04-17T13:21:13Z</time>
      </trkpt>
      <trkpt lat="45.07082" lon="3.57421">
        <ele>681.23</ele>
        <time>2022-04-17T13:21:27Z</time>
      </trkpt>
      <trkpt lat="45.07085" lon="3.57401">
        <ele>682.19</ele>
        <time>2022-04-17T13:21:42Z</time>
      </trkpt>
      <trkpt lat="45.07083" lon="3.57382">
        <ele>683.63</ele>
        <time>2022-04-17T13:21:57Z</time>
      </trkpt>
      <trkpt lat="45.07082" lon="3.57363">
        <ele>682.67</ele>
        <time>2022-04-17T13:22:12Z</time>
      </trkpt>
      <trkpt lat="45.07087" lon="3.57332">
        <ele>677.87</ele>
        <time>2022-04-17T13:22:27Z</time>
      </trkpt>
      <trkpt lat="45.07084" lon="3.57315">
        <ele>678.35</ele>
        <time>2022-04-17T13:22:42Z</time>
      </trkpt>
      <trkpt lat="45.07084" lon="3.57312">
        <ele>677.87</ele>
        <time>2022-04-17T13:22:58Z</time>
      </trkpt>
      <trkpt lat="45.07084" lon="3.57298">
        <ele>678.35</ele>
        <time>2022-04-17T13:23:06Z</time>
      </trkpt>
      <trkpt lat="45.07074" lon="3.57271">
        <ele>682.19</ele>
        <time>2022-04-17T13:23:28Z</time>
      </trkpt>
      <trkpt lat="45.07066" lon="3.5725">
        <ele>683.63</ele>
        <time>2022-04-17T13:23:43Z</time>
      </trkpt>
      <trkpt lat="45.07057" lon="3.57233">
        <ele>685.08</ele>
        <time>2022-04-17T13:23:57Z</time>
      </trkpt>
      <trkpt lat="45.07056" lon="3.57231">
        <ele>684.6</ele>
        <time>2022-04-17T13:24:00Z</time>
      </trkpt>
      <trkpt lat="45.07044" lon="3.57205">
        <ele>679.79</ele>
        <time>2022-04-17T13:24:16Z</time>
      </trkpt>
      <trkpt lat="45.07036" lon="3.57184">
        <ele>680.27</ele>
        <time>2022-04-17T13:24:31Z</time>
      </trkpt>
      <trkpt lat="45.07034" lon="3.57179">
        <ele>680.75</ele>
        <time>2022-04-17T13:24:34Z</time>
      </trkpt>
      <trkpt lat="45.07024" lon="3.5716">
        <ele>680.27</ele>
        <time>2022-04-17T13:24:47Z</time>
      </trkpt>
      <trkpt lat="45.07011" lon="3.5714">
        <ele>677.39</ele>
        <time>2022-04-17T13:25:03Z</time>
      </trkpt>
      <trkpt lat="45.06995" lon="3.57112">
        <ele>675.46</ele>
        <time>2022-04-17T13:25:24Z</time>
      </trkpt>
      <trkpt lat="45.06987" lon="3.57097">
        <ele>674.98</ele>
        <time>2022-04-17T13:25:36Z</time>
      </trkpt>
      <trkpt lat="45.06977" lon="3.57076">
        <ele>673.06</ele>
        <time>2022-04-17T13:25:52Z</time>
      </trkpt>
      <trkpt lat="45.06968" lon="3.57058">
        <ele>673.06</ele>
        <time>2022-04-17T13:26:06Z</time>
      </trkpt>
      <trkpt lat="45.06961" lon="3.57045">
        <ele>671.62</ele>
        <time>2022-04-17T13:26:16Z</time>
      </trkpt>
      <trkpt lat="45.06951" lon="3.57025">
        <ele>670.18</ele>
        <time>2022-04-17T13:26:31Z</time>
      </trkpt>
      <trkpt lat="45.06942" lon="3.57009">
        <ele>669.7</ele>
        <time>2022-04-17T13:26:46Z</time>
      </trkpt>
      <trkpt lat="45.06935" lon="3.57001">
        <ele>668.25</ele>
        <time>2022-04-17T13:26:56Z</time>
      </trkpt>
      <trkpt lat="45.06921" lon="3.56989">
        <ele>665.85</ele>
        <time>2022-04-17T13:27:11Z</time>
      </trkpt>
      <trkpt lat="45.0691" lon="3.56977">
        <ele>662.01</ele>
        <time>2022-04-17T13:27:22Z</time>
      </trkpt>
      <trkpt lat="45.06898" lon="3.56971">
        <ele>660.56</ele>
        <time>2022-04-17T13:27:32Z</time>
      </trkpt>
      <trkpt lat="45.0688" lon="3.56963">
        <ele>660.08</ele>
        <time>2022-04-17T13:27:47Z</time>
      </trkpt>
      <trkpt lat="45.06859" lon="3.56946">
        <ele>657.68</ele>
        <time>2022-04-17T13:28:05Z</time>
      </trkpt>
      <trkpt lat="45.06846" lon="3.56931">
        <ele>656.24</ele>
        <time>2022-04-17T13:28:20Z</time>
      </trkpt>
      <trkpt lat="45.06836" lon="3.56921">
        <ele>654.31</ele>
        <time>2022-04-17T13:28:34Z</time>
      </trkpt>
      <trkpt lat="45.06826" lon="3.56917">
        <ele>655.76</ele>
        <time>2022-04-17T13:28:46Z</time>
      </trkpt>
      <trkpt lat="45.06813" lon="3.56906">
        <ele>657.68</ele>
        <time>2022-04-17T13:29:01Z</time>
      </trkpt>
      <trkpt lat="45.06802" lon="3.56895">
        <ele>659.12</ele>
        <time>2022-04-17T13:29:17Z</time>
      </trkpt>
      <trkpt lat="45.06801" lon="3.56892">
        <ele>659.12</ele>
        <time>2022-04-17T13:29:22Z</time>
      </trkpt>
      <trkpt lat="45.06791" lon="3.56881">
        <ele>659.6</ele>
        <time>2022-04-17T13:29:34Z</time>
      </trkpt>
      <trkpt lat="45.06786" lon="3.56876">
        <ele>661.04</ele>
        <time>2022-04-17T13:29:48Z</time>
      </trkpt>
      <trkpt lat="45.06773" lon="3.56867">
        <ele>668.25</ele>
        <time>2022-04-17T13:30:02Z</time>
      </trkpt>
      <trkpt lat="45.06762" lon="3.56861">
        <ele>672.1</ele>
        <time>2022-04-17T13:30:11Z</time>
      </trkpt>
      <trkpt lat="45.06744" lon="3.56846">
        <ele>680.27</ele>
        <time>2022-04-17T13:30:25Z</time>
      </trkpt>
      <trkpt lat="45.06729" lon="3.56836">
        <ele>682.19</ele>
        <time>2022-04-17T13:30:38Z</time>
      </trkpt>
      <trkpt lat="45.06715" lon="3.56814">
        <ele>682.19</ele>
        <time>2022-04-17T13:30:55Z</time>
      </trkpt>
      <trkpt lat="45.06695" lon="3.56798">
        <ele>664.41</ele>
        <time>2022-04-17T13:31:01Z</time>
      </trkpt>
      <trkpt lat="45.06672" lon="3.56789">
        <ele>655.28</ele>
        <time>2022-04-17T13:31:15Z</time>
      </trkpt>
      <trkpt lat="45.06666" lon="3.5679">
        <ele>654.31</ele>
        <time>2022-04-17T13:31:20Z</time>
      </trkpt>
      <trkpt lat="45.06644" lon="3.56804">
        <ele>650.47</ele>
        <time>2022-04-17T13:31:41Z</time>
      </trkpt>
      <trkpt lat="45.06633" lon="3.56809">
        <ele>649.51</ele>
        <time>2022-04-17T13:31:52Z</time>
      </trkpt>
      <trkpt lat="45.06611" lon="3.56802">
        <ele>647.59</ele>
        <time>2022-04-17T13:32:11Z</time>
      </trkpt>
      <trkpt lat="45.06599" lon="3.56795">
        <ele>646.62</ele>
        <time>2022-04-17T13:32:22Z</time>
      </trkpt>
      <trkpt lat="45.06595" lon="3.56786">
        <ele>645.66</ele>
        <time>2022-04-17T13:32:29Z</time>
      </trkpt>
      <trkpt lat="45.06589" lon="3.56775">
        <ele>644.22</ele>
        <time>2022-04-17T13:32:37Z</time>
      </trkpt>
      <trkpt lat="45.06581" lon="3.56747">
        <ele>642.3</ele>
        <time>2022-04-17T13:32:55Z</time>
      </trkpt>
      <trkpt lat="45.06581" lon="3.56746">
        <ele>642.3</ele>
        <time>2022-04-17T13:32:58Z</time>
      </trkpt>
      <trkpt lat="45.06572" lon="3.56715">
        <ele>641.34</ele>
        <time>2022-04-17T13:33:17Z</time>
      </trkpt>
      <trkpt lat="45.06569" lon="3.56698">
        <ele>641.34</ele>
        <time>2022-04-17T13:33:27Z</time>
      </trkpt>
      <trkpt lat="45.06552" lon="3.56667">
        <ele>637.97</ele>
        <time>2022-04-17T13:33:49Z</time>
      </trkpt>
      <trkpt lat="45.06538" lon="3.56652">
        <ele>635.09</ele>
        <time>2022-04-17T13:34:06Z</time>
      </trkpt>
      <trkpt lat="45.06531" lon="3.56645">
        <ele>633.17</ele>
        <time>2022-04-17T13:34:19Z</time>
      </trkpt>
      <trkpt lat="45.06526" lon="3.56642">
        <ele>632.2</ele>
        <time>2022-04-17T13:34:23Z</time>
      </trkpt>
      <trkpt lat="45.06523" lon="3.56639">
        <ele>631.24</ele>
        <time>2022-04-17T13:34:26Z</time>
      </trkpt>
      <trkpt lat="45.06524" lon="3.5663">
        <ele>630.28</ele>
        <time>2022-04-17T13:34:32Z</time>
      </trkpt>
      <trkpt lat="45.06531" lon="3.56618">
        <ele>629.8</ele>
        <time>2022-04-17T13:34:44Z</time>
      </trkpt>
      <trkpt lat="45.06545" lon="3.56598">
        <ele>629.8</ele>
        <time>2022-04-17T13:35:02Z</time>
      </trkpt>
      <trkpt lat="45.0656" lon="3.56575">
        <ele>629.32</ele>
        <time>2022-04-17T13:35:19Z</time>
      </trkpt>
      <trkpt lat="45.06571" lon="3.56559">
        <ele>630.28</ele>
        <time>2022-04-17T13:35:32Z</time>
      </trkpt>
      <trkpt lat="45.06586" lon="3.56531">
        <ele>630.76</ele>
        <time>2022-04-17T13:35:52Z</time>
      </trkpt>
      <trkpt lat="45.06597" lon="3.56508">
        <ele>630.76</ele>
        <time>2022-04-17T13:36:08Z</time>
      </trkpt>
      <trkpt lat="45.06607" lon="3.56483">
        <ele>632.2</ele>
        <time>2022-04-17T13:36:25Z</time>
      </trkpt>
      <trkpt lat="45.06618" lon="3.56463">
        <ele>634.13</ele>
        <time>2022-04-17T13:36:40Z</time>
      </trkpt>
      <trkpt lat="45.06628" lon="3.56445">
        <ele>635.09</ele>
        <time>2022-04-17T13:36:54Z</time>
      </trkpt>
      <trkpt lat="45.0663" lon="3.56442">
        <ele>635.57</ele>
        <time>2022-04-17T13:36:57Z</time>
      </trkpt>
      <trkpt lat="45.06646" lon="3.56438">
        <ele>636.53</ele>
        <time>2022-04-17T13:37:15Z</time>
      </trkpt>
      <trkpt lat="45.06649" lon="3.56432">
        <ele>637.01</ele>
        <time>2022-04-17T13:37:26Z</time>
      </trkpt>
      <trkpt lat="45.06651" lon="3.56424">
        <ele>637.01</ele>
        <time>2022-04-17T13:37:32Z</time>
      </trkpt>
      <trkpt lat="45.06653" lon="3.56421">
        <ele>636.53</ele>
        <time>2022-04-17T13:37:34Z</time>
      </trkpt>
      <trkpt lat="45.06653" lon="3.56402">
        <ele>636.05</ele>
        <time>2022-04-17T13:37:48Z</time>
      </trkpt>
      <trkpt lat="45.06655" lon="3.56367">
        <ele>636.05</ele>
        <time>2022-04-17T13:38:07Z</time>
      </trkpt>
      <trkpt lat="45.06661" lon="3.56335">
        <ele>637.49</ele>
        <time>2022-04-17T13:38:26Z</time>
      </trkpt>
      <trkpt lat="45.06666" lon="3.56316">
        <ele>638.45</ele>
        <time>2022-04-17T13:38:40Z</time>
      </trkpt>
      <trkpt lat="45.0667" lon="3.56287">
        <ele>638.45</ele>
        <time>2022-04-17T13:38:56Z</time>
      </trkpt>
      <trkpt lat="45.06668" lon="3.56258">
        <ele>638.93</ele>
        <time>2022-04-17T13:39:14Z</time>
      </trkpt>
      <trkpt lat="45.06658" lon="3.56236">
        <ele>638.45</ele>
        <time>2022-04-17T13:39:31Z</time>
      </trkpt>
      <trkpt lat="45.06658" lon="3.56232">
        <ele>638.45</ele>
        <time>2022-04-17T13:39:34Z</time>
      </trkpt>
      <trkpt lat="45.06658" lon="3.56205">
        <ele>637.49</ele>
        <time>2022-04-17T13:39:51Z</time>
      </trkpt>
      <trkpt lat="45.06657" lon="3.56179">
        <ele>637.01</ele>
        <time>2022-04-17T13:40:08Z</time>
      </trkpt>
      <trkpt lat="45.06659" lon="3.56168">
        <ele>635.09</ele>
        <time>2022-04-17T13:40:21Z</time>
      </trkpt>
      <trkpt lat="45.06657" lon="3.56145">
        <ele>632.2</ele>
        <time>2022-04-17T13:40:34Z</time>
      </trkpt>
      <trkpt lat="45.06655" lon="3.56138">
        <ele>631.24</ele>
        <time>2022-04-17T13:40:38Z</time>
      </trkpt>
      <trkpt lat="45.06655" lon="3.56122">
        <ele>629.8</ele>
        <time>2022-04-17T13:40:47Z</time>
      </trkpt>
      <trkpt lat="45.06655" lon="3.56102">
        <ele>627.88</ele>
        <time>2022-04-17T13:40:56Z</time>
      </trkpt>
      <trkpt lat="45.06656" lon="3.56096">
        <ele>627.4</ele>
        <time>2022-04-17T13:40:59Z</time>
      </trkpt>
      <trkpt lat="45.06656" lon="3.56065">
        <ele>627.4</ele>
        <time>2022-04-17T13:41:16Z</time>
      </trkpt>
      <trkpt lat="45.0666" lon="3.56037">
        <ele>624.03</ele>
        <time>2022-04-17T13:41:32Z</time>
      </trkpt>
      <trkpt lat="45.06661" lon="3.56009">
        <ele>620.67</ele>
        <time>2022-04-17T13:41:47Z</time>
      </trkpt>
      <trkpt lat="45.0666" lon="3.55978">
        <ele>616.82</ele>
        <time>2022-04-17T13:42:05Z</time>
      </trkpt>
      <trkpt lat="45.06662" lon="3.5595">
        <ele>612.98</ele>
        <time>2022-04-17T13:42:23Z</time>
      </trkpt>
      <trkpt lat="45.06664" lon="3.55927">
        <ele>609.61</ele>
        <time>2022-04-17T13:42:37Z</time>
      </trkpt>
      <trkpt lat="45.06664" lon="3.55905">
        <ele>606.73</ele>
        <time>2022-04-17T13:42:51Z</time>
      </trkpt>
      <trkpt lat="45.06666" lon="3.55885">
        <ele>603.85</ele>
        <time>2022-04-17T13:43:04Z</time>
      </trkpt>
      <trkpt lat="45.06678" lon="3.55863">
        <ele>605.29</ele>
        <time>2022-04-17T13:43:20Z</time>
      </trkpt>
      <trkpt lat="45.06681" lon="3.55852">
        <ele>605.77</ele>
        <time>2022-04-17T13:43:27Z</time>
      </trkpt>
      <trkpt lat="45.06691" lon="3.55834">
        <ele>606.25</ele>
        <time>2022-04-17T13:43:44Z</time>
      </trkpt>
      <trkpt lat="45.06698" lon="3.55825">
        <ele>602.88</ele>
        <time>2022-04-17T13:43:55Z</time>
      </trkpt>
      <trkpt lat="45.06701" lon="3.55824">
        <ele>601.92</ele>
        <time>2022-04-17T13:44:00Z</time>
      </trkpt>
      <trkpt lat="45.0671" lon="3.55818">
        <ele>601.44</ele>
        <time>2022-04-17T13:44:14Z</time>
      </trkpt>
      <trkpt lat="45.0671" lon="3.55814">
        <ele>601.92</ele>
        <time>2022-04-17T13:44:19Z</time>
      </trkpt>
      <trkpt lat="45.06709" lon="3.55812">
        <ele>601.92</ele>
        <time>2022-04-17T13:44:21Z</time>
      </trkpt>
      <trkpt lat="45.06709" lon="3.55793">
        <ele>597.6</ele>
        <time>2022-04-17T13:44:36Z</time>
      </trkpt>
      <trkpt lat="45.06714" lon="3.55779">
        <ele>595.19</ele>
        <time>2022-04-17T13:44:48Z</time>
      </trkpt>
      <trkpt lat="45.06713" lon="3.55769">
        <ele>594.23</ele>
        <time>2022-04-17T13:44:54Z</time>
      </trkpt>
      <trkpt lat="45.06713" lon="3.55755">
        <ele>592.31</ele>
        <time>2022-04-17T13:45:08Z</time>
      </trkpt>
      <trkpt lat="45.06715" lon="3.55739">
        <ele>589.91</ele>
        <time>2022-04-17T13:45:21Z</time>
      </trkpt>
      <trkpt lat="45.06718" lon="3.55715">
        <ele>585.1</ele>
        <time>2022-04-17T13:45:35Z</time>
      </trkpt>
      <trkpt lat="45.06717" lon="3.5569">
        <ele>583.18</ele>
        <time>2022-04-17T13:45:50Z</time>
      </trkpt>
      <trkpt lat="45.06718" lon="3.55674">
        <ele>582.7</ele>
        <time>2022-04-17T13:46:02Z</time>
      </trkpt>
      <trkpt lat="45.06726" lon="3.55645">
        <ele>578.85</ele>
        <time>2022-04-17T13:46:22Z</time>
      </trkpt>
      <trkpt lat="45.06733" lon="3.55617">
        <ele>576.93</ele>
        <time>2022-04-17T13:46:40Z</time>
      </trkpt>
      <trkpt lat="45.0674" lon="3.55583">
        <ele>575.01</ele>
        <time>2022-04-17T13:47:02Z</time>
      </trkpt>
      <trkpt lat="45.06741" lon="3.55551">
        <ele>575.01</ele>
        <time>2022-04-17T13:47:21Z</time>
      </trkpt>
      <trkpt lat="45.06744" lon="3.55522">
        <ele>572.6</ele>
        <time>2022-04-17T13:47:39Z</time>
      </trkpt>
      <trkpt lat="45.06746" lon="3.55491">
        <ele>571.16</ele>
        <time>2022-04-17T13:47:59Z</time>
      </trkpt>
      <trkpt lat="45.06745" lon="3.55464">
        <ele>570.68</ele>
        <time>2022-04-17T13:48:15Z</time>
      </trkpt>
      <trkpt lat="45.06746" lon="3.55431">
        <ele>569.72</ele>
        <time>2022-04-17T13:48:35Z</time>
      </trkpt>
      <trkpt lat="45.06747" lon="3.55398">
        <ele>568.28</ele>
        <time>2022-04-17T13:48:54Z</time>
      </trkpt>
      <trkpt lat="45.06748" lon="3.55395">
        <ele>568.28</ele>
        <time>2022-04-17T13:48:57Z</time>
      </trkpt>
      <trkpt lat="45.06749" lon="3.55392">
        <ele>569.24</ele>
        <time>2022-04-17T13:49:03Z</time>
      </trkpt>
      <trkpt lat="45.06748" lon="3.5538">
        <ele>568.76</ele>
        <time>2022-04-17T13:49:10Z</time>
      </trkpt>
      <trkpt lat="45.06749" lon="3.55352">
        <ele>569.24</ele>
        <time>2022-04-17T13:49:26Z</time>
      </trkpt>
      <trkpt lat="45.0675" lon="3.55343">
        <ele>568.76</ele>
        <time>2022-04-17T13:49:31Z</time>
      </trkpt>
      <trkpt lat="45.06748" lon="3.55322">
        <ele>567.32</ele>
        <time>2022-04-17T13:49:42Z</time>
      </trkpt>
      <trkpt lat="45.06747" lon="3.55318">
        <ele>567.32</ele>
        <time>2022-04-17T13:49:44Z</time>
      </trkpt>
      <trkpt lat="45.06747" lon="3.55309">
        <ele>567.32</ele>
        <time>2022-04-17T13:49:49Z</time>
      </trkpt>
      <trkpt lat="45.06747" lon="3.55286">
        <ele>567.8</ele>
        <time>2022-04-17T13:50:03Z</time>
      </trkpt>
      <trkpt lat="45.06747" lon="3.55279">
        <ele>568.28</ele>
        <time>2022-04-17T13:50:07Z</time>
      </trkpt>
      <trkpt lat="45.06745" lon="3.55271">
        <ele>568.76</ele>
        <time>2022-04-17T13:50:12Z</time>
      </trkpt>
      <trkpt lat="45.06744" lon="3.55251">
        <ele>568.76</ele>
        <time>2022-04-17T13:50:24Z</time>
      </trkpt>
      <trkpt lat="45.06745" lon="3.55245">
        <ele>568.76</ele>
        <time>2022-04-17T13:50:27Z</time>
      </trkpt>
      <trkpt lat="45.06745" lon="3.55234">
        <ele>568.76</ele>
        <time>2022-04-17T13:50:41Z</time>
      </trkpt>
      <trkpt lat="45.06746" lon="3.55233">
        <ele>569.24</ele>
        <time>2022-04-17T13:51:02Z</time>
      </trkpt>
      <trkpt lat="45.06747" lon="3.55231">
        <ele>568.28</ele>
        <time>2022-04-17T13:51:14Z</time>
      </trkpt>
      <trkpt lat="45.06748" lon="3.55229">
        <ele>568.76</ele>
        <time>2022-04-17T13:51:16Z</time>
      </trkpt>
      <trkpt lat="45.06748" lon="3.55223">
        <ele>569.72</ele>
        <time>2022-04-17T13:51:20Z</time>
      </trkpt>
      <trkpt lat="45.06749" lon="3.55213">
        <ele>570.2</ele>
        <time>2022-04-17T13:51:26Z</time>
      </trkpt>
      <trkpt lat="45.06753" lon="3.55182">
        <ele>571.64</ele>
        <time>2022-04-17T13:51:44Z</time>
      </trkpt>
      <trkpt lat="45.06758" lon="3.5516">
        <ele>575.01</ele>
        <time>2022-04-17T13:51:59Z</time>
      </trkpt>
      <trkpt lat="45.0676" lon="3.55158">
        <ele>575.49</ele>
        <time>2022-04-17T13:52:01Z</time>
      </trkpt>
      <trkpt lat="45.06762" lon="3.55157">
        <ele>575.97</ele>
        <time>2022-04-17T13:52:03Z</time>
      </trkpt>
      <trkpt lat="45.06775" lon="3.55137">
        <ele>578.37</ele>
        <time>2022-04-17T13:52:20Z</time>
      </trkpt>
      <trkpt lat="45.06793" lon="3.55117">
        <ele>575.49</ele>
        <time>2022-04-17T13:52:39Z</time>
      </trkpt>
      <trkpt lat="45.06799" lon="3.55108">
        <ele>575.01</ele>
        <time>2022-04-17T13:52:52Z</time>
      </trkpt>
      <trkpt lat="45.06802" lon="3.55104">
        <ele>575.01</ele>
        <time>2022-04-17T13:52:56Z</time>
      </trkpt>
      <trkpt lat="45.06818" lon="3.55105">
        <ele>574.53</ele>
        <time>2022-04-17T13:53:11Z</time>
      </trkpt>
      <trkpt lat="45.06819" lon="3.55105">
        <ele>573.56</ele>
        <time>2022-04-17T13:53:26Z</time>
      </trkpt>
      <trkpt lat="45.06818" lon="3.55106">
        <ele>573.08</ele>
        <time>2022-04-17T13:53:54Z</time>
      </trkpt>
      <trkpt lat="45.06818" lon="3.55108">
        <ele>574.04</ele>
        <time>2022-04-17T13:54:07Z</time>
      </trkpt>
      <trkpt lat="45.06819" lon="3.55103">
        <ele>572.6</ele>
        <time>2022-04-17T13:54:26Z</time>
      </trkpt>
      <trkpt lat="45.0682" lon="3.55098">
        <ele>573.56</ele>
        <time>2022-04-17T13:54:39Z</time>
      </trkpt>
      <trkpt lat="45.06823" lon="3.55092">
        <ele>573.56</ele>
        <time>2022-04-17T13:54:44Z</time>
      </trkpt>
      <trkpt lat="45.06827" lon="3.55089">
        <ele>573.56</ele>
        <time>2022-04-17T13:54:48Z</time>
      </trkpt>
      <trkpt lat="45.06835" lon="3.55075">
        <ele>573.56</ele>
        <time>2022-04-17T13:55:05Z</time>
      </trkpt>
      <trkpt lat="45.06836" lon="3.55072">
        <ele>573.56</ele>
        <time>2022-04-17T13:55:11Z</time>
      </trkpt>
      <trkpt lat="45.06833" lon="3.55061">
        <ele>571.16</ele>
        <time>2022-04-17T13:55:27Z</time>
      </trkpt>
      <trkpt lat="45.06833" lon="3.55059">
        <ele>571.16</ele>
        <time>2022-04-17T13:55:28Z</time>
      </trkpt>
      <trkpt lat="45.06832" lon="3.5505">
        <ele>571.16</ele>
        <time>2022-04-17T13:55:35Z</time>
      </trkpt>
      <trkpt lat="45.06829" lon="3.55037">
        <ele>568.76</ele>
        <time>2022-04-17T13:55:44Z</time>
      </trkpt>
      <trkpt lat="45.06839" lon="3.55026">
        <ele>568.28</ele>
        <time>2022-04-17T13:56:00Z</time>
      </trkpt>
      <trkpt lat="45.0685" lon="3.55011">
        <ele>568.28</ele>
        <time>2022-04-17T13:56:15Z</time>
      </trkpt>
      <trkpt lat="45.06852" lon="3.5501">
        <ele>568.28</ele>
        <time>2022-04-17T13:56:16Z</time>
      </trkpt>
      <trkpt lat="45.06862" lon="3.54995">
        <ele>567.32</ele>
        <time>2022-04-17T13:56:31Z</time>
      </trkpt>
      <trkpt lat="45.06862" lon="3.54993">
        <ele>566.83</ele>
        <time>2022-04-17T13:56:32Z</time>
      </trkpt>
      <trkpt lat="45.06862" lon="3.54991">
        <ele>566.83</ele>
        <time>2022-04-17T13:56:36Z</time>
      </trkpt>
      <trkpt lat="45.06855" lon="3.54993">
        <ele>566.35</ele>
        <time>2022-04-17T13:56:44Z</time>
      </trkpt>
      <trkpt lat="45.06856" lon="3.5499">
        <ele>566.83</ele>
        <time>2022-04-17T13:56:56Z</time>
      </trkpt>
      <trkpt lat="45.06856" lon="3.5499">
        <ele>567.32</ele>
        <time>2022-04-17T13:56:57Z</time>
      </trkpt>
      <trkpt lat="45.06863" lon="3.54984">
        <ele>566.35</ele>
        <time>2022-04-17T13:57:04Z</time>
      </trkpt>
      <trkpt lat="45.06871" lon="3.54975">
        <ele>564.91</ele>
        <time>2022-04-17T13:57:13Z</time>
      </trkpt>
      <trkpt lat="45.06879" lon="3.54963">
        <ele>561.55</ele>
        <time>2022-04-17T13:57:26Z</time>
      </trkpt>
      <trkpt lat="45.06881" lon="3.54958">
        <ele>560.59</ele>
        <time>2022-04-17T13:57:30Z</time>
      </trkpt>
      <trkpt lat="45.06891" lon="3.54943">
        <ele>560.59</ele>
        <time>2022-04-17T13:57:46Z</time>
      </trkpt>
      <trkpt lat="45.06904" lon="3.54929">
        <ele>560.11</ele>
        <time>2022-04-17T13:58:02Z</time>
      </trkpt>
      <trkpt lat="45.06915" lon="3.5492">
        <ele>556.74</ele>
        <time>2022-04-17T13:58:13Z</time>
      </trkpt>
      <trkpt lat="45.06928" lon="3.54924">
        <ele>552.9</ele>
        <time>2022-04-17T13:58:27Z</time>
      </trkpt>
      <trkpt lat="45.06933" lon="3.54926">
        <ele>552.41</ele>
        <time>2022-04-17T13:58:31Z</time>
      </trkpt>
      <trkpt lat="45.06938" lon="3.54922">
        <ele>547.13</ele>
        <time>2022-04-17T13:58:44Z</time>
      </trkpt>
      <trkpt lat="45.06938" lon="3.54921">
        <ele>547.13</ele>
        <time>2022-04-17T13:58:45Z</time>
      </trkpt>
      <trkpt lat="45.06938" lon="3.54914">
        <ele>546.17</ele>
        <time>2022-04-17T13:58:58Z</time>
      </trkpt>
      <trkpt lat="45.06936" lon="3.54911">
        <ele>544.72</ele>
        <time>2022-04-17T13:59:14Z</time>
      </trkpt>
      <trkpt lat="45.06932" lon="3.54902">
        <ele>542.8</ele>
        <time>2022-04-17T13:59:30Z</time>
      </trkpt>
      <trkpt lat="45.06919" lon="3.54882">
        <ele>542.8</ele>
        <time>2022-04-17T13:59:48Z</time>
      </trkpt>
      <trkpt lat="45.06905" lon="3.54873">
        <ele>541.36</ele>
        <time>2022-04-17T14:00:00Z</time>
      </trkpt>
      <trkpt lat="45.06888" lon="3.54871">
        <ele>537.03</ele>
        <time>2022-04-17T14:00:16Z</time>
      </trkpt>
      <trkpt lat="45.06883" lon="3.54864">
        <ele>535.11</ele>
        <time>2022-04-17T14:00:30Z</time>
      </trkpt>
      <trkpt lat="45.06886" lon="3.54859">
        <ele>533.67</ele>
        <time>2022-04-17T14:00:38Z</time>
      </trkpt>
    </trkseg>
  </trk>
</gpx>